Provisional Data: West Branch Owego Creek near Speedsville, NY


Please select a monitoring station.
Please select start date.
Please select start date.

Toggle Unit: C/F Toggle Unit: C/F
Sample Time Temperature (C) Temperature (F) Specific Conductivity (mS/cm) pH   Turbidity (NTU+) DO (mg/L)
10/22/2021 12:00:00 AM 12.93 55.274 0.146 7.34 5.5 9.73
10/22/2021 12:15:00 AM 12.93 55.274 0.144 7.34 5.71 9.77
10/22/2021 12:30:00 AM 12.93 55.274 0.141 7.33 7.33 9.77
10/22/2021 12:45:00 AM 12.93 55.274 0.138 7.3 9.02 9.74
10/22/2021 1:00:00 AM 12.94 55.292 0.133 7.28 26.09 9.76
10/22/2021 1:15:00 AM 12.96 55.328 0.129 7.26 35.05 9.76
10/22/2021 1:30:00 AM 12.96 55.328 0.129 7.25 25.22 9.73
10/22/2021 1:45:00 AM 12.96 55.328 0.13 7.26 19.07 9.73
10/22/2021 2:00:00 AM 12.98 55.364 0.129 7.26 18.13 9.73
10/22/2021 2:15:00 AM 13 55.4 0.125 7.25 21.64 9.71
10/22/2021 2:30:00 AM 13 55.4 0.121 7.22 24.45 9.69
10/22/2021 2:45:00 AM 12.99 55.382 0.12 7.21 20.33 9.68
10/22/2021 3:00:00 AM 12.98 55.364 0.121 7.22 18.75 9.7
10/22/2021 3:15:00 AM 12.97 55.346 0.121 7.22 16.85 9.71
10/22/2021 3:30:00 AM 12.95 55.31 0.121 7.22 15.56 9.73
10/22/2021 3:45:00 AM 12.94 55.292 0.122 7.23 17.16 9.74
10/22/2021 4:00:00 AM 12.92 55.256 0.124 7.23 17.45 9.74
10/22/2021 4:15:00 AM 12.9 55.22 0.127 7.24 21.38 9.73
10/22/2021 4:30:00 AM 12.88 55.184 0.13 7.25 20.7 9.75
10/22/2021 4:45:00 AM 12.85 55.13 0.133 7.23 19.13 9.76
10/22/2021 5:00:00 AM 12.83 55.094 0.134 7.26 17.45 9.78
10/22/2021 5:15:00 AM 12.81 55.058 0.133 7.25 18.05 9.8
10/22/2021 5:30:00 AM 12.8 55.04 0.131 7.27 15.66 9.82
10/22/2021 5:45:00 AM 12.79 55.022 0.129 7.26 41.81 9.84
10/22/2021 6:00:00 AM 12.78 55.004 0.128 7.22 24.2 9.85
10/22/2021 6:15:00 AM 12.77 54.986 0.126 7.23 54.38 9.85
10/22/2021 6:30:00 AM 12.77 54.986 0.123 7.22 78.85 9.85
10/22/2021 6:45:00 AM 12.77 54.986 0.12 7.25 20.15 9.84
10/22/2021 7:00:00 AM 12.76 54.968 0.118 7.24 18.1 9.84
10/22/2021 7:15:00 AM 12.75 54.95 0.116 7.21 17.78 9.84
10/22/2021 7:30:00 AM 12.74 54.932 0.115 7.21 18.69 9.83
10/22/2021 7:45:00 AM 12.72 54.896 0.114 7.2 17.5 9.83
10/22/2021 8:00:00 AM 12.71 54.878 0.113 7.22 16.92 9.84
10/22/2021 8:15:00 AM 12.68 54.824 0.112 7.21 17.84 9.84
10/22/2021 8:30:00 AM 12.66 54.788 0.112 7.2 16.77 9.85
10/22/2021 8:45:00 AM 12.64 54.752 0.111 7.21 16.49 9.87
10/22/2021 9:00:00 AM 12.62 54.716 0.11 7.2 15.97 9.89
10/22/2021 9:15:00 AM 12.61 54.698 0.109 7.2 16.05 9.92
10/22/2021 9:30:00 AM 12.59 54.662 0.108 7.2 16.56 9.94
10/22/2021 9:45:00 AM 12.59 54.662 0.107 7.21 17.38 9.99
10/22/2021 10:00:00 AM 12.58 54.644 0.107 7.22 17.54 10.02
10/22/2021 10:15:00 AM 12.56 54.608 0.106 7.22 15.42 10.04
10/22/2021 10:30:00 AM 12.55 54.59 0.106 7.22 15.46 10.06
10/22/2021 10:45:00 AM 12.53 54.554 0.106 7.22 15.4 10.06
10/22/2021 11:00:00 AM 12.52 54.536 0.106 7.21 14.36 10.09
10/22/2021 11:15:00 AM 12.5 54.5 0.106 7.23 13.42 10.13
10/22/2021 11:30:00 AM 12.5 54.5 0.106 7.24 12.73 10.18
10/22/2021 11:45:00 AM 12.48 54.464 0.106 7.24 12.03 10.2
10/22/2021 12:00:00 PM 12.46 54.428 0.106 7.25 11.62 10.22
10/22/2021 12:15:00 PM 12.44 54.392 0.107 7.25 11.56 10.24
10/22/2021 12:30:00 PM 12.43 54.374 0.107 7.25 12.08 10.25
10/22/2021 12:45:00 PM 12.41 54.338 0.074 7.24 9.38 10.27
10/22/2021 1:00:00 PM 12.4 54.32 0.107 7.23 11.65 10.29
10/22/2021 1:15:00 PM 12.4 54.32 0.107 7.26 9.59 10.33
10/22/2021 1:30:00 PM 12.42 54.356 0.108 7.26 9.35 10.39
10/22/2021 1:45:00 PM 12.42 54.356 0.108 7.27 10.38 10.41
10/22/2021 2:00:00 PM 12.41 54.338 0.108 7.28 11.62 10.42
10/22/2021 2:15:00 PM 12.43 54.374 0.108 7.28 8.93 10.47
10/22/2021 2:30:00 PM 12.44 54.392 0.108 7.3 8.97 10.48
10/22/2021 2:45:00 PM 12.47 54.446 0.109 7.31 7.74 10.52
10/22/2021 3:00:00 PM 12.48 54.464 0.109 7.29 7.33 10.54
10/22/2021 3:15:00 PM 12.51 54.518 0.109 7.34 7.39 10.58
10/22/2021 3:30:00 PM 12.52 54.536 0.109 7.34 7.02 10.61
10/22/2021 3:45:00 PM 12.53 54.554 0.109 7.36 6.79 10.61
10/22/2021 4:00:00 PM 12.53 54.554 0.11 7.36 6.61 10.58
10/22/2021 4:15:00 PM 12.51 54.518 0.11 7.36 6.59 10.55
10/22/2021 4:30:00 PM 12.48 54.464 0.11 7.35 6.09 10.5
10/22/2021 4:45:00 PM 12.45 54.41 0.111 7.34 8.09 10.46
10/22/2021 5:00:00 PM 12.41 54.338 0.111 7.34 6.07 10.41
10/22/2021 5:15:00 PM 12.36 54.248 0.111 7.33 5.98 10.37
10/22/2021 5:30:00 PM 12.31 54.158 0.112 7.33 6.05 10.34
10/22/2021 5:45:00 PM 12.26 54.068 0.112 7.32 5.72 10.31
10/22/2021 6:00:00 PM 12.2 53.96 0.112 7.31 5.76 10.28
10/22/2021 6:15:00 PM 12.14 53.852 0.112 7.3 5.39 10.26
10/22/2021 6:30:00 PM 12.07 53.726 0.113 7.29 5.25 10.24
10/22/2021 6:45:00 PM 12 53.6 0.113 7.29 5.4 10.22
10/22/2021 7:00:00 PM 11.93 53.474 0.113 7.29 5.3 10.2
10/22/2021 7:15:00 PM 11.86 53.348 0.114 7.28 5.07 10.19
10/22/2021 7:30:00 PM 11.8 53.24 0.114 7.28 5.54 10.19
10/22/2021 7:45:00 PM 11.73 53.114 0.114 7.27 5.25 10.2
10/22/2021 8:00:00 PM 11.66 52.988 0.115 7.26 4.79 10.21
10/22/2021 8:15:00 PM 11.6 52.88 0.115 7.26 4.96 10.22
10/22/2021 8:30:00 PM 11.53 52.754 0.115 7.26 4.93 10.24
10/22/2021 8:45:00 PM 11.46 52.628 0.115 7.25 4.75 10.24
10/22/2021 9:00:00 PM 11.39 52.502 0.116 7.25 4.67 10.26
10/22/2021 9:15:00 PM 11.33 52.394 0.116 7.26 4.68 10.27
10/22/2021 9:30:00 PM 11.26 52.268 0.116 7.25 4.55 10.29
10/22/2021 9:45:00 PM 11.19 52.142 0.117 7.26 4.71 10.31
10/22/2021 10:00:00 PM 11.13 52.034 0.117 7.26 4.32 10.32
10/22/2021 10:15:00 PM 11.07 51.926 0.117 7.26 4.39 10.34
10/22/2021 10:30:00 PM 11 51.8 0.117 7.27 4.92 10.36
10/22/2021 10:45:00 PM 10.94 51.692 0.118 7.26 4.47 10.38
10/22/2021 11:00:00 PM 10.88 51.584 0.118 7.26 4.29 10.39
10/22/2021 11:15:00 PM 10.82 51.476 0.118 7.27 4.23 10.41
10/22/2021 11:30:00 PM 10.76 51.368 0.119 7.27 4.19 10.42
10/22/2021 11:45:00 PM 10.71 51.278 0.119 7.27 3.89 10.43
10/23/2021 12:00:00 AM 10.66 51.188 0.119 7.27 3.93 10.44
10/23/2021 12:15:00 AM 10.61 51.098 0.119 7.27 3.82 10.45
10/23/2021 12:30:00 AM 10.57 51.026 0.12 7.28 3.96 10.46
10/23/2021 12:45:00 AM 10.52 50.936 0.12 7.27 4.2 10.47
10/23/2021 1:00:00 AM 10.48 50.864 0.12 7.28 3.91 10.48
10/23/2021 1:15:00 AM 10.43 50.774 0.12 7.27 3.91 10.5
10/23/2021 1:30:00 AM 10.39 50.702 0.12 7.28 3.67 10.51
10/23/2021 1:45:00 AM 10.35 50.63 0.121 7.3 3.72 10.53
10/23/2021 2:00:00 AM 10.3 50.54 0.121 7.29 3.71 10.54
10/23/2021 2:15:00 AM 10.26 50.468 0.121 7.28 3.58 10.55
10/23/2021 2:30:00 AM 10.22 50.396 0.121 7.28 3.53 10.57
10/23/2021 2:45:00 AM 10.17 50.306 0.121 7.28 3.5 10.58
10/23/2021 3:00:00 AM 10.13 50.234 0.121 7.28 3.41 10.59
10/23/2021 3:15:00 AM 10.1 50.18 0.121 7.27 3.49 10.6
10/23/2021 3:30:00 AM 10.06 50.108 0.122 7.27 3.41 10.61
10/23/2021 3:45:00 AM 10.03 50.054 0.122 7.27 3.22 10.61
10/23/2021 4:00:00 AM 10 50 0.122 7.26 3.31 10.63
10/23/2021 4:15:00 AM 9.97 49.946 0.122 7.27 3.21 10.63
10/23/2021 4:30:00 AM 9.94 49.892 0.122 7.28 3.46 10.64
10/23/2021 4:45:00 AM 9.91 49.838 0.122 7.28 3.23 10.65
10/23/2021 5:00:00 AM 9.88 49.784 0.122 7.28 3.27 10.66
10/23/2021 5:15:00 AM 9.86 49.748 0.122 7.28 3.08 10.67
10/23/2021 5:30:00 AM 9.83 49.694 0.122 7.28 3.19 10.68
10/23/2021 5:45:00 AM 9.81 49.658 0.122 7.28 3.07 10.69
10/23/2021 6:00:00 AM 9.78 49.604 0.123 7.28 3.02 10.7
10/23/2021 6:15:00 AM 9.76 49.568 0.123 7.28 3.04 10.71
10/23/2021 6:30:00 AM 9.74 49.532 0.123 7.29 2.92 10.72
10/23/2021 6:45:00 AM 9.72 49.496 0.123 7.29 3 10.74
10/23/2021 7:00:00 AM 9.69 49.442 0.123 7.29 2.94 10.75
10/23/2021 7:15:00 AM 9.67 49.406 0.123 7.29 3.15 10.75
10/23/2021 7:30:00 AM 9.65 49.37 0.123 7.29 2.98 10.76
10/23/2021 7:45:00 AM 9.62 49.316 0.123 7.29 2.93 10.78
10/23/2021 8:00:00 AM 9.6 49.28 0.123 7.29 2.88 10.8
10/23/2021 8:15:00 AM 9.59 49.262 0.123 7.3 2.85 10.83
10/23/2021 8:30:00 AM 9.58 49.244 0.123 7.31 2.61 10.88
10/23/2021 8:45:00 AM 9.58 49.244 0.123 7.31 2.62 10.95
10/23/2021 9:00:00 AM 9.59 49.262 0.123 7.33 2.55 11.02
10/23/2021 9:15:00 AM 9.61 49.298 0.123 7.34 2.45 11.11
10/23/2021 9:30:00 AM 9.64 49.352 0.123 7.36 2.4 11.21
10/23/2021 9:45:00 AM 9.64 49.352 0.123 7.38 2.29 11.25
10/23/2021 10:00:00 AM 9.67 49.406 0.124 7.39 2.25 11.3
10/23/2021 10:15:00 AM 9.69 49.442 0.124 7.4 2.18 11.35
10/23/2021 10:30:00 AM 9.72 49.496 0.124 7.42 2.22 11.4
10/23/2021 10:45:00 AM 9.78 49.604 0.124 7.44 2.19 11.47
10/23/2021 11:00:00 AM 9.82 49.676 0.124 7.46 2.08 11.53
10/23/2021 11:15:00 AM 9.86 49.748 0.124 7.48 2.12 11.57
10/23/2021 11:30:00 AM 9.91 49.838 0.124 7.49 2.12 11.6
10/23/2021 11:45:00 AM 9.96 49.928 0.124 7.51 2.16 11.61
10/23/2021 12:00:00 PM 10 50 0.124 7.51 2.15 11.62
10/23/2021 12:15:00 PM 10.02 50.036 0.124 7.52 2.02 11.61
10/23/2021 12:30:00 PM 10.04 50.072 0.124 7.53 2.11 11.58
10/23/2021 12:45:00 PM 10.06 50.108 0.124 7.53 2.19 11.56
10/23/2021 1:00:00 PM 10.07 50.126 0.124 7.53 2.06 11.54
10/23/2021 1:15:00 PM 10.08 50.144 0.124 7.53 2.44 11.52
10/23/2021 1:30:00 PM 10.11 50.198 0.124 7.54 2.08 11.53
10/23/2021 1:45:00 PM 10.15 50.27 0.124 7.54 2.11 11.55
10/23/2021 2:00:00 PM 10.19 50.342 0.125 7.57 2.11 11.59
10/23/2021 2:15:00 PM 10.22 50.396 0.125 7.57 1.91 11.63
10/23/2021 2:30:00 PM 10.26 50.468 0.125 7.58 2.05 11.63
10/23/2021 2:45:00 PM 10.29 50.522 0.125 7.59 2.05 11.63
10/23/2021 3:00:00 PM 10.31 50.558 0.125 7.58 2.03 11.58
10/23/2021 3:15:00 PM 10.34 50.612 0.125 7.59 2.07 11.55
10/23/2021 3:30:00 PM 10.36 50.648 0.126 7.59 1.92 11.52
10/23/2021 3:45:00 PM 10.37 50.666 0.127 7.56 2.08 11.47
10/23/2021 4:00:00 PM 10.39 50.702 0.127 7.57 2 11.47
10/23/2021 4:15:00 PM 10.4 50.72 0.127 7.56 1.96 11.4
10/23/2021 4:30:00 PM 10.4 50.72 0.127 7.54 1.99 11.33
10/23/2021 4:45:00 PM 10.41 50.738 0.127 7.54 2.02 11.29
10/23/2021 5:00:00 PM 10.42 50.756 0.127 7.53 2.01 11.28
10/23/2021 5:15:00 PM 10.4 50.72 0.127 7.51 2.17 11.18
10/23/2021 5:30:00 PM 10.39 50.702 0.127 7.48 2.05 11.12
10/23/2021 5:45:00 PM 10.38 50.684 0.127 7.47 2.04 11.06
10/23/2021 6:00:00 PM 10.37 50.666 0.127 7.45 2.18 11
10/23/2021 6:15:00 PM 10.35 50.63 0.127 7.44 2.08 10.92
10/23/2021 6:30:00 PM 10.32 50.576 0.127 7.43 2.11 10.87
10/23/2021 6:45:00 PM 10.29 50.522 0.127 7.4 2.2 10.83
10/23/2021 7:00:00 PM 10.26 50.468 0.126 7.39 2.13 10.78
10/23/2021 7:15:00 PM 10.22 50.396 0.126 7.39 2.25 10.77
10/23/2021 7:30:00 PM 10.19 50.342 0.126 7.37 2.35 10.74
10/23/2021 7:45:00 PM 10.15 50.27 0.126 7.37 2.26 10.73
10/23/2021 8:00:00 PM 10.12 50.216 0.126 7.36 2.47 10.71
10/23/2021 8:15:00 PM 10.1 50.18 0.126 7.35 2.28 10.72
10/23/2021 8:30:00 PM 10.08 50.144 0.126 7.35 2.23 10.71
10/23/2021 8:45:00 PM 10.06 50.108 0.126 7.35 2.27 10.7
10/23/2021 9:00:00 PM 10.04 50.072 0.127 7.34 2.3 10.71
10/23/2021 9:15:00 PM 10.01 50.018 0.126 7.35 2.29 10.71
10/23/2021 9:30:00 PM 9.99 49.982 0.127 7.34 2.23 10.7
10/23/2021 9:45:00 PM 9.97 49.946 0.127 7.34 2.33 10.71
10/23/2021 10:00:00 PM 9.94 49.892 0.127 7.34 2.29 10.72
10/23/2021 10:15:00 PM 9.92 49.856 0.127 7.35 2.38 10.72
10/23/2021 10:30:00 PM 9.89 49.802 0.127 7.32 2.38 10.73
10/23/2021 10:45:00 PM 9.87 49.766 0.127 7.33 2.34 10.73
10/23/2021 11:00:00 PM 9.86 49.748 0.127 7.3 2.29 10.74
10/23/2021 11:15:00 PM 9.84 49.712 0.127 7.29 2.3 10.74
10/23/2021 11:30:00 PM 9.82 49.676 0.127 7.28 2.26 10.75
10/23/2021 11:45:00 PM 9.8 49.64 0.127 7.28 2.24 10.76
10/24/2021 12:00:00 AM 9.78 49.604 0.127 7.28 2.2 10.77
10/24/2021 12:15:00 AM 9.76 49.568 0.127 7.28 2.3 10.78
10/24/2021 12:30:00 AM 9.74 49.532 0.127 7.28 2.22 10.79
10/24/2021 12:45:00 AM 9.72 49.496 0.127 7.28 2.3 10.79
10/24/2021 1:00:00 AM 9.71 49.478 0.127 7.28 2.18 10.8
10/24/2021 1:15:00 AM 9.69 49.442 0.127 7.28 2.37 10.81
10/24/2021 1:30:00 AM 9.66 49.388 0.127 7.28 2.44 10.81
10/24/2021 1:45:00 AM 9.65 49.37 0.127 7.28 2.24 10.82
10/24/2021 2:00:00 AM 9.63 49.334 0.127 7.29 2.48 10.82
10/24/2021 2:15:00 AM 9.61 49.298 0.127 7.29 2.37 10.83
10/24/2021 2:30:00 AM 9.6 49.28 0.127 7.29 2.24 10.83
10/24/2021 2:45:00 AM 9.58 49.244 0.127 7.29 2.25 10.84
10/24/2021 3:00:00 AM 9.57 49.226 0.127 7.29 2.41 10.84
10/24/2021 3:15:00 AM 9.55 49.19 0.127 7.3 2.23 10.85
10/24/2021 3:30:00 AM 9.54 49.172 0.127 7.3 2.23 10.85
10/24/2021 3:45:00 AM 9.53 49.154 0.127 7.3 2.14 10.85
10/24/2021 4:00:00 AM 9.52 49.136 0.127 7.3 2.17 10.85
10/24/2021 4:15:00 AM 9.51 49.118 0.127 7.3 2.17 10.85
10/24/2021 4:30:00 AM 9.5 49.1 0.127 7.31 2.12 10.85
10/24/2021 4:45:00 AM 9.5 49.1 0.127 7.31 2.29 10.86
10/24/2021 5:00:00 AM 9.49 49.082 0.127 7.31 2.16 10.87
10/24/2021 5:15:00 AM 9.48 49.064 0.127 7.31 2.34 10.87
10/24/2021 5:30:00 AM 9.46 49.028 0.127 7.32 2.29 10.88
10/24/2021 5:45:00 AM 9.45 49.01 0.127 7.32 2.29 10.88
10/24/2021 6:00:00 AM 9.43 48.974 0.127 7.32 2.16 10.88
10/24/2021 6:15:00 AM 9.42 48.956 0.127 7.32 2.2 10.89
10/24/2021 6:30:00 AM 9.41 48.938 0.127 7.32 2.14 10.89
10/24/2021 6:45:00 AM 9.4 48.92 0.127 7.32 2.06 10.89
10/24/2021 7:00:00 AM 9.39 48.902 0.127 7.32 2.08 10.89
10/24/2021 7:15:00 AM 9.38 48.884 0.127 7.32 2.17 10.9
10/24/2021 7:30:00 AM 9.37 48.866 0.127 7.32 2.14 10.9
10/24/2021 7:45:00 AM 9.36 48.848 0.127 7.32 2.19 10.91
10/24/2021 8:00:00 AM 9.36 48.848 0.127 7.32 2.11 10.92
10/24/2021 8:15:00 AM 9.35 48.83 0.127 7.32 2.11 10.95
10/24/2021 8:30:00 AM 9.35 48.83 0.127 7.33 2.09 10.97
10/24/2021 8:45:00 AM 9.36 48.848 0.127 7.33 2.17 11.02
10/24/2021 9:00:00 AM 9.37 48.866 0.127 7.34 1.97 11.09
10/24/2021 9:15:00 AM 9.39 48.902 0.127 7.35 1.91 11.15
10/24/2021 9:30:00 AM 9.41 48.938 0.126 7.37 1.83 11.24
10/24/2021 9:45:00 AM 9.43 48.974 0.126 7.38 1.85 11.3
10/24/2021 10:00:00 AM 9.46 49.028 0.126 7.4 1.84 11.36
10/24/2021 10:15:00 AM 9.49 49.082 0.126 7.42 1.71 11.43
10/24/2021 10:30:00 AM 9.53 49.154 0.126 7.44 1.77 11.5
10/24/2021 10:45:00 AM 9.58 49.244 0.126 7.46 1.77 11.58
10/24/2021 11:00:00 AM 9.64 49.352 0.126 7.48 1.78 11.66
10/24/2021 11:15:00 AM 9.7 49.46 0.126 7.51 1.63 11.73
10/24/2021 11:30:00 AM 9.77 49.586 0.126 7.54 1.79 11.78
10/24/2021 11:45:00 AM 9.83 49.694 0.126 7.56 1.65 11.83
10/24/2021 12:00:00 PM 9.9 49.82 0.125 7.58 1.74 11.86
10/24/2021 12:15:00 PM 9.95 49.91 0.125 7.6 1.66 11.89
10/24/2021 12:30:00 PM 10.04 50.072 0.125 7.62 1.62 11.92
10/24/2021 12:45:00 PM 10.11 50.198 0.125 7.64 1.71 11.94
10/24/2021 1:00:00 PM 10.19 50.342 0.125 7.65 1.68 11.95
10/24/2021 1:15:00 PM 10.3 50.54 0.125 7.67 1.65 11.96
10/24/2021 1:30:00 PM 10.37 50.666 0.125 7.69 1.65 11.96
10/24/2021 1:45:00 PM 10.42 50.756 0.125 7.7 1.64 11.94
10/24/2021 2:00:00 PM 10.5 50.9 0.125 7.71 1.65 11.92
10/24/2021 2:15:00 PM 10.58 51.044 0.125 7.72 1.6 11.9
10/24/2021 2:30:00 PM 10.64 51.152 0.125 7.73 1.61 11.88
10/24/2021 2:45:00 PM 10.69 51.242 0.125 7.73 1.61 11.86
10/24/2021 3:00:00 PM 10.74 51.332 0.125 7.73 1.58 11.85
10/24/2021 3:15:00 PM 10.78 51.404 0.125 7.74 1.55 11.84
10/24/2021 3:30:00 PM 10.78 51.404 0.125 7.73 1.67 11.75
10/24/2021 3:45:00 PM 10.79 51.422 0.125 7.7 1.61 11.66
10/24/2021 4:00:00 PM 10.8 51.44 0.125 7.68 1.66 11.58
10/24/2021 4:15:00 PM 10.8 51.44 0.125 7.65 1.7 11.49
10/24/2021 4:30:00 PM 10.79 51.422 0.126 7.63 1.62 11.4
10/24/2021 4:45:00 PM 10.78 51.404 0.126 7.6 1.65 11.33
10/24/2021 5:00:00 PM 10.77 51.386 0.126 7.59 1.64 11.28
10/24/2021 5:15:00 PM 10.76 51.368 0.126 7.57 1.64 11.2
10/24/2021 5:30:00 PM 10.75 51.35 0.126 7.55 1.73 11.13
10/24/2021 5:45:00 PM 10.74 51.332 0.126 7.52 1.65 11.05
10/24/2021 6:00:00 PM 10.74 51.332 0.126 7.5 1.65 10.98
10/24/2021 6:15:00 PM 10.73 51.314 0.126 7.48 1.62 10.91
10/24/2021 6:30:00 PM 10.73 51.314 0.126 7.46 1.81 10.83
10/24/2021 6:45:00 PM 10.72 51.296 0.126 7.45 1.68 10.78
10/24/2021 7:00:00 PM 10.71 51.278 0.126 7.44 1.91 10.73
10/24/2021 7:15:00 PM 10.7 51.26 0.127 7.42 1.87 10.7
10/24/2021 7:30:00 PM 10.69 51.242 0.127 7.41 1.96 10.66
10/24/2021 7:45:00 PM 10.69 51.242 0.127 7.4 1.88 10.65
10/24/2021 8:00:00 PM 10.68 51.224 0.127 7.39 2.01 10.63
10/24/2021 8:15:00 PM 10.68 51.224 0.127 7.39 1.97 10.61
10/24/2021 8:30:00 PM 10.67 51.206 0.127 7.38 2.16 10.6
10/24/2021 8:45:00 PM 10.67 51.206 0.127 7.38 2 10.59
10/24/2021 9:00:00 PM 10.66 51.188 0.127 7.37 2.1 10.58
10/24/2021 9:15:00 PM 10.66 51.188 0.127 7.36 1.99 10.57
10/24/2021 9:30:00 PM 10.66 51.188 0.126 7.36 2.01 10.56
10/24/2021 9:45:00 PM 10.65 51.17 0.126 7.36 2.05 10.56
10/24/2021 10:00:00 PM 10.65 51.17 0.126 7.36 2.11 10.56
10/24/2021 10:15:00 PM 10.65 51.17 0.126 7.36 2.08 10.56
10/24/2021 10:30:00 PM 10.64 51.152 0.126 7.35 2.07 10.55
10/24/2021 10:45:00 PM 10.64 51.152 0.126 7.34 2.17 10.56
10/24/2021 11:00:00 PM 10.64 51.152 0.126 7.34 2.15 10.55
10/24/2021 11:15:00 PM 10.64 51.152 0.125 7.33 2.04 10.54
10/24/2021 11:30:00 PM 10.64 51.152 0.125 7.33 2.22 10.54
10/24/2021 11:45:00 PM 10.64 51.152 0.125 7.33 2.3 10.55
10/25/2021 12:00:00 AM 10.63 51.134 0.125 7.33 2.28 10.53
10/25/2021 12:15:00 AM 10.63 51.134 0.125 7.32 2.35 10.53
10/25/2021 12:30:00 AM 10.62 51.116 0.124 7.32 2.43 10.51
10/25/2021 12:45:00 AM 10.62 51.116 0.124 7.31 2.49 10.51
10/25/2021 1:00:00 AM 10.62 51.116 0.123 7.31 2.69 10.52
10/25/2021 1:15:00 AM 10.61 51.098 0.123 7.31 3.07 10.51
10/25/2021 1:30:00 AM 10.61 51.098 0.122 7.31 3.15 10.51
10/25/2021 1:45:00 AM 10.6 51.08 0.122 7.31 3.5 10.51
10/25/2021 2:00:00 AM 10.6 51.08 0.121 7.3 4.08 10.51
10/25/2021 2:15:00 AM 10.6 51.08 0.12 7.3 4.65 10.51
10/25/2021 2:30:00 AM 10.6 51.08 0.12 7.29 5.01 10.51
10/25/2021 2:45:00 AM 10.6 51.08 0.119 7.28 5.32 10.5
10/25/2021 3:00:00 AM 10.59 51.062 0.118 7.28 5.4 10.5
10/25/2021 3:15:00 AM 10.59 51.062 0.118 7.28 5.09 10.5
10/25/2021 3:30:00 AM 10.59 51.062 0.117 7.29 5 10.51
10/25/2021 3:45:00 AM 10.59 51.062 0.117 7.28 5.08 10.53
10/25/2021 4:00:00 AM 10.58 51.044 0.116 7.28 5.15 10.51
10/25/2021 4:15:00 AM 10.58 51.044 0.115 7.27 5.53 10.51
10/25/2021 4:30:00 AM 10.58 51.044 0.115 7.27 5.71 10.5
10/25/2021 4:45:00 AM 10.58 51.044 0.114 7.26 5.8 10.5
10/25/2021 5:00:00 AM 10.58 51.044 0.114 7.25 5.97 10.5
10/25/2021 5:15:00 AM 10.58 51.044 0.114 7.24 5.92 10.51
10/25/2021 5:30:00 AM 10.58 51.044 0.114 7.24 6.12 10.5
10/25/2021 5:45:00 AM 10.59 51.062 0.114 7.25 6.19 10.5
10/25/2021 6:00:00 AM 10.59 51.062 0.114 7.25 6.99 10.5
10/25/2021 6:15:00 AM 10.59 51.062 0.114 7.26 6.85 10.51
10/25/2021 6:30:00 AM 10.6 51.08 0.114 7.26 6.95 10.51
10/25/2021 6:45:00 AM 10.6 51.08 0.114 7.26 6.56 10.51
10/25/2021 7:00:00 AM 10.59 51.062 0.114 7.26 8.42 10.52
10/25/2021 7:15:00 AM 10.59 51.062 0.114 7.26 9.16 10.52
10/25/2021 7:30:00 AM 10.59 51.062 0.114 7.26 6.44 10.52
10/25/2021 7:45:00 AM 10.59 51.062 0.115 7.26 9.91 10.53
10/25/2021 8:00:00 AM 10.59 51.062 0.115 7.26 7.31 10.54
10/25/2021 8:15:00 AM 10.59 51.062 0.115 7.26 6.63 10.57
10/25/2021 8:30:00 AM 10.6 51.08 0.114 7.27 6.56 10.6
10/25/2021 8:45:00 AM 10.61 51.098 0.114 7.28 7.03 10.64
10/25/2021 9:00:00 AM 10.64 51.152 0.114 7.28 5.85 10.69
10/25/2021 9:15:00 AM 10.66 51.188 0.113 7.28 5.18 10.73
10/25/2021 9:30:00 AM 10.68 51.224 0.112 7.29 5.13 10.76
10/25/2021 9:45:00 AM 10.73 51.314 0.111 7.3 5.14 10.82
10/25/2021 10:00:00 AM 10.76 51.368 0.111 7.3 4.95 10.83
10/25/2021 10:15:00 AM 10.82 51.476 0.11 7.31 5.16 10.87
10/25/2021 10:30:00 AM 10.89 51.602 0.11 7.32 6.22 10.91
10/25/2021 10:45:00 AM 10.95 51.71 0.109 7.33 5.4 10.92
10/25/2021 11:00:00 AM 11.03 51.854 0.109 7.33 6.78 10.93
10/25/2021 11:15:00 AM 11.12 52.016 0.109 7.35 3777.2 10.95
10/25/2021 11:30:00 AM 11.22 52.196 0.108 7.36 5.12 10.97
10/25/2021 11:45:00 AM 11.35 52.43 0.108 7.37 5.89 11
10/25/2021 12:00:00 PM 11.49 52.682 0.108 7.39 5.36 11.02
10/25/2021 12:15:00 PM 11.64 52.952 0.107 7.4 5.14 11.04
10/25/2021 12:30:00 PM 11.79 53.222 0.107 7.42 4.9 11.05
10/25/2021 12:45:00 PM 11.95 53.51 0.107 7.43 4.78 11.05
10/25/2021 1:00:00 PM 12.1 53.78 0.107 7.44 5.38 11.06
10/25/2021 1:15:00 PM 12.24 54.032 0.106 7.44 4.62 11.06
10/25/2021 1:30:00 PM 12.36 54.248 0.106 7.45 4.27 11.05
10/25/2021 1:45:00 PM 12.46 54.428 0.106 7.46 4.49 11.03
10/25/2021 2:00:00 PM 12.54 54.572 0.106 7.47 4.4 11.01
10/25/2021 2:15:00 PM 12.6 54.68 0.106 7.47 4.4 10.98
10/25/2021 2:30:00 PM 12.65 54.77 0.106 7.48 4.62 10.96
10/25/2021 2:45:00 PM 12.67 54.806 0.106 7.47 4.24 10.9
10/25/2021 3:00:00 PM 12.68 54.824 0.106 7.47 4.24 10.86
10/25/2021 3:15:00 PM 12.69 54.842 0.106 7.45 4.47 10.83
10/25/2021 3:30:00 PM 12.65 54.77 0.106 7.45 4.41 10.74
10/25/2021 3:45:00 PM 12.63 54.734 0.106 7.44 4.23 10.69
10/25/2021 4:00:00 PM 12.61 54.698 0.106 7.42 4.21 10.64
10/25/2021 4:15:00 PM 12.59 54.662 0.106 7.41 4.12 10.58
10/25/2021 4:30:00 PM 12.58 54.644 0.106 7.4 4.13 10.54
10/25/2021 4:45:00 PM 12.58 54.644 0.106 7.39 4.15 10.51
10/25/2021 5:00:00 PM 12.57 54.626 0.106 7.38 3.93 10.47
10/25/2021 5:15:00 PM 12.56 54.608 0.106 7.36 3.85 10.41
10/25/2021 5:30:00 PM 12.55 54.59 0.106 7.35 3.81 10.35
10/25/2021 5:45:00 PM 12.54 54.572 0.106 7.34 4.01 10.29
10/25/2021 6:00:00 PM 12.53 54.554 0.106 7.32 4.05 10.24
10/25/2021 6:15:00 PM 12.53 54.554 0.107 7.3 4.17 10.18
10/25/2021 6:30:00 PM 12.52 54.536 0.107 7.29 4.1 10.14
10/25/2021 6:45:00 PM 12.52 54.536 0.107 7.28 4.05 10.1
10/25/2021 7:00:00 PM 12.51 54.518 0.107 7.27 4.21 10.07
10/25/2021 7:15:00 PM 12.51 54.518 0.107 7.26 4.09 10.04
10/25/2021 7:30:00 PM 12.5 54.5 0.107 7.26 4.07 10.03
10/25/2021 7:45:00 PM 12.5 54.5 0.108 7.25 4.41 10.01
10/25/2021 8:00:00 PM 12.5 54.5 0.108 7.25 3.91 9.99
10/25/2021 8:15:00 PM 12.5 54.5 0.108 7.25 4.02 9.99
10/25/2021 8:30:00 PM 12.51 54.518 0.108 7.24 3.98 9.98
10/25/2021 8:45:00 PM 12.51 54.518 0.108 7.25 4.1 9.97
10/25/2021 9:00:00 PM 12.52 54.536 0.108 7.24 3.97 9.97
10/25/2021 9:15:00 PM 12.53 54.554 0.109 7.24 4.01 9.96
10/25/2021 9:30:00 PM 12.54 54.572 0.109 7.24 3.83 9.95
10/25/2021 9:45:00 PM 12.55 54.59 0.109 7.23 4.07 9.95
10/25/2021 10:00:00 PM 12.57 54.626 0.109 7.23 3.77 9.94
10/25/2021 10:15:00 PM 12.58 54.644 0.109 7.24 3.63 9.94
10/25/2021 10:30:00 PM 12.58 54.644 0.109 7.23 3.69 9.94
10/25/2021 10:45:00 PM 12.59 54.662 0.11 7.23 3.63 9.93
10/25/2021 11:00:00 PM 12.59 54.662 0.11 7.22 3.56 9.92
10/25/2021 11:15:00 PM 12.59 54.662 0.11 7.22 3.49 9.92
10/25/2021 11:30:00 PM 12.59 54.662 0.11 7.22 3.64 9.92
10/25/2021 11:45:00 PM 12.59 54.662 0.11 7.22 3.25 9.91
10/26/2021 12:00:00 AM 12.59 54.662 0.11 7.22 3.52 9.92
10/26/2021 12:15:00 AM 12.59 54.662 0.111 7.22 3.47 9.91
10/26/2021 12:30:00 AM 12.59 54.662 0.111 7.23 3.62 9.91
10/26/2021 12:45:00 AM 12.59 54.662 0.111 7.23 3.3 9.9
10/26/2021 1:00:00 AM 12.59 54.662 0.111 7.23 3.47 9.91
10/26/2021 1:15:00 AM 12.58 54.644 0.111 7.23 3.41 9.9
10/26/2021 1:30:00 AM 12.58 54.644 0.111 7.23 3.4 9.9
10/26/2021 1:45:00 AM 12.57 54.626 0.111 7.23 3.28 9.9
10/26/2021 2:00:00 AM 12.56 54.608 0.111 7.23 3.34 9.9
10/26/2021 2:15:00 AM 12.56 54.608 0.111 7.23 3.38 9.9
10/26/2021 2:30:00 AM 12.55 54.59 0.111 7.22 3.24 9.9
10/26/2021 2:45:00 AM 12.54 54.572 0.112 7.22 3.39 9.91
10/26/2021 3:00:00 AM 12.53 54.554 0.112 7.22 3.17 9.9
10/26/2021 3:15:00 AM 12.53 54.554 0.112 7.22 3.22 9.9
10/26/2021 3:30:00 AM 12.52 54.536 0.112 7.22 3.13 9.9
10/26/2021 3:45:00 AM 12.5 54.5 0.112 7.22 3.24 9.89
10/26/2021 4:00:00 AM 12.49 54.482 0.112 7.22 3.21 9.91
10/26/2021 4:15:00 AM 12.48 54.464 0.112 7.22 3.34 9.9
10/26/2021 4:30:00 AM 12.47 54.446 0.112 7.22 3.29 9.92
10/26/2021 4:45:00 AM 12.47 54.446 0.112 7.21 3.3 9.91
10/26/2021 5:00:00 AM 12.46 54.428 0.112 7.22 3.3 9.91
10/26/2021 5:15:00 AM 12.45 54.41 0.112 7.22 3.33 9.92
10/26/2021 5:30:00 AM 12.45 54.41 0.111 7.21 3.46 9.92
10/26/2021 5:45:00 AM 12.44 54.392 0.111 7.2 4.05 9.92
10/26/2021 6:00:00 AM 12.43 54.374 0.11 7.2 4.31 9.92
10/26/2021 6:15:00 AM 12.43 54.374 0.11 7.19 5.98 9.92
10/26/2021 6:30:00 AM 12.43 54.374 0.109 7.19 7.63 9.92
10/26/2021 6:45:00 AM 12.43 54.374 0.109 7.19 7.92 9.9
10/26/2021 7:00:00 AM 12.42 54.356 0.109 7.19 6.6 9.91
10/26/2021 7:15:00 AM 12.42 54.356 0.109 7.2 6.48 9.91
10/26/2021 7:30:00 AM 12.42 54.356 0.108 7.2 6.69 9.93
10/26/2021 7:45:00 AM 12.41 54.338 0.107 7.21 6.94 9.92
10/26/2021 8:00:00 AM 12.4 54.32 0.107 7.21 7.6 9.94
10/26/2021 8:15:00 AM 12.39 54.302 0.105 7.21 8.8 9.93
10/26/2021 8:30:00 AM 12.38 54.284 0.105 7.21 9.24 9.96
10/26/2021 8:45:00 AM 12.37 54.266 0.104 7.2 8.61 9.96
10/26/2021 9:00:00 AM 12.36 54.248 0.103 7.2 8.2 9.98
10/26/2021 9:15:00 AM 12.36 54.248 0.103 7.21 8.93 9.98
10/26/2021 9:30:00 AM 12.35 54.23 0.103 7.2 11.16 9.99
10/26/2021 9:45:00 AM 12.35 54.23 0.103 7.19 12.61 10
10/26/2021 10:00:00 AM 12.34 54.212 0.103 7.2 13.54 10.02
10/26/2021 10:15:00 AM 12.34 54.212 0.103 7.21 15.22 10.03
10/26/2021 10:30:00 AM 12.33 54.194 0.104 7.2 16.92 10.03
10/26/2021 10:45:00 AM 12.32 54.176 0.104 7.2 16.91 10.06
10/26/2021 11:00:00 AM 12.31 54.158 0.104 7.19 21.69 10.05
10/26/2021 11:15:00 AM 12.3 54.14 0.104 7.21 20.16 10.06
10/26/2021 11:30:00 AM 12.29 54.122 0.103 7.19 19.8 10.06
10/26/2021 11:45:00 AM 12.28 54.104 0.102 7.17 22.93 10.06
10/26/2021 12:00:00 PM 12.27 54.086 0.1 7.19 18.93 10.06
10/26/2021 12:15:00 PM 12.26 54.068 0.098 7.17 26.34 10.06
10/26/2021 12:30:00 PM 12.25 54.05 0.095 7.18 29.67 10.06
10/26/2021 12:45:00 PM 12.24 54.032 0.092 7.15 36.87 10.06
10/26/2021 1:00:00 PM 12.22 53.996 0.089 7.15 49.85 10.07
10/26/2021 1:15:00 PM 12.19 53.942 0.085 7.13 106.99 10.07
10/26/2021 1:30:00 PM 12.16 53.888 0.08 7.08 169.17 10.09
10/26/2021 1:45:00 PM 12.13 53.834 0.076 7.02 221.73 10.09
10/26/2021 2:00:00 PM 12.1 53.78 0.072 6.84 271.16 10.08
10/26/2021 2:15:00 PM 12.05 53.69 0.068 6.81 315.1 10.08
10/26/2021 2:30:00 PM 12.01 53.618 0.064 6.67 361.63 10.09
10/26/2021 2:45:00 PM 11.97 53.546 0.061 6.6 451.42 10.09
10/26/2021 3:00:00 PM 11.94 53.492 0.058 6.56 7159.09 10.11
10/26/2021 3:15:00 PM 11.9 53.42 0.057 6.53 553.94 10.13
10/26/2021 3:30:00 PM 11.87 53.366 0.055 6.49 387.99 10.13
10/26/2021 3:45:00 PM 11.83 53.294 0.053 6.47 378.05 10.13
10/26/2021 4:00:00 PM 11.78 53.204 0.05 6.42 388.64 10.13
10/26/2021 4:15:00 PM 11.74 53.132 0.047 6.4 395.34 10.15
10/26/2021 4:30:00 PM 11.71 53.078 0.045 6.38 431.3 10.15
10/26/2021 4:45:00 PM 11.68 53.024 0.044 6.36 253.5 10.15
10/26/2021 5:00:00 PM 11.66 52.988 0.044 6.41 465.76 10.13
10/26/2021 5:15:00 PM 11.64 52.952 0.045 6.37 474.76 10.11
10/26/2021 5:30:00 PM 11.63 52.934 0.046 6.38 433.12 10.09
10/26/2021 5:45:00 PM 11.62 52.916 0.046 6.34 403.55 10.09
10/26/2021 6:00:00 PM 11.6 52.88 0.046 6.32 385.39 10.07
10/26/2021 6:15:00 PM 11.59 52.862 0.046 6.32 378.54 10.06
10/26/2021 6:30:00 PM 11.58 52.844 0.045 6.31 374.7 10.05
10/26/2021 6:45:00 PM 11.57 52.826 0.045 6.3 360.73 10.04
10/26/2021 7:00:00 PM 11.57 52.826 0.045 6.32 336.88 10.03
10/26/2021 7:15:00 PM 11.56 52.808 0.045 6.31 336.54 10.02
10/26/2021 7:30:00 PM 11.56 52.808 0.045 6.3 335.68 10.01
10/26/2021 7:45:00 PM 11.56 52.808 0.042 6.29 4012.98 9.99
10/26/2021 8:00:00 PM 11.56 52.808 0.042 6.29 55.32 9.97
10/26/2021 8:15:00 PM 11.56 52.808 0.042 6.34 72.02 9.86
10/26/2021 8:30:00 PM 11.56 52.808 0.042 6.38 76.65 9.7
10/26/2021 8:45:00 PM 11.57 52.826 0.042 6.4 84.79 9.65
10/26/2021 9:00:00 PM 11.57 52.826 0.042 6.44 87.45 9.78
10/26/2021 9:15:00 PM 11.57 52.826 0.042 6.52 87.91 9.74
10/26/2021 9:30:00 PM 11.57 52.826 0.042 6.56 95.66 9.89
10/26/2021 9:45:00 PM 11.57 52.826 0.042 6.64 97.83 9.8
10/26/2021 10:00:00 PM 11.58 52.844 0.042 6.67 103.8 9.78
10/26/2021 10:15:00 PM 11.58 52.844 0.042 6.7 107.45 9.8
10/26/2021 10:30:00 PM 11.58 52.844 0.042 6.69 109.55 9.8
10/26/2021 10:45:00 PM 11.59 52.862 0.042 6.68 99.91 9.91
10/26/2021 11:00:00 PM 11.59 52.862 0.042 6.6 96.01 10
10/26/2021 11:15:00 PM 11.6 52.88 0.043 6.6 88.66 10.03
10/26/2021 11:30:00 PM 11.6 52.88 0.043 6.59 89.22 10.01
10/26/2021 11:45:00 PM 11.61 52.898 0.043 6.6 88.2 9.91
10/27/2021 12:00:00 AM 11.62 52.916 0.043 6.64 88.02 9.96
10/27/2021 12:15:00 AM 11.62 52.916 0.043 6.62 88.22 9.93
10/27/2021 12:30:00 AM 11.63 52.934 0.043 6.57 90.89 9.94
10/27/2021 12:45:00 AM 11.63 52.934 0.043 6.59 94.92 10
10/27/2021 1:00:00 AM 11.64 52.952 0.044 6.56 94.36 9.91
10/27/2021 1:15:00 AM 11.64 52.952 0.044 6.54 94.17 9.99
10/27/2021 1:30:00 AM 11.64 52.952 0.044 6.55 94.84 9.88
10/27/2021 1:45:00 AM 11.64 52.952 0.044 6.58 93.86 9.78
10/27/2021 2:00:00 AM 11.64 52.952 0.044 6.63 92.63 9.65
10/27/2021 2:15:00 AM 11.63 52.934 0.044 6.67 91.97 9.76
10/27/2021 2:30:00 AM 11.63 52.934 0.044 6.67 90.88 9.76
10/27/2021 2:45:00 AM 11.63 52.934 0.045 6.67 90.69 9.69
10/27/2021 3:00:00 AM 11.62 52.916 0.045 6.69 90.63 9.99
10/27/2021 3:15:00 AM 11.61 52.898 0.045 6.71 91.2 9.54
10/27/2021 3:30:00 AM 11.6 52.88 0.045 6.71 91.01 10.06
10/27/2021 3:45:00 AM 11.59 52.862 0.045 6.7 91.19 10.02
10/27/2021 4:00:00 AM 11.58 52.844 0.045 6.71 91.29 9.76
10/27/2021 4:15:00 AM 11.57 52.826 0.045 6.71 91.07 9.83
10/27/2021 4:30:00 AM 11.56 52.808 0.045 6.71 91.54 9.79
10/27/2021 4:45:00 AM 11.55 52.79 0.045 6.7 91.69 9.78
10/27/2021 5:00:00 AM 11.54 52.772 0.045 6.7 91.64 9.79
10/27/2021 5:15:00 AM 11.52 52.736 0.046 6.69 91.13 9.64
10/27/2021 5:30:00 AM 11.5 52.7 0.046 6.69 91.45 10.21
10/27/2021 5:45:00 AM 11.48 52.664 0.046 6.69 91.59 10.22
10/27/2021 6:00:00 AM 11.47 52.646 0.046 6.7 91.58 10.22
10/27/2021 6:15:00 AM 11.45 52.61 0.046 6.7 92.2 10.22
10/27/2021 6:30:00 AM 11.44 52.592 0.046 6.7 92.52 10.22
10/27/2021 6:45:00 AM 11.42 52.556 0.045 6.7 92.82 10.22
10/27/2021 7:00:00 AM 11.4 52.52 0.047 6.71 93.44 10.23
10/27/2021 7:15:00 AM 11.38 52.484 0.047 6.71 94.04 10.23
10/27/2021 7:30:00 AM 11.37 52.466 0.046 6.67 93.08 9.99
10/27/2021 7:45:00 AM 11.35 52.43 0.046 6.67 93.32 10.08
10/27/2021 8:00:00 AM 11.34 52.412 0.047 6.68 92.11 10.19
10/27/2021 8:15:00 AM 11.32 52.376 0.046 6.67 93.48 10.31
10/27/2021 8:30:00 AM 11.3 52.34 0.046 6.62 89.01 10.31
10/27/2021 8:45:00 AM 11.28 52.304 0.046 6.61 86.28 10.31
10/27/2021 9:00:00 AM 11.26 52.268 0.046 6.74 86.4 10.27
10/27/2021 9:15:00 AM 11.24 52.232 0.046 6.76 74.58 10.34
10/27/2021 9:30:00 AM 11.23 52.214 0.047 6.8 71.81 10.38
10/27/2021 9:45:00 AM 11.23 52.214 0.053 6.81 50.92 10.39
10/27/2021 10:00:00 AM 11.22 52.196 0.058 6.81 44.06 10.39
10/27/2021 10:15:00 AM 11.24 52.232 0.059 6.83 37.26 10.41
10/27/2021 10:30:00 AM 11.24 52.232 0.059 6.82 38.46 10.42
10/27/2021 10:45:00 AM 11.23 52.214 0.059 6.82 35.78 10.42
10/27/2021 11:00:00 AM 11.23 52.214 0.06 6.83 31.86 10.43
10/27/2021 11:15:00 AM 11.24 52.232 0.06 6.83 31.64 10.43
10/27/2021 11:30:00 AM 11.24 52.232 0.06 6.83 31.67 10.44
10/27/2021 11:45:00 AM 11.25 52.25 0.06 6.83 31.63 10.45
10/27/2021 12:00:00 PM 11.26 52.268 0.06 6.85 30.51 10.46
10/27/2021 12:15:00 PM 11.3 52.34 0.061 6.87 29.36 10.47
10/27/2021 12:30:00 PM 11.32 52.376 0.053 6.86 30.26 10.48
10/27/2021 12:45:00 PM 11.35 52.43 0.061 6.87 30.07 10.49
10/27/2021 1:00:00 PM 11.37 52.466 0.061 6.88 29.38 10.49
10/27/2021 1:15:00 PM 11.4 52.52 0.061 6.88 32.74 10.49
10/27/2021 1:30:00 PM 11.42 52.556 0.062 6.88 30.57 10.49
10/27/2021 1:45:00 PM 11.46 52.628 0.062 6.88 29.29 10.49
10/27/2021 2:00:00 PM 11.48 52.664 0.062 6.89 30.57 10.49
10/27/2021 2:15:00 PM 11.49 52.682 0.062 6.9 28 10.49
10/27/2021 2:30:00 PM 11.49 52.682 0.062 6.91 28.29 10.49
10/27/2021 2:45:00 PM 11.51 52.718 0.062 6.91 27.99 10.49
10/27/2021 3:00:00 PM 11.55 52.79 0.063 6.91 28.29 10.48
10/27/2021 3:15:00 PM 11.57 52.826 0.063 6.93 28.86 10.48
10/27/2021 3:30:00 PM 11.57 52.826 0.062 6.9 30.04 10.47
10/27/2021 3:45:00 PM 11.57 52.826 0.062 6.92 30.36 10.45
10/27/2021 4:00:00 PM 11.57 52.826 0.062 6.91 29.24 10.45
10/27/2021 4:15:00 PM 11.57 52.826 0.061 6.92 30.46 10.44
10/27/2021 4:30:00 PM 11.57 52.826 0.062 6.91 30.23 10.44
10/27/2021 4:45:00 PM 11.56 52.808 0.064 6.93 34.71 10.44
10/27/2021 5:00:00 PM 11.55 52.79 0.064 6.94 1770.08 10.43
10/27/2021 5:15:00 PM 11.54 52.772 0.064 6.92 24.05 10.44
10/27/2021 5:30:00 PM 11.53 52.754 0.065 6.93 63.05 10.43
10/27/2021 5:45:00 PM 11.52 52.736 0.065 6.91 23.34 10.43
10/27/2021 6:00:00 PM 11.52 52.736 0.065 6.88 22.32 10.43
10/27/2021 6:15:00 PM 11.51 52.718 0.065 6.92 22.23 10.43
10/27/2021 6:30:00 PM 11.5 52.7 0.066 6.93 22.14 10.44
10/27/2021 6:45:00 PM 11.49 52.682 0.066 6.92 21.93 10.43
10/27/2021 7:00:00 PM 11.46 52.628 0.066 6.9 22.76 10.43
10/27/2021 7:15:00 PM 11.44 52.592 0.066 6.93 21.63 10.44
10/27/2021 7:30:00 PM 11.41 52.538 0.066 6.95 21.59 10.44
10/27/2021 7:45:00 PM 11.37 52.466 0.066 6.94 21.47 10.45
10/27/2021 8:00:00 PM 11.33 52.394 0.065 6.95 20.14 10.45
10/27/2021 8:15:00 PM 11.29 52.322 0.066 6.95 158.47 10.46
10/27/2021 8:30:00 PM 11.24 52.232 0.066 6.95 559.5 10.47
10/27/2021 8:45:00 PM 11.19 52.142 0.066 6.94 25.1 10.48
10/27/2021 9:00:00 PM 11.14 52.052 0.066 6.93 23.61 10.49
10/27/2021 9:15:00 PM 11.09 51.962 0.067 6.95 1952.44 10.51
10/27/2021 9:30:00 PM 11.04 51.872 0.067 6.91 25.15 10.53
10/27/2021 9:45:00 PM 10.99 51.782 0.067 6.91 35.21 10.54
10/27/2021 10:00:00 PM 10.94 51.692 0.067 6.94 36.46 10.55
10/27/2021 10:15:00 PM 10.89 51.602 0.067 6.94 27.77 10.57
10/27/2021 10:30:00 PM 10.84 51.512 0.067 6.95 26.36 10.57
10/27/2021 10:45:00 PM 10.79 51.422 0.068 6.93 27.5 10.58
10/27/2021 11:00:00 PM 10.74 51.332 0.068 6.94 28.1 10.59
10/27/2021 11:15:00 PM 10.69 51.242 0.068 6.96 27.9 10.61
10/27/2021 11:30:00 PM 10.63 51.134 0.068 6.97 25.63 10.61
10/27/2021 11:45:00 PM 10.58 51.044 0.068 6.96 26.33 10.63
10/28/2021 12:00:00 AM 10.54 50.972 0.069 6.93 21.38 10.63
10/28/2021 12:15:00 AM 10.48 50.864 0.07 6.95 20.6 10.66
10/28/2021 12:30:00 AM 10.43 50.774 0.07 6.92 19.18 10.67
10/28/2021 12:45:00 AM 10.38 50.684 0.071 6.91 18.45 10.69
10/28/2021 1:00:00 AM 10.33 50.594 0.071 6.89 17.51 10.7
10/28/2021 1:15:00 AM 10.28 50.504 0.071 6.88 17.32 10.72
10/28/2021 1:30:00 AM 10.23 50.414 0.072 6.92 17.35 10.72
10/28/2021 1:45:00 AM 10.18 50.324 0.072 6.91 16.45 10.74
10/28/2021 2:00:00 AM 10.13 50.234 0.072 6.92 16.95 10.74
10/28/2021 2:15:00 AM 10.08 50.144 0.071 6.93 16.49 10.76
10/28/2021 2:30:00 AM 10.04 50.072 0.072 6.92 15.22 10.77
10/28/2021 2:45:00 AM 9.98 49.964 0.073 6.95 15.48 10.79
10/28/2021 3:00:00 AM 9.94 49.892 0.073 6.95 15.49 10.79
10/28/2021 3:15:00 AM 9.89 49.802 0.073 6.97 14.91 10.8
10/28/2021 3:30:00 AM 9.85 49.73 0.073 6.97 15.45 10.82
10/28/2021 3:45:00 AM 9.81 49.658 0.074 7 17.24 10.84
10/28/2021 4:00:00 AM 9.76 49.568 0.074 6.99 15.73 10.85
10/28/2021 4:15:00 AM 9.72 49.496 0.074 6.96 15.47 10.86
10/28/2021 4:30:00 AM 9.68 49.424 0.074 7 14.64 10.89
10/28/2021 4:45:00 AM 9.63 49.334 0.074 6.99 15.89 10.89
10/28/2021 5:00:00 AM 9.59 49.262 0.075 7 14.75 10.9
10/28/2021 5:15:00 AM 9.55 49.19 0.075 7 13.63 10.92
10/28/2021 5:30:00 AM 9.51 49.118 0.075 7.01 15.03 10.92
10/28/2021 5:45:00 AM 9.46 49.028 0.075 7.01 15.24 10.94
10/28/2021 6:00:00 AM 9.42 48.956 0.076 7.02 14.96 10.95
10/28/2021 6:15:00 AM 9.38 48.884 0.075 7.02 14.12 10.96
10/28/2021 6:30:00 AM 9.34 48.812 0.076 7.04 14.9 10.98
10/28/2021 6:45:00 AM 9.3 48.74 0.076 7.03 15.19 10.99
10/28/2021 7:00:00 AM 9.27 48.686 0.076 7.02 14.79 11
10/28/2021 7:15:00 AM 9.23 48.614 0.076 7.03 15.29 11.01
10/28/2021 7:30:00 AM 9.2 48.56 0.077 7.03 16.48 11.03
10/28/2021 7:45:00 AM 9.16 48.488 0.075 7.02 14.32 11.04
10/28/2021 8:00:00 AM 9.12 48.416 0.076 7.02 14.5 11.06
10/28/2021 8:15:00 AM 9.09 48.362 0.074 7.04 14.74 11.08
10/28/2021 8:30:00 AM 9.06 48.308 0.074 7.04 12.89 11.09
10/28/2021 8:45:00 AM 9.04 48.272 0.072 7.05 13.47 11.11
10/28/2021 9:00:00 AM 9.02 48.236 0.074 7.04 13.87 11.13
10/28/2021 9:15:00 AM 9 48.2 0.075 7.04 12.76 11.14
10/28/2021 9:30:00 AM 9 48.2 0.075 7.05 11.8 11.16
10/28/2021 9:45:00 AM 9.01 48.218 0.074 7.05 12.1 11.17
10/28/2021 10:00:00 AM 9.02 48.236 0.075 7.05 11.88 11.18
10/28/2021 10:15:00 AM 9.04 48.272 0.075 7.06 12.13 11.17
10/28/2021 10:30:00 AM 9.08 48.344 0.075 7.06 11.1 11.18
10/28/2021 10:45:00 AM 9.15 48.47 0.075 7.07 11.4 11.18
10/28/2021 11:00:00 AM 9.23 48.614 0.076 7.07 10.79 11.16
10/28/2021 11:15:00 AM 9.32 48.776 0.076 7.08 10.94 11.16
10/28/2021 11:30:00 AM 9.42 48.956 0.076 7.08 10.48 11.16
10/28/2021 11:45:00 AM 9.51 49.118 0.077 7.09 10.41 11.15
10/28/2021 12:00:00 PM 9.6 49.28 0.077 7.09 10.39 11.14
10/28/2021 12:15:00 PM 9.7 49.46 0.077 7.08 10.21 11.12
10/28/2021 12:30:00 PM 9.8 49.64 0.081 7.07 98.02 11.1
10/28/2021 12:45:00 PM 9.9 49.82 0.082 7.1 52.29 11.08
10/28/2021 1:00:00 PM 9.99 49.982 0.082 7.11 802.55 11.05
10/28/2021 1:15:00 PM 10.08 50.144 0.082 7.11 12.05 11.05
10/28/2021 1:30:00 PM 10.16 50.288 0.082 7.1 10.7 11.05
10/28/2021 1:45:00 PM 10.24 50.432 0.083 7.12 10.64 11.02
10/28/2021 2:00:00 PM 10.31 50.558 0.083 7.12 11.34 11.01
10/28/2021 2:15:00 PM 10.37 50.666 0.083 7.12 12.72 10.98
10/28/2021 2:30:00 PM 10.42 50.756 0.083 7.13 12.47 10.96
10/28/2021 2:45:00 PM 10.46 50.828 0.083 7.12 11.73 10.93
10/28/2021 3:00:00 PM 10.5 50.9 0.084 7.12 11.62 10.91
10/28/2021 3:15:00 PM 10.53 50.954 0.084 7.12 11.87 10.89
10/28/2021 3:30:00 PM 10.56 51.008 0.084 7.12 13.04 10.86
10/28/2021 3:45:00 PM 10.58 51.044 0.084 7.12 14.41 10.85
10/28/2021 4:00:00 PM 10.59 51.062 0.084 7.11 16.02 10.82
10/28/2021 4:15:00 PM 10.61 51.098 0.085 7.11 17.59 10.79
10/28/2021 4:30:00 PM 10.63 51.134 0.085 7.12 17.51 10.78
10/28/2021 4:45:00 PM 10.65 51.17 0.085 7.12 14.98 10.77
10/28/2021 5:00:00 PM 10.66 51.188 0.085 7.12 14.53 10.76
10/28/2021 5:15:00 PM 10.67 51.206 0.085 7.12 18.72 10.75
10/28/2021 5:30:00 PM 10.69 51.242 0.085 7.12 21.66 10.74
10/28/2021 5:45:00 PM 10.7 51.26 0.086 7.12 21.19 10.71
10/28/2021 6:00:00 PM 10.71 51.278 0.086 7.12 22.24 10.7
10/28/2021 6:15:00 PM 10.72 51.296 0.086 7.13 21.47 10.69
10/28/2021 6:30:00 PM 10.73 51.314 0.086 7.13 22.3 10.69
10/28/2021 6:45:00 PM 10.74 51.332 0.086 7.13 22.15 10.67
10/28/2021 7:00:00 PM 10.75 51.35 0.086 7.12 22.58 10.67
10/28/2021 7:15:00 PM 10.75 51.35 0.087 7.11 23.81 10.66
10/28/2021 7:30:00 PM 10.75 51.35 0.087 7.11 23.53 10.66
10/28/2021 7:45:00 PM 10.75 51.35 0.087 7.11 24.05 10.65
10/28/2021 8:00:00 PM 10.74 51.332 0.087 7.11 22.7 10.66
10/28/2021 8:15:00 PM 10.73 51.314 0.087 7.12 23.49 10.67
10/28/2021 8:30:00 PM 10.7 51.26 0.087 7.12 17.02 10.66
10/28/2021 8:45:00 PM 10.68 51.224 0.087 7.11 17.81 10.65
10/28/2021 9:00:00 PM 10.65 51.17 0.088 7.11 18 10.66
10/28/2021 9:15:00 PM 10.61 51.098 0.088 7.11 19.34 10.66
10/28/2021 9:30:00 PM 10.58 51.044 0.088 7.1 17.89 10.68
10/28/2021 9:45:00 PM 10.55 50.99 0.088 7.11 17.75 10.69
10/28/2021 10:00:00 PM 10.51 50.918 0.088 7.11 18.01 10.69
10/28/2021 10:15:00 PM 10.48 50.864 0.088 7.11 17.91 10.69
10/28/2021 10:30:00 PM 10.44 50.792 0.088 7.11 17.25 10.73
10/28/2021 10:45:00 PM 10.4 50.72 0.088 7.1 18.45 10.74
10/28/2021 11:00:00 PM 10.36 50.648 0.089 7.11 21.8 10.75
10/28/2021 11:15:00 PM 10.32 50.576 0.088 7.09 21.74 10.76
10/28/2021 11:30:00 PM 10.29 50.522 0.087 7.08 25.91 10.77
10/28/2021 11:45:00 PM 10.26 50.468 0.085 7.1 25.31 10.78
10/29/2021 12:00:00 AM 10.24 50.432 0.086 7.1 25.01 10.78
10/29/2021 12:15:00 AM 10.22 50.396 0.087 7.11 22.66 10.8
10/29/2021 12:30:00 AM 10.2 50.36 0.082 7.12 23.88 10.81
10/29/2021 12:45:00 AM 10.18 50.324 0.089 7.11 25.47 10.82
10/29/2021 1:00:00 AM 10.15 50.27 0.089 7.11 21.85 10.82
10/29/2021 1:15:00 AM 10.12 50.216 0.089 7.11 21.76 10.83
10/29/2021 1:30:00 AM 10.09 50.162 0.089 7.11 23.73 10.84
10/29/2021 1:45:00 AM 10.07 50.126 0.09 7.11 19.88 10.84
10/29/2021 2:00:00 AM 10.04 50.072 0.09 7.11 24.64 10.84
10/29/2021 2:15:00 AM 10.02 50.036 0.09 7.11 26.35 10.85
10/29/2021 2:30:00 AM 10 50 0.09 7.12 23.79 10.85
10/29/2021 2:45:00 AM 9.98 49.964 0.09 7.11 25.71 10.85
10/29/2021 3:00:00 AM 9.97 49.946 0.091 7.11 28.81 10.86
10/29/2021 3:15:00 AM 9.96 49.928 0.09 7.11 26.5 10.86
10/29/2021 3:30:00 AM 9.97 49.946 0.086 7.12 26.62 10.86
10/29/2021 3:45:00 AM 9.97 49.946 0.089 7.12 28.55 10.87
10/29/2021 4:00:00 AM 9.98 49.964 0.085 7.13 22.95 10.85
10/29/2021 4:15:00 AM 9.98 49.964 0.088 7.14 31.31 10.86
10/29/2021 4:30:00 AM 9.97 49.946 0.092 7.16 24.69 10.85
10/29/2021 4:45:00 AM 9.96 49.928 0.092 7.16 24.12 10.85
10/29/2021 5:00:00 AM 9.94 49.892 0.092 7.16 26.7 10.85
10/29/2021 5:15:00 AM 9.92 49.856 0.09 7.16 26.82 10.86
10/29/2021 5:30:00 AM 9.9 49.82 0.091 7.16 24.15 10.87
10/29/2021 5:45:00 AM 9.88 49.784 0.09 7.16 23.39 10.87
10/29/2021 6:00:00 AM 9.88 49.784 0.089 7.16 34.79 10.87
10/29/2021 6:15:00 AM 9.88 49.784 0.09 7.16 26.6 10.87
10/29/2021 6:30:00 AM 9.88 49.784 0.091 7.16 23.63 10.87
10/29/2021 6:45:00 AM 9.89 49.802 0.093 7.16 29.22 10.87
10/29/2021 7:00:00 AM 9.89 49.802 0.093 7.17 24.21 10.87
10/29/2021 7:15:00 AM 9.89 49.802 0.093 7.17 24.09 10.87
10/29/2021 7:30:00 AM 9.88 49.784 0.093 7.17 24.8 10.88
10/29/2021 7:45:00 AM 9.88 49.784 0.093 7.17 30.4 10.87
10/29/2021 8:00:00 AM 9.88 49.784 0.093 7.17 26.92 10.88
10/29/2021 8:15:00 AM 9.88 49.784 0.093 7.18 23.53 10.88
10/29/2021 8:30:00 AM 9.88 49.784 0.068 7.18 29.17 10.88
10/29/2021 8:45:00 AM 9.88 49.784 0.08 7.18 26.24 10.91
10/29/2021 9:00:00 AM 9.89 49.802 0.094 7.18 24.91 10.91
10/29/2021 9:15:00 AM 9.89 49.802 0.094 7.19 23.22 10.92
10/29/2021 9:30:00 AM 9.89 49.802 0.094 7.19 25.78 10.93
10/29/2021 9:45:00 AM 9.9 49.82 0.094 7.2 25.48 10.94
10/29/2021 10:00:00 AM 9.91 49.838 0.094 7.21 26.09 10.94
10/29/2021 10:15:00 AM 9.92 49.856 0.094 7.21 24.58 10.96
10/29/2021 10:30:00 AM 9.94 49.892 0.095 7.21 31.32 10.97
10/29/2021 10:45:00 AM 9.96 49.928 0.095 7.21 30.24 10.98
10/29/2021 11:00:00 AM 9.99 49.982 0.095 7.22 28.81 10.99
10/29/2021 11:15:00 AM 10.02 50.036 0.095 7.22 24.41 10.99
10/29/2021 11:30:00 AM 10.05 50.09 0.095 7.23 24.59 10.99
10/29/2021 11:45:00 AM 10.09 50.162 0.095 7.23 25.93 11
10/29/2021 12:00:00 PM 10.15 50.27 0.095 7.23 25.56 11
10/29/2021 12:15:00 PM 10.22 50.396 0.095 7.23 27.07 11
10/29/2021 12:30:00 PM 10.31 50.558 0.095 7.24 26.48 10.98
10/29/2021 12:45:00 PM 10.41 50.738 0.096 7.24 27 10.97
10/29/2021 1:00:00 PM 10.5 50.9 0.096 7.24 27.11 10.95
10/29/2021 1:15:00 PM 10.56 51.008 0.096 7.25 27.28 10.93
10/29/2021 1:30:00 PM 10.59 51.062 0.096 7.25 28.04 10.92
10/29/2021 1:45:00 PM 10.7 51.26 0.096 7.25 27.34 10.92
10/29/2021 2:00:00 PM 10.7 51.26 0.096 7.25 28.47 10.9
10/29/2021 2:15:00 PM 10.73 51.314 0.096 7.25 27.42 10.89
10/29/2021 2:30:00 PM 10.78 51.404 0.097 7.26 27.43 10.88
10/29/2021 2:45:00 PM 10.75 51.35 0.097 7.26 27.91 10.85
10/29/2021 3:00:00 PM 10.73 51.314 0.097 7.25 27.13 10.83
10/29/2021 3:15:00 PM 10.71 51.278 0.097 7.25 25.79 10.83
10/29/2021 3:30:00 PM 10.69 51.242 0.097 7.26 26.14 10.82
10/29/2021 3:45:00 PM 10.67 51.206 0.097 7.25 26.22 10.81
10/29/2021 4:00:00 PM 10.66 51.188 0.097 7.25 26.22 10.79
10/29/2021 4:15:00 PM 10.65 51.17 0.097 7.25 26.12 10.77
10/29/2021 4:30:00 PM 10.64 51.152 0.097 7.25 26.67 10.75
10/29/2021 4:45:00 PM 10.64 51.152 0.097 7.25 24.85 10.73
10/29/2021 5:00:00 PM 10.64 51.152 0.098 7.24 25.51 10.71
10/29/2021 5:15:00 PM 10.64 51.152 0.098 7.24 26.75 10.69
10/29/2021 5:30:00 PM 10.63 51.134 0.098 7.24 26.32 10.69
10/29/2021 5:45:00 PM 10.61 51.098 0.098 7.24 24 10.67
10/29/2021 6:00:00 PM 10.61 51.098 0.098 7.24 24.42 10.66
10/29/2021 6:15:00 PM 10.6 51.08 0.098 7.23 23.11 10.66
10/29/2021 6:30:00 PM 10.6 51.08 0.098 7.24 24.21 10.65
10/29/2021 6:45:00 PM 10.6 51.08 0.098 7.24 24.74 10.65
10/29/2021 7:00:00 PM 10.61 51.098 0.098 7.23 25.08 10.64
10/29/2021 7:15:00 PM 10.6 51.08 0.099 7.23 25.89 10.64
10/29/2021 7:30:00 PM 10.61 51.098 0.099 7.23 25.56 10.63
10/29/2021 7:45:00 PM 10.61 51.098 0.099 7.23 25.67 10.63
10/29/2021 8:00:00 PM 10.61 51.098 0.099 7.23 25.84 10.62
10/29/2021 8:15:00 PM 10.61 51.098 0.099 7.23 27.11 10.62
10/29/2021 8:30:00 PM 10.61 51.098 0.099 7.23 27 10.62
10/29/2021 8:45:00 PM 10.6 51.08 0.099 7.23 27.01 10.62
10/29/2021 9:00:00 PM 10.59 51.062 0.099 7.23 27.1 10.62
10/29/2021 9:15:00 PM 10.57 51.026 0.099 7.23 28.02 10.62
10/29/2021 9:30:00 PM 10.56 51.008 0.099 7.23 27.36 10.63
10/29/2021 9:45:00 PM 10.54 50.972 0.099 7.23 28.02 10.62
10/29/2021 10:00:00 PM 10.51 50.918 0.099 7.23 27.89 10.65
10/29/2021 10:15:00 PM 10.48 50.864 0.099 7.23 28.91 10.66
10/29/2021 10:30:00 PM 10.44 50.792 0.098 7.23 29.09 10.69
10/29/2021 10:45:00 PM 10.4 50.72 0.098 7.22 30.11 10.68
10/29/2021 11:00:00 PM 10.36 50.648 0.097 7.21 32.24 10.69
10/29/2021 11:15:00 PM 10.31 50.558 0.095 7.2 40.96 10.71
10/29/2021 11:30:00 PM 10.27 50.486 0.094 7.19 46.93 10.72
10/29/2021 11:45:00 PM 10.24 50.432 0.094 7.19 38.61 10.72
10/30/2021 12:00:00 AM 10.22 50.396 0.094 7.18 26.61 10.72
10/30/2021 12:15:00 AM 10.19 50.342 0.092 7.17 37.3 10.72
10/30/2021 12:30:00 AM 10.14 50.252 0.072 7.16 43.87 10.73
10/30/2021 12:45:00 AM 10.1 50.18 0.078 7.14 42.46 10.73
10/30/2021 1:00:00 AM 10.07 50.126 0.084 7.11 46.95 10.73
10/30/2021 1:15:00 AM 10.04 50.072 0.082 7.11 41.9 10.72
10/30/2021 1:30:00 AM 10.02 50.036 0.084 7.11 58.72 10.72
10/30/2021 1:45:00 AM 10 50 0.087 7.12 33.45 10.74
10/30/2021 2:00:00 AM 9.98 49.964 0.087 7.13 34.37 10.74
10/30/2021 2:15:00 AM 9.97 49.946 0.087 7.14 32.76 10.75
10/30/2021 2:30:00 AM 9.95 49.91 0.086 7.13 31.75 10.74
10/30/2021 2:45:00 AM 9.92 49.856 0.084 7.11 36.57 10.75
10/30/2021 3:00:00 AM 9.89 49.802 0.083 7.1 38.85 10.76
10/30/2021 3:15:00 AM 9.86 49.748 0.08 7.11 41.74 10.77
10/30/2021 3:30:00 AM 9.82 49.676 0.079 7.09 42.84 10.79
10/30/2021 3:45:00 AM 9.78 49.604 0.078 7.08 43.07 10.8
10/30/2021 4:00:00 AM 9.75 49.55 0.077 7.08 40.97 10.81
10/30/2021 4:15:00 AM 9.73 49.514 0.077 7.08 42.62 10.81
10/30/2021 4:30:00 AM 9.7 49.46 0.077 7.09 36.6 10.81
10/30/2021 4:45:00 AM 9.68 49.424 0.077 7.08 37.91 10.81
10/30/2021 5:00:00 AM 9.67 49.406 0.077 7.07 37.44 10.81
10/30/2021 5:15:00 AM 9.65 49.37 0.076 7.08 38.86 10.8
10/30/2021 5:30:00 AM 9.63 49.334 0.076 7.08 37.61 10.8
10/30/2021 5:45:00 AM 9.62 49.316 0.076 7.08 35.05 10.8
10/30/2021 6:00:00 AM 9.61 49.298 0.075 7.08 35.21 10.81
10/30/2021 6:15:00 AM 9.6 49.28 0.075 7.09 30.56 10.81
10/30/2021 6:30:00 AM 9.6 49.28 0.075 7.09 29.03 10.8
10/30/2021 6:45:00 AM 9.6 49.28 0.075 7.08 34.63 10.8
10/30/2021 7:00:00 AM 9.6 49.28 0.076 7.06 26.36 10.8
10/30/2021 7:15:00 AM 9.6 49.28 0.076 7.06 25.76 10.79
10/30/2021 7:30:00 AM 9.6 49.28 0.076 7.06 24.29 10.79
10/30/2021 7:45:00 AM 9.6 49.28 0.076 7.05 21.13 10.8
10/30/2021 8:00:00 AM 9.61 49.298 0.076 7.06 22.95 10.79
10/30/2021 8:15:00 AM 9.61 49.298 0.077 7.07 20.04 10.79
10/30/2021 8:30:00 AM 9.62 49.316 0.077 7.06 19.86 10.8
10/30/2021 8:45:00 AM 9.63 49.334 0.077 7.07 19.49 10.8
10/30/2021 9:00:00 AM 9.64 49.352 0.077 7.07 18.38 10.79
10/30/2021 9:15:00 AM 9.66 49.388 0.078 7.07 13.72 10.79
10/30/2021 9:30:00 AM 9.67 49.406 0.078 7.08 16.4 10.8
10/30/2021 9:45:00 AM 9.69 49.442 0.078 7.08 16.87 10.8
10/30/2021 10:00:00 AM 9.71 49.478 0.078 7.08 15.49 10.8
10/30/2021 10:15:00 AM 9.73 49.514 0.078 7.09 16.87 10.8
10/30/2021 10:30:00 AM 9.75 49.55 0.078 7.09 14.22 10.81
10/30/2021 10:45:00 AM 9.78 49.604 0.078 7.1 13.41 10.81
10/30/2021 11:00:00 AM 9.8 49.64 0.079 7.09 13.45 10.8
10/30/2021 11:15:00 AM 9.82 49.676 0.079 7.08 12.79 10.8
10/30/2021 11:30:00 AM 9.85 49.73 0.079 7.08 13.24 10.79
10/30/2021 11:45:00 AM 9.87 49.766 0.079 7.1 12.69 10.79
10/30/2021 12:00:00 PM 9.9 49.82 0.079 7.1 12.28 10.79
10/30/2021 12:15:00 PM 9.92 49.856 0.079 7.1 12.23 10.79
10/30/2021 12:30:00 PM 9.95 49.91 0.079 7.1 11.97 10.78
10/30/2021 12:45:00 PM 9.99 49.982 0.079 7.1 12.66 10.79
10/30/2021 1:00:00 PM 10.03 50.054 0.078 7.1 12.14 10.78
10/30/2021 1:15:00 PM 10.07 50.126 0.078 7.1 13.27 10.78
10/30/2021 1:30:00 PM 10.11 50.198 0.078 7.1 12.62 10.78
10/30/2021 1:45:00 PM 10.15 50.27 0.078 7.1 13.98 10.77
10/30/2021 2:00:00 PM 10.19 50.342 0.077 7.1 13.99 10.77
10/30/2021 2:15:00 PM 10.24 50.432 0.077 7.1 13.34 10.75
10/30/2021 2:30:00 PM 10.28 50.504 0.077 7.1 14.12 10.74
10/30/2021 2:45:00 PM 10.32 50.576 0.077 7.09 13.28 10.73
10/30/2021 3:00:00 PM 10.36 50.648 0.076 7.09 20.16 10.71
10/30/2021 3:15:00 PM 10.4 50.72 0.076 7.08 13.6 10.7
10/30/2021 3:30:00 PM 10.43 50.774 0.076 7.08 13.29 10.68
10/30/2021 3:45:00 PM 10.46 50.828 0.075 7.08 13.82 10.66
10/30/2021 4:00:00 PM 10.49 50.882 0.075 7.09 14.44 10.65
10/30/2021 4:15:00 PM 10.52 50.936 0.075 7.1 14.6 10.63
10/30/2021 4:30:00 PM 10.55 50.99 0.075 7.1 13.34 10.63
10/30/2021 4:45:00 PM 10.57 51.026 0.075 7.09 14.03 10.61
10/30/2021 5:00:00 PM 10.6 51.08 0.075 7.08 13.73 10.6
10/30/2021 5:15:00 PM 10.62 51.116 0.075 7.08 14.3 10.6
10/30/2021 5:30:00 PM 10.65 51.17 0.075 7.08 13.9 10.59
10/30/2021 5:45:00 PM 10.67 51.206 0.075 7.09 13.33 10.58
10/30/2021 6:00:00 PM 10.69 51.242 0.075 7.08 15.21 10.58
10/30/2021 6:15:00 PM 10.71 51.278 0.075 7.08 13.35 10.57
10/30/2021 6:30:00 PM 10.73 51.314 0.075 7.08 13.06 10.56
10/30/2021 6:45:00 PM 10.74 51.332 0.076 7.09 12.9 10.56
10/30/2021 7:00:00 PM 10.75 51.35 0.076 7.09 12.43 10.55
10/30/2021 7:15:00 PM 10.75 51.35 0.076 7.08 13.39 10.54
10/30/2021 7:30:00 PM 10.76 51.368 0.076 7.08 12.41 10.54
10/30/2021 7:45:00 PM 10.76 51.368 0.076 7.07 12.28 10.54
10/30/2021 8:00:00 PM 10.76 51.368 0.076 7.06 12.77 10.53
10/30/2021 8:15:00 PM 10.75 51.35 0.077 7.06 12.28 10.53
10/30/2021 8:30:00 PM 10.75 51.35 0.077 7.07 12.58 10.53
10/30/2021 8:45:00 PM 10.74 51.332 0.077 7.06 12.15 10.53
10/30/2021 9:00:00 PM 10.73 51.314 0.077 7.07 11.91 10.53
10/30/2021 9:15:00 PM 10.71 51.278 0.078 7.07 11.64 10.53
10/30/2021 9:30:00 PM 10.7 51.26 0.078 7.06 11.39 10.53
10/30/2021 9:45:00 PM 10.68 51.224 0.078 7.06 11.22 10.53
10/30/2021 10:00:00 PM 10.67 51.206 0.079 7.05 11.04 10.54
10/30/2021 10:15:00 PM 10.66 51.188 0.079 7.05 10.48 10.54
10/30/2021 10:30:00 PM 10.64 51.152 0.079 7.05 10.32 10.54
10/30/2021 10:45:00 PM 10.63 51.134 0.079 7.06 10.22 10.55
10/30/2021 11:00:00 PM 10.62 51.116 0.08 7.06 10.7 10.54
10/30/2021 11:15:00 PM 10.6 51.08 0.08 7.06 9.99 10.55
10/30/2021 11:30:00 PM 10.58 51.044 0.08 7.07 9.52 10.56
10/30/2021 11:45:00 PM 10.56 51.008 0.08 7.07 9.13 10.56
10/31/2021 12:00:00 AM 10.55 50.99 0.081 7.07 9.27 10.57
10/31/2021 12:15:00 AM 10.53 50.954 0.081 7.09 9.01 10.57
10/31/2021 12:30:00 AM 10.51 50.918 0.081 7.08 9.64 10.58
10/31/2021 12:45:00 AM 10.5 50.9 0.081 7.08 9.26 10.57
10/31/2021 1:00:00 AM 10.48 50.864 0.082 7.08 8.76 10.58
10/31/2021 1:15:00 AM 10.46 50.828 0.082 7.09 9.38 10.59
10/31/2021 1:30:00 AM 10.44 50.792 0.082 7.08 8.84 10.59
10/31/2021 1:45:00 AM 10.42 50.756 0.082 7.08 8.9 10.6
10/31/2021 2:00:00 AM 10.41 50.738 0.082 7.08 8.78 10.61
10/31/2021 2:15:00 AM 10.39 50.702 0.083 7.09 8.69 10.61
10/31/2021 2:30:00 AM 10.37 50.666 0.083 7.09 8.89 10.62
10/31/2021 2:45:00 AM 10.35 50.63 0.083 7.09 8.81 10.62
10/31/2021 3:00:00 AM 10.33 50.594 0.083 7.09 8.92 10.63
10/31/2021 3:15:00 AM 10.32 50.576 0.083 7.09 8.93 10.64
10/31/2021 3:30:00 AM 10.3 50.54 0.083 7.1 9.03 10.64
10/31/2021 3:45:00 AM 10.28 50.504 0.083 7.11 8.62 10.64
10/31/2021 4:00:00 AM 10.26 50.468 0.084 7.12 8.99 10.66
10/31/2021 4:15:00 AM 10.25 50.45 0.084 7.12 8.19 10.66
10/31/2021 4:30:00 AM 10.24 50.432 0.084 7.11 8.67 10.66
10/31/2021 4:45:00 AM 10.23 50.414 0.084 7.13 7.84 10.67
10/31/2021 5:00:00 AM 10.22 50.396 0.084 7.13 8.15 10.67
10/31/2021 5:15:00 AM 10.21 50.378 0.084 7.13 7.54 10.67
10/31/2021 5:30:00 AM 10.2 50.36 0.084 7.14 7.54 10.68
10/31/2021 5:45:00 AM 10.19 50.342 0.085 7.14 7.44 10.68
10/31/2021 6:00:00 AM 10.19 50.342 0.085 7.15 7.03 10.68
10/31/2021 6:15:00 AM 10.18 50.324 0.085 7.15 7.02 10.68
10/31/2021 6:30:00 AM 10.18 50.324 0.085 7.14 6.69 10.69
10/31/2021 6:45:00 AM 10.17 50.306 0.085 7.14 6.89 10.69
10/31/2021 7:00:00 AM 10.17 50.306 0.085 7.14 7.19 10.69
10/31/2021 7:15:00 AM 10.17 50.306 0.085 7.14 6.97 10.69
10/31/2021 7:30:00 AM 10.17 50.306 0.085 7.14 6.89 10.68
10/31/2021 7:45:00 AM 10.17 50.306 0.085 7.14 6.92 10.7
10/31/2021 8:00:00 AM 10.17 50.306 0.085 7.14 6.69 10.7
10/31/2021 8:15:00 AM 10.17 50.306 0.085 7.14 6.75 10.7
10/31/2021 8:30:00 AM 10.17 50.306 0.085 7.14 6.5 10.7
10/31/2021 8:45:00 AM 10.18 50.324 0.085 7.14 6.74 10.71
10/31/2021 9:00:00 AM 10.19 50.342 0.085 7.13 6.7 10.71
10/31/2021 9:15:00 AM 10.2 50.36 0.085 7.13 6.61 10.71
10/31/2021 9:30:00 AM 10.21 50.378 0.085 7.13 6.27 10.7
10/31/2021 9:45:00 AM 10.23 50.414 0.085 7.13 6.18 10.71
10/31/2021 10:00:00 AM 10.25 50.45 0.085 7.13 5.95 10.72
10/31/2021 10:15:00 AM 10.28 50.504 0.085 7.14 5.96 10.73
10/31/2021 10:30:00 AM 10.31 50.558 0.085 7.14 5.91 10.73
10/31/2021 10:45:00 AM 10.35 50.63 0.085 7.14 5.86 10.73
10/31/2021 11:00:00 AM 10.38 50.684 0.085 7.14 6.1 10.73
10/31/2021 11:15:00 AM 10.42 50.756 0.085 7.14 5.93 10.73
10/31/2021 11:30:00 AM 10.47 50.846 0.085 7.14 5.93 10.73
10/31/2021 11:45:00 AM 10.51 50.918 0.085 7.15 6.04 10.73
10/31/2021 12:00:00 PM 10.57 51.026 0.085 7.15 5.95 10.73
10/31/2021 12:15:00 PM 10.63 51.134 0.085 7.15 5.89 10.73
10/31/2021 12:30:00 PM 10.67 51.206 0.085 7.16 5.82 10.72
10/31/2021 12:45:00 PM 10.72 51.296 0.085 7.17 5.73 10.71
10/31/2021 1:00:00 PM 10.76 51.368 0.085 7.16 5.76 10.71
10/31/2021 1:15:00 PM 10.82 51.476 0.085 7.17 5.92 10.71
10/31/2021 1:30:00 PM 10.85 51.53 0.085 7.17 5.81 10.7
10/31/2021 1:45:00 PM 10.9 51.62 0.085 7.18 5.91 10.7
10/31/2021 2:00:00 PM 10.93 51.674 0.085 7.18 5.76 10.69
10/31/2021 2:15:00 PM 10.95 51.71 0.085 7.19 5.45 10.66
10/31/2021 2:30:00 PM 10.97 51.746 0.085 7.18 5.48 10.64
10/31/2021 2:45:00 PM 10.98 51.764 0.085 7.17 5.57 10.63
10/31/2021 3:00:00 PM 10.99 51.782 0.085 7.18 5.7 10.62
10/31/2021 3:15:00 PM 11 51.8 0.085 7.18 5.58 10.61
10/31/2021 3:30:00 PM 11.01 51.818 0.085 7.18 5.34 10.6
10/31/2021 3:45:00 PM 11.02 51.836 0.085 7.17 5.74 10.59
10/31/2021 4:00:00 PM 11.05 51.89 0.085 7.17 5.27 10.59
10/31/2021 4:15:00 PM 11.06 51.908 0.085 7.17 5.29 10.59
10/31/2021 4:30:00 PM 11.07 51.926 0.084 7.17 5.4 10.58
10/31/2021 4:45:00 PM 11.09 51.962 0.084 7.17 5.43 10.58
10/31/2021 5:00:00 PM 11.1 51.98 0.084 7.17 5.36 10.57
10/31/2021 5:15:00 PM 11.1 51.98 0.084 7.17 5.25 10.56
10/31/2021 5:30:00 PM 11.11 51.998 0.084 7.16 4.99 10.54
10/31/2021 5:45:00 PM 11.11 51.998 0.084 7.16 5.16 10.54
10/31/2021 6:00:00 PM 11.11 51.998 0.084 7.16 5.26 10.54
10/31/2021 6:15:00 PM 11.1 51.98 0.084 7.16 5.39 10.53
10/31/2021 6:30:00 PM 11.09 51.962 0.084 7.16 5.44 10.53
10/31/2021 6:45:00 PM 11.08 51.944 0.084 7.16 5.32 10.53
10/31/2021 7:00:00 PM 11.07 51.926 0.084 7.16 5.72 10.53
10/31/2021 7:15:00 PM 11.06 51.908 0.084 7.16 5.76 10.54
10/31/2021 7:30:00 PM 11.05 51.89 0.084 7.16 5.99 10.54
10/31/2021 7:45:00 PM 11.03 51.854 0.085 7.16 6.18 10.54
10/31/2021 8:00:00 PM 11 51.8 0.085 7.16 6.17 10.55
10/31/2021 8:15:00 PM 10.97 51.746 0.085 7.16 5.94 10.57
10/31/2021 8:30:00 PM 10.95 51.71 0.085 7.16 5.98 10.56
10/31/2021 8:45:00 PM 10.92 51.656 0.085 7.15 6.32 10.57
10/31/2021 9:00:00 PM 10.89 51.602 0.085 7.15 6.42 10.59
10/31/2021 9:15:00 PM 10.87 51.566 0.085 7.15 6.48 10.59
10/31/2021 9:30:00 PM 10.83 51.494 0.085 7.15 5.99 10.6
10/31/2021 9:45:00 PM 10.81 51.458 0.085 7.15 6.18 10.61
10/31/2021 10:00:00 PM 10.78 51.404 0.085 7.15 6.04 10.61
10/31/2021 10:15:00 PM 10.77 51.386 0.085 7.15 5.9 10.62
10/31/2021 10:30:00 PM 10.75 51.35 0.086 7.15 5.85 10.63
10/31/2021 10:45:00 PM 10.72 51.296 0.086 7.15 5.89 10.63
10/31/2021 11:00:00 PM 10.7 51.26 0.086 7.15 6.28 10.63
10/31/2021 11:15:00 PM 10.66 51.188 0.086 7.15 5.7 10.63
10/31/2021 11:30:00 PM 10.63 51.134 0.086 7.15 5.57 10.64
10/31/2021 11:45:00 PM 10.61 51.098 0.086 7.15 5.59 10.65
11/1/2021 12:00:00 AM 10.58 51.044 0.087 7.15 5.57 10.66
11/1/2021 12:15:00 AM 10.56 51.008 0.087 7.15 5.71 10.66
11/1/2021 12:30:00 AM 10.54 50.972 0.087 7.15 6.06 10.67
11/1/2021 12:45:00 AM 10.52 50.936 0.087 7.16 5.74 10.68
11/1/2021 1:00:00 AM 10.5 50.9 0.087 7.16 5.53 10.69
11/1/2021 1:15:00 AM 10.49 50.882 0.087 7.16 5.8 10.7
11/1/2021 1:30:00 AM 10.47 50.846 0.087 7.16 5.4 10.7
11/1/2021 1:45:00 AM 10.46 50.828 0.087 7.15 5.38 10.7
11/1/2021 2:00:00 AM 10.45 50.81 0.088 7.16 5.3 10.71
11/1/2021 2:15:00 AM 10.44 50.792 0.088 7.16 5.37 10.72
11/1/2021 2:30:00 AM 10.43 50.774 0.088 7.16 5.68 10.71
11/1/2021 2:45:00 AM 10.43 50.774 0.088 7.16 5.42 10.73
11/1/2021 3:00:00 AM 10.42 50.756 0.088 7.16 5.36 10.72
11/1/2021 3:15:00 AM 10.41 50.738 0.088 7.16 5.9 10.73
11/1/2021 3:30:00 AM 10.41 50.738 0.088 7.16 5.89 10.73
11/1/2021 3:45:00 AM 10.4 50.72 0.088 7.17 5.39 10.73
11/1/2021 4:00:00 AM 10.39 50.702 0.088 7.17 5.6 10.73
11/1/2021 4:15:00 AM 10.38 50.684 0.089 7.17 5.28 10.74
11/1/2021 4:30:00 AM 10.36 50.648 0.089 7.17 5.67 10.75
11/1/2021 4:45:00 AM 10.34 50.612 0.089 7.17 5.26 10.75
11/1/2021 5:00:00 AM 10.33 50.594 0.089 7.17 5.32 10.77
11/1/2021 5:15:00 AM 10.31 50.558 0.089 7.17 5.08 10.78
11/1/2021 5:30:00 AM 10.28 50.504 0.089 7.17 5.04 10.78
11/1/2021 5:45:00 AM 10.26 50.468 0.089 7.17 5.21 10.79
11/1/2021 6:00:00 AM 10.23 50.414 0.089 7.17 5.27 10.8
11/1/2021 6:15:00 AM 10.19 50.342 0.09 7.18 5.21 10.81
11/1/2021 6:30:00 AM 10.15 50.27 0.09 7.18 5.15 10.82
11/1/2021 6:45:00 AM 10.1 50.18 0.09 7.18 5.32 10.84
11/1/2021 7:00:00 AM 10.06 50.108 0.09 7.18 5.09 10.84
11/1/2021 7:15:00 AM 10.01 50.018 0.09 7.18 5.11 10.85
11/1/2021 7:30:00 AM 9.97 49.946 0.09 7.18 5.33 10.87
11/1/2021 7:45:00 AM 9.92 49.856 0.09 7.18 5.23 10.88
11/1/2021 8:00:00 AM 9.87 49.766 0.09 7.18 5.15 10.9
11/1/2021 8:15:00 AM 9.82 49.676 0.09 7.19 4.99 10.92
11/1/2021 8:30:00 AM 9.77 49.586 0.091 7.19 5.26 10.95
11/1/2021 8:45:00 AM 9.73 49.514 0.091 7.19 4.9 10.96
11/1/2021 9:00:00 AM 9.7 49.46 0.091 7.19 5.01 10.99
11/1/2021 9:15:00 AM 9.67 49.406 0.091 7.2 4.84 11.01
11/1/2021 9:30:00 AM 9.65 49.37 0.091 7.2 4.49 11.04
11/1/2021 9:45:00 AM 9.63 49.334 0.091 7.2 4.44 11.06
11/1/2021 10:00:00 AM 9.62 49.316 0.091 7.21 4.58 11.08
11/1/2021 10:15:00 AM 9.62 49.316 0.091 7.21 4.52 11.1
11/1/2021 10:30:00 AM 9.64 49.352 0.091 7.22 4.57 11.12
11/1/2021 10:45:00 AM 9.66 49.388 0.091 7.22 4.14 11.13
11/1/2021 11:00:00 AM 9.7 49.46 0.091 7.22 4.25 11.14
11/1/2021 11:15:00 AM 9.75 49.55 0.092 7.23 5.34 11.15
11/1/2021 11:30:00 AM 9.8 49.64 0.092 7.23 4.69 11.16
11/1/2021 11:45:00 AM 9.85 49.73 0.092 7.24 4.44 11.16
11/1/2021 12:00:00 PM 9.9 49.82 0.092 7.24 4.28 11.16
11/1/2021 12:15:00 PM 9.93 49.874 0.092 7.24 4.02 11.16
11/1/2021 12:30:00 PM 10.02 50.036 0.092 7.24 3.89 11.17
11/1/2021 12:45:00 PM 10.06 50.108 0.092 7.25 4.25 11.17
11/1/2021 1:00:00 PM 10.09 50.162 0.092 7.25 4.13 11.17
11/1/2021 1:15:00 PM 10.15 50.27 0.092 7.25 4.31 11.17
11/1/2021 1:30:00 PM 10.2 50.36 0.093 7.25 3.92 11.17
11/1/2021 1:45:00 PM 10.23 50.414 0.093 7.26 3.98 11.16
11/1/2021 2:00:00 PM 10.35 50.63 0.093 7.26 3.87 11.15
11/1/2021 2:15:00 PM 10.4 50.72 0.093 7.26 4.09 11.15
11/1/2021 2:30:00 PM 10.44 50.792 0.093 7.27 3.88 11.13
11/1/2021 2:45:00 PM 10.44 50.792 0.093 7.27 3.88 11.12
11/1/2021 3:00:00 PM 10.45 50.81 0.093 7.27 4.04 11.1
11/1/2021 3:15:00 PM 10.44 50.792 0.093 7.27 3.87 11.11
11/1/2021 3:30:00 PM 10.38 50.684 0.093 7.27 3.89 11.1
11/1/2021 3:45:00 PM 10.33 50.594 0.094 7.26 4 11.09
11/1/2021 4:00:00 PM 10.29 50.522 0.094 7.26 3.98 11.08
11/1/2021 4:15:00 PM 10.26 50.468 0.094 7.26 3.86 11.07
11/1/2021 4:30:00 PM 10.21 50.378 0.094 7.26 3.89 11.06
11/1/2021 4:45:00 PM 10.16 50.288 0.094 7.26 3.97 11.06
11/1/2021 5:00:00 PM 10.11 50.198 0.094 7.25 3.89 11.05
11/1/2021 5:15:00 PM 10.05 50.09 0.094 7.25 3.93 11.03
11/1/2021 5:30:00 PM 10.01 50.018 0.094 7.25 3.99 11.03
11/1/2021 5:45:00 PM 9.96 49.928 0.094 7.24 4.09 11.01
11/1/2021 6:00:00 PM 9.92 49.856 0.095 7.24 4.08 11.01
11/1/2021 6:15:00 PM 9.88 49.784 0.095 7.23 4.04 11
11/1/2021 6:30:00 PM 9.84 49.712 0.095 7.22 4 11.01
11/1/2021 6:45:00 PM 9.8 49.64 0.095 7.23 4.51 11.01
11/1/2021 7:00:00 PM 9.76 49.568 0.095 7.23 4.27 11.01
11/1/2021 7:15:00 PM 9.72 49.496 0.095 7.22 4.13 11.02
11/1/2021 7:30:00 PM 9.68 49.424 0.095 7.22 4.57 11.03
11/1/2021 7:45:00 PM 9.64 49.352 0.095 7.22 4.63 11.04
11/1/2021 8:00:00 PM 9.6 49.28 0.095 7.22 4.71 11.05
11/1/2021 8:15:00 PM 9.56 49.208 0.095 7.22 4.72 11.05
11/1/2021 8:30:00 PM 9.52 49.136 0.096 7.22 4.61 11.06
11/1/2021 8:45:00 PM 9.47 49.046 0.096 7.22 4.79 11.08
11/1/2021 9:00:00 PM 9.42 48.956 0.096 7.22 4.52 11.09
11/1/2021 9:15:00 PM 9.38 48.884 0.096 7.22 4.67 11.1
11/1/2021 9:30:00 PM 9.33 48.794 0.096 7.22 4.8 11.1
11/1/2021 9:45:00 PM 9.28 48.704 0.096 7.21 4.63 11.12
11/1/2021 10:00:00 PM 9.24 48.632 0.096 7.21 4.53 11.14
11/1/2021 10:15:00 PM 9.21 48.578 0.096 7.22 4.88 11.15
11/1/2021 10:30:00 PM 9.16 48.488 0.097 7.22 4.78 11.16
11/1/2021 10:45:00 PM 9.12 48.416 0.097 7.22 4.47 11.18
11/1/2021 11:00:00 PM 9.07 48.326 0.097 7.22 4.89 11.19
11/1/2021 11:15:00 PM 9.02 48.236 0.097 7.22 4.88 11.21
11/1/2021 11:30:00 PM 8.99 48.182 0.097 7.21 4.66 11.22
11/1/2021 11:45:00 PM 8.96 48.128 0.097 7.21 4.8 11.23
11/2/2021 12:00:00 AM 8.93 48.074 0.097 7.21 4.52 11.24
11/2/2021 12:15:00 AM 8.9 48.02 0.097 7.21 4.18 11.24
11/2/2021 12:30:00 AM 8.87 47.966 0.097 7.22 5.27 11.26
11/2/2021 12:45:00 AM 8.85 47.93 0.097 7.22 4.45 11.27
11/2/2021 1:00:00 AM 8.82 47.876 0.098 7.22 4.16 11.28
11/2/2021 1:15:00 AM 8.8 47.84 0.098 7.23 4.34 11.28
11/2/2021 1:30:00 AM 8.77 47.786 0.098 7.22 4.12 11.28
11/2/2021 1:45:00 AM 8.75 47.75 0.098 7.21 4.26 11.3
11/2/2021 2:00:00 AM 8.72 47.696 0.098 7.22 4.23 11.29
11/2/2021 2:15:00 AM 8.7 47.66 0.098 7.22 4.28 11.3
11/2/2021 2:30:00 AM 8.68 47.624 0.098 7.22 4.24 11.31
11/2/2021 2:45:00 AM 8.66 47.588 0.098 7.22 4.11 11.31
11/2/2021 3:00:00 AM 8.65 47.57 0.099 7.22 3.9 11.31
11/2/2021 3:15:00 AM 8.63 47.534 0.099 7.23 3.99 11.32
11/2/2021 3:30:00 AM 8.61 47.498 0.099 7.23 4.6 11.33
11/2/2021 3:45:00 AM 8.59 47.462 0.099 7.23 4.23 11.33
11/2/2021 4:00:00 AM 8.57 47.426 0.099 7.22 4.3 11.34
11/2/2021 4:15:00 AM 8.55 47.39 0.099 7.22 4.16 11.35
11/2/2021 4:30:00 AM 8.53 47.354 0.099 7.22 4.18 11.35
11/2/2021 4:45:00 AM 8.52 47.336 0.099 7.22 4.2 11.35
11/2/2021 5:00:00 AM 8.49 47.282 0.099 7.23 4.26 11.37
11/2/2021 5:15:00 AM 8.47 47.246 0.1 7.22 4.27 11.37
11/2/2021 5:30:00 AM 8.45 47.21 0.1 7.22 4.11 11.37
11/2/2021 5:45:00 AM 8.42 47.156 0.1 7.22 4.23 11.38
11/2/2021 6:00:00 AM 8.4 47.12 0.1 7.22 4.21 11.38
11/2/2021 6:15:00 AM 8.38 47.084 0.1 7.23 4.31 11.39
11/2/2021 6:30:00 AM 8.36 47.048 0.1 7.23 4.2 11.41
11/2/2021 6:45:00 AM 8.35 47.03 0.1 7.23 4.13 11.42
11/2/2021 7:00:00 AM 8.34 47.012 0.1 7.23 4.28 11.42
11/2/2021 7:15:00 AM 8.32 46.976 0.1 7.23 4.16 11.42
11/2/2021 7:30:00 AM 8.3 46.94 0.101 7.22 4.43 11.43
11/2/2021 7:45:00 AM 8.27 46.886 0.101 7.23 4.29 11.44
11/2/2021 8:00:00 AM 8.25 46.85 0.101 7.23 3.95 11.44
11/2/2021 8:15:00 AM 8.23 46.814 0.101 7.23 3.77 11.46
11/2/2021 8:30:00 AM 8.22 46.796 0.101 7.23 3.88 11.48
11/2/2021 8:45:00 AM 8.21 46.778 0.101 7.24 3.67 11.49
11/2/2021 9:00:00 AM 8.2 46.76 0.101 7.25 3.77 11.52
11/2/2021 9:15:00 AM 8.21 46.778 0.101 7.25 3.62 11.55
11/2/2021 9:30:00 AM 8.23 46.814 0.101 7.26 3.7 11.57
11/2/2021 9:45:00 AM 8.25 46.85 0.101 7.26 3.61 11.59
11/2/2021 10:00:00 AM 8.29 46.922 0.101 7.26 3.74 11.61
11/2/2021 10:15:00 AM 8.32 46.976 0.101 7.26 3.59 11.61
11/2/2021 10:30:00 AM 8.38 47.084 0.101 7.27 3.57 11.63
11/2/2021 10:45:00 AM 8.42 47.156 0.101 7.28 3.64 11.63
11/2/2021 11:00:00 AM 8.46 47.228 0.102 7.28 3.56 11.63
11/2/2021 11:15:00 AM 8.52 47.336 0.102 7.28 3.45 11.63
11/2/2021 11:30:00 AM 8.56 47.408 0.102 7.29 3.43 11.62
11/2/2021 11:45:00 AM 8.59 47.462 0.102 7.29 3.6 11.62
11/2/2021 12:00:00 PM 8.62 47.516 0.102 7.29 3.58 11.59
11/2/2021 12:15:00 PM 8.65 47.57 0.102 7.3 3.61 11.57
11/2/2021 12:30:00 PM 8.69 47.642 0.102 7.31 3.51 11.58
11/2/2021 12:45:00 PM 8.72 47.696 0.102 7.31 3.61 11.58
11/2/2021 1:00:00 PM 8.78 47.804 0.102 7.31 3.68 11.59
11/2/2021 1:15:00 PM 8.77 47.786 0.102 7.3 3.56 11.56
11/2/2021 1:30:00 PM 8.78 47.804 0.102 7.3 3.62 11.53
11/2/2021 1:45:00 PM 8.88 47.984 0.103 7.31 3.54 11.54
11/2/2021 2:00:00 PM 8.85 47.93 0.103 7.31 3.66 11.53
11/2/2021 2:15:00 PM 8.88 47.984 0.103 7.31 3.61 11.52
11/2/2021 2:30:00 PM 8.93 48.074 0.103 7.31 3.62 11.52
11/2/2021 2:45:00 PM 8.91 48.038 0.103 7.31 3.52 11.54
11/2/2021 3:00:00 PM 8.92 48.056 0.103 7.32 3.6 11.54
11/2/2021 3:15:00 PM 8.91 48.038 0.103 7.32 3.66 11.54
11/2/2021 3:30:00 PM 8.92 48.056 0.103 7.32 3.5 11.53
11/2/2021 3:45:00 PM 8.9 48.02 0.103 7.32 3.54 11.53
11/2/2021 4:00:00 PM 8.89 48.002 0.103 7.32 3.32 11.52
11/2/2021 4:15:00 PM 8.88 47.984 0.103 7.31 3.57 11.51
11/2/2021 4:30:00 PM 8.86 47.948 0.104 7.31 3.31 11.49
11/2/2021 4:45:00 PM 8.84 47.912 0.104 7.31 3.36 11.47
11/2/2021 5:00:00 PM 8.82 47.876 0.104 7.31 3.49 11.47
11/2/2021 5:15:00 PM 8.8 47.84 0.104 7.31 3.49 11.45
11/2/2021 5:30:00 PM 8.78 47.804 0.104 7.31 3.44 11.43
11/2/2021 5:45:00 PM 8.76 47.768 0.104 7.31 3.4 11.41
11/2/2021 6:00:00 PM 8.74 47.732 0.104 7.3 3.35 11.39
11/2/2021 6:15:00 PM 8.7 47.66 0.105 7.3 3.44 11.39
11/2/2021 6:30:00 PM 8.67 47.606 0.105 7.3 3.46 11.38
11/2/2021 6:45:00 PM 8.63 47.534 0.105 7.29 3.65 11.38
11/2/2021 7:00:00 PM 8.58 47.444 0.105 7.29 3.52 11.38
11/2/2021 7:15:00 PM 8.54 47.372 0.105 7.29 3.65 11.39
11/2/2021 7:30:00 PM 8.51 47.318 0.105 7.29 3.65 11.39
11/2/2021 7:45:00 PM 8.47 47.246 0.105 7.29 3.8 11.4
11/2/2021 8:00:00 PM 8.43 47.174 0.105 7.28 3.84 11.41
11/2/2021 8:15:00 PM 8.4 47.12 0.105 7.28 3.61 11.42
11/2/2021 8:30:00 PM 8.36 47.048 0.105 7.28 3.74 11.43
11/2/2021 8:45:00 PM 8.32 46.976 0.105 7.28 3.73 11.44
11/2/2021 9:00:00 PM 8.28 46.904 0.105 7.28 3.67 11.45
11/2/2021 9:15:00 PM 8.24 46.832 0.105 7.27 3.6 11.46
11/2/2021 9:30:00 PM 8.2 46.76 0.106 7.27 3.48 11.47
11/2/2021 9:45:00 PM 8.17 46.706 0.106 7.28 3.81 11.48
11/2/2021 10:00:00 PM 8.13 46.634 0.106 7.27 3.91 11.5
11/2/2021 10:15:00 PM 8.08 46.544 0.106 7.28 3.84 11.5
11/2/2021 10:30:00 PM 8.04 46.472 0.106 7.28 4.09 11.51
11/2/2021 10:45:00 PM 7.99 46.382 0.106 7.28 3.66 11.52
11/2/2021 11:00:00 PM 7.95 46.31 0.106 7.28 3.71 11.52
11/2/2021 11:15:00 PM 7.9 46.22 0.106 7.29 3.7 11.55
11/2/2021 11:30:00 PM 7.86 46.148 0.106 7.29 3.87 11.55
11/2/2021 11:45:00 PM 7.82 46.076 0.107 7.28 3.69 11.57
11/3/2021 12:00:00 AM 7.77 45.986 0.107 7.28 4 11.6
11/3/2021 12:15:00 AM 7.73 45.914 0.107 7.28 4.1 11.6
11/3/2021 12:30:00 AM 7.68 45.824 0.107 7.28 3.93 11.63
11/3/2021 12:45:00 AM 7.64 45.752 0.107 7.28 3.92 11.64
11/3/2021 1:00:00 AM 7.6 45.68 0.107 7.28 4.25 11.64
11/3/2021 1:15:00 AM 7.56 45.608 0.107 7.28 3.88 11.67
11/3/2021 1:30:00 AM 7.52 45.536 0.107 7.28 3.95 11.68
11/3/2021 1:45:00 AM 7.49 45.482 0.107 7.28 3.59 11.69
11/3/2021 2:00:00 AM 7.46 45.428 0.107 7.28 3.77 11.69
11/3/2021 2:15:00 AM 7.42 45.356 0.107 7.28 3.83 11.71
11/3/2021 2:30:00 AM 7.38 45.284 0.108 7.28 3.66 11.71
11/3/2021 2:45:00 AM 7.35 45.23 0.108 7.29 3.61 11.72
11/3/2021 3:00:00 AM 7.31 45.158 0.108 7.28 3.66 11.72
11/3/2021 3:15:00 AM 7.27 45.086 0.108 7.28 3.73 11.74
11/3/2021 3:30:00 AM 7.24 45.032 0.108 7.28 3.55 11.75
11/3/2021 3:45:00 AM 7.21 44.978 0.108 7.28 3.83 11.77
11/3/2021 4:00:00 AM 7.18 44.924 0.108 7.28 3.71 11.78
11/3/2021 4:15:00 AM 7.14 44.852 0.108 7.28 3.75 11.79
11/3/2021 4:30:00 AM 7.11 44.798 0.108 7.28 3.82 11.8
11/3/2021 4:45:00 AM 7.09 44.762 0.108 7.28 3.62 11.81
11/3/2021 5:00:00 AM 7.06 44.708 0.109 7.28 3.61 11.82
11/3/2021 5:15:00 AM 7.04 44.672 0.109 7.28 3.63 11.83
11/3/2021 5:30:00 AM 7.02 44.636 0.109 7.28 3.5 11.83
11/3/2021 5:45:00 AM 7 44.6 0.109 7.28 3.61 11.85
11/3/2021 6:00:00 AM 6.98 44.564 0.109 7.29 3.61 11.86
11/3/2021 6:15:00 AM 6.96 44.528 0.109 7.29 3.82 11.86
11/3/2021 6:30:00 AM 6.95 44.51 0.109 7.29 3.55 11.87
11/3/2021 6:45:00 AM 6.93 44.474 0.11 7.29 3.41 11.87
11/3/2021 7:00:00 AM 6.92 44.456 0.11 7.29 3.45 11.88
11/3/2021 7:15:00 AM 6.91 44.438 0.11 7.29 3.43 11.88
11/3/2021 7:30:00 AM 6.9 44.42 0.11 7.29 3.58 11.89
11/3/2021 7:45:00 AM 6.89 44.402 0.11 7.29 3.67 11.89
11/3/2021 8:00:00 AM 6.88 44.384 0.11 7.29 3.58 11.9
11/3/2021 8:15:00 AM 6.87 44.366 0.11 7.3 3.62 11.91
11/3/2021 8:30:00 AM 6.86 44.348 0.11 7.3 3.42 11.92
11/3/2021 8:45:00 AM 6.86 44.348 0.111 7.3 3.61 11.93
11/3/2021 9:00:00 AM 6.85 44.33 0.111 7.3 3.39 11.94
11/3/2021 9:15:00 AM 6.86 44.348 0.111 7.31 3.35 11.97
11/3/2021 9:30:00 AM 6.87 44.366 0.111 7.31 3.3 11.99
11/3/2021 9:45:00 AM 6.88 44.384 0.111 7.32 3.25 12
11/3/2021 10:00:00 AM 6.91 44.438 0.111 7.32 3.22 12.04
11/3/2021 10:15:00 AM 6.92 44.456 0.111 7.32 3.29 12.05
11/3/2021 10:30:00 AM 6.98 44.564 0.111 7.33 3.03 12.07
11/3/2021 10:45:00 AM 7.02 44.636 0.111 7.33 3.16 12.07
11/3/2021 11:00:00 AM 7.09 44.762 0.111 7.34 3.07 12.09
11/3/2021 11:15:00 AM 7.13 44.834 0.111 7.35 3.15 12.07
11/3/2021 11:30:00 AM 7.18 44.924 0.111 7.35 3.31 12.07
11/3/2021 11:45:00 AM 7.24 45.032 0.112 7.35 2.91 12.06
11/3/2021 12:00:00 PM 7.27 45.086 0.112 7.35 2.94 12.05
11/3/2021 12:15:00 PM 7.29 45.122 0.112 7.35 3.02 12.04
11/3/2021 12:30:00 PM 7.35 45.23 0.112 7.36 2.95 12.05
11/3/2021 12:45:00 PM 7.36 45.248 0.112 7.36 2.93 12.04
11/3/2021 1:00:00 PM 7.39 45.302 0.112 7.36 2.79 12.04
11/3/2021 1:15:00 PM 7.42 45.356 0.112 7.36 2.77 12.02
11/3/2021 1:30:00 PM 7.46 45.428 0.112 7.37 2.81 12.04
11/3/2021 1:45:00 PM 7.47 45.446 0.112 7.37 2.84 12.03
11/3/2021 2:00:00 PM 7.51 45.518 0.112 7.37 2.82 12.04
11/3/2021 2:15:00 PM 7.54 45.572 0.113 7.38 2.92 12.04
11/3/2021 2:30:00 PM 7.55 45.59 0.113 7.38 2.83 12.03
11/3/2021 2:45:00 PM 7.59 45.662 0.113 7.38 2.77 12.03
11/3/2021 3:00:00 PM 7.58 45.644 0.113 7.39 2.94 12.01
11/3/2021 3:15:00 PM 7.6 45.68 0.113 7.38 2.88 12
11/3/2021 3:30:00 PM 7.59 45.662 0.113 7.38 2.9 11.99
11/3/2021 3:45:00 PM 7.61 45.698 0.113 7.38 2.79 11.96
11/3/2021 4:00:00 PM 7.63 45.734 0.113 7.38 2.77 11.96
11/3/2021 4:15:00 PM 7.65 45.77 0.113 7.38 2.98 11.96
11/3/2021 4:30:00 PM 7.65 45.77 0.113 7.38 2.82 11.93
11/3/2021 4:45:00 PM 7.62 45.716 0.113 7.38 2.81 11.91
11/3/2021 5:00:00 PM 7.59 45.662 0.114 7.37 2.67 11.88
11/3/2021 5:15:00 PM 7.58 45.644 0.114 7.36 2.79 11.88
11/3/2021 5:30:00 PM 7.56 45.608 0.114 7.36 2.76 11.86
11/3/2021 5:45:00 PM 7.55 45.59 0.114 7.36 2.77 11.85
11/3/2021 6:00:00 PM 7.54 45.572 0.114 7.35 2.7 11.83
11/3/2021 6:15:00 PM 7.53 45.554 0.114 7.35 2.62 11.82
11/3/2021 6:30:00 PM 7.52 45.536 0.114 7.35 2.9 11.81
11/3/2021 6:45:00 PM 7.5 45.5 0.114 7.34 2.71 11.78
11/3/2021 7:00:00 PM 7.48 45.464 0.115 7.34 2.91 11.78
11/3/2021 7:15:00 PM 7.45 45.41 0.115 7.34 2.94 11.78
11/3/2021 7:30:00 PM 7.42 45.356 0.115 7.34 3 11.78
11/3/2021 7:45:00 PM 7.38 45.284 0.115 7.34 2.93 11.77
11/3/2021 8:00:00 PM 7.34 45.212 0.115 7.33 3.03 11.78
11/3/2021 8:15:00 PM 7.31 45.158 0.115 7.33 3.07 11.79
11/3/2021 8:30:00 PM 7.27 45.086 0.115 7.33 3.39 11.8
11/3/2021 8:45:00 PM 7.23 45.014 0.115 7.33 3.15 11.82
11/3/2021 9:00:00 PM 7.19 44.942 0.115 7.33 3.11 11.83
11/3/2021 9:15:00 PM 7.15 44.87 0.115 7.33 3.18 11.84
11/3/2021 9:30:00 PM 7.11 44.798 0.115 7.33 3.45 11.85
11/3/2021 9:45:00 PM 7.07 44.726 0.115 7.33 3.38 11.87
11/3/2021 10:00:00 PM 7.04 44.672 0.115 7.33 3.34 11.87
11/3/2021 10:15:00 PM 7.01 44.618 0.116 7.33 3.31 11.89
11/3/2021 10:30:00 PM 6.98 44.564 0.116 7.33 3.44 11.9
11/3/2021 10:45:00 PM 6.94 44.492 0.116 7.33 3.34 11.91
11/3/2021 11:00:00 PM 6.91 44.438 0.116 7.33 3.21 11.92
11/3/2021 11:15:00 PM 6.87 44.366 0.116 7.33 3.15 11.93
11/3/2021 11:30:00 PM 6.83 44.294 0.116 7.33 3.51 11.94
11/3/2021 11:45:00 PM 6.8 44.24 0.116 7.33 3.36 11.95
11/4/2021 12:00:00 AM 6.76 44.168 0.116 7.32 3.19 11.96
11/4/2021 12:15:00 AM 6.72 44.096 0.116 7.33 3.13 11.97
11/4/2021 12:30:00 AM 6.68 44.024 0.117 7.33 3.12 11.98
11/4/2021 12:45:00 AM 6.64 43.952 0.117 7.32 3.17 12
11/4/2021 1:00:00 AM 6.6 43.88 0.117 7.33 2.81 12.01
11/4/2021 1:15:00 AM 6.56 43.808 0.117 7.33 2.9 12.02
11/4/2021 1:30:00 AM 6.52 43.736 0.117 7.33 3 12.04
11/4/2021 1:45:00 AM 6.48 43.664 0.117 7.33 3.16 12.05
11/4/2021 2:00:00 AM 6.44 43.592 0.118 7.33 3.01 12.07
11/4/2021 2:15:00 AM 6.39 43.502 0.118 7.33 2.94 12.08
11/4/2021 2:30:00 AM 6.35 43.43 0.118 7.33 3.05 12.1
11/4/2021 2:45:00 AM 6.31 43.358 0.118 7.33 2.99 12.11
11/4/2021 3:00:00 AM 6.27 43.286 0.118 7.33 2.84 12.12
11/4/2021 3:15:00 AM 6.23 43.214 0.118 7.33 2.99 12.13
11/4/2021 3:30:00 AM 6.19 43.142 0.118 7.33 2.81 12.15
11/4/2021 3:45:00 AM 6.15 43.07 0.118 7.33 2.98 12.15
11/4/2021 4:00:00 AM 6.12 43.016 0.119 7.33 2.84 12.16
11/4/2021 4:15:00 AM 6.08 42.944 0.119 7.33 2.99 12.18
11/4/2021 4:30:00 AM 6.04 42.872 0.119 7.33 2.95 12.19
11/4/2021 4:45:00 AM 6 42.8 0.119 7.33 2.9 12.21
11/4/2021 5:00:00 AM 5.96 42.728 0.119 7.33 2.91 12.22
11/4/2021 5:15:00 AM 5.92 42.656 0.119 7.33 2.87 12.23
11/4/2021 5:30:00 AM 5.89 42.602 0.119 7.34 3.05 12.24
11/4/2021 5:45:00 AM 5.86 42.548 0.119 7.34 3.02 12.26
11/4/2021 6:00:00 AM 5.84 42.512 0.119 7.34 2.79 12.27
11/4/2021 6:15:00 AM 5.82 42.476 0.12 7.34 2.93 12.28
11/4/2021 6:30:00 AM 5.8 42.44 0.12 7.33 2.89 12.29
11/4/2021 6:45:00 AM 5.79 42.422 0.12 7.33 2.83 12.3
11/4/2021 7:00:00 AM 5.77 42.386 0.12 7.33 2.92 12.3
11/4/2021 7:15:00 AM 5.76 42.368 0.12 7.33 2.95 12.31
11/4/2021 7:30:00 AM 5.75 42.35 0.12 7.33 2.82 12.31
11/4/2021 7:45:00 AM 5.73 42.314 0.12 7.33 2.86 12.32
11/4/2021 8:00:00 AM 5.72 42.296 0.12 7.34 3.34 12.33
11/4/2021 8:15:00 AM 5.71 42.278 0.121 7.34 3.05 12.34
11/4/2021 8:30:00 AM 5.71 42.278 0.121 7.34 2.96 12.36
11/4/2021 8:45:00 AM 5.7 42.26 0.121 7.34 2.8 12.38
11/4/2021 9:00:00 AM 5.71 42.278 0.121 7.35 2.67 12.4
11/4/2021 9:15:00 AM 5.72 42.296 0.121 7.35 2.54 12.43
11/4/2021 9:30:00 AM 5.74 42.332 0.121 7.36 2.64 12.45
11/4/2021 9:45:00 AM 5.77 42.386 0.121 7.37 2.53 12.48
11/4/2021 10:00:00 AM 5.81 42.458 0.121 7.38 2.47 12.51
11/4/2021 10:15:00 AM 5.84 42.512 0.121 7.38 2.44 12.53
11/4/2021 10:30:00 AM 5.89 42.602 0.121 7.38 2.37 12.53
11/4/2021 10:45:00 AM 5.95 42.71 0.121 7.39 2.46 12.54
11/4/2021 11:00:00 AM 6.02 42.836 0.121 7.39 2.47 12.54
11/4/2021 11:15:00 AM 6.09 42.962 0.121 7.39 2.47 12.55
11/4/2021 11:30:00 AM 6.16 43.088 0.121 7.4 2.49 12.55
11/4/2021 11:45:00 AM 6.24 43.232 0.121 7.4 2.55 12.55
11/4/2021 12:00:00 PM 6.33 43.394 0.122 7.41 2.75 12.53
11/4/2021 12:15:00 PM 6.41 43.538 0.122 7.42 2.52 12.53
11/4/2021 12:30:00 PM 6.49 43.682 0.122 7.42 2.5 12.5
11/4/2021 12:45:00 PM 6.57 43.826 0.122 7.42 2.42 12.48
11/4/2021 1:00:00 PM 6.67 44.006 0.122 7.43 2.39 12.46
11/4/2021 1:15:00 PM 6.75 44.15 0.122 7.43 2.47 12.43
11/4/2021 1:30:00 PM 6.82 44.276 0.122 7.44 2.43 12.42
11/4/2021 1:45:00 PM 6.9 44.42 0.122 7.44 2.43 12.41
11/4/2021 2:00:00 PM 6.97 44.546 0.122 7.44 2.43 12.39
11/4/2021 2:15:00 PM 7 44.6 0.123 7.44 2.32 12.35
11/4/2021 2:30:00 PM 7.03 44.654 0.123 7.43 2.35 12.31
11/4/2021 2:45:00 PM 7.07 44.726 0.123 7.44 2.3 12.28
11/4/2021 3:00:00 PM 7.08 44.744 0.123 7.44 2.28 12.26
11/4/2021 3:15:00 PM 7.1 44.78 0.123 7.43 2.31 12.24
11/4/2021 3:30:00 PM 7.12 44.816 0.123 7.43 2.46 12.2
11/4/2021 3:45:00 PM 7.14 44.852 0.123 7.43 2.39 12.18
11/4/2021 4:00:00 PM 7.16 44.888 0.124 7.43 2.5 12.17
11/4/2021 4:15:00 PM 7.15 44.87 0.124 7.43 2.28 12.14
11/4/2021 4:30:00 PM 7.15 44.87 0.124 7.42 2.47 12.13
11/4/2021 4:45:00 PM 7.15 44.87 0.124 7.43 2.33 12.12
11/4/2021 5:00:00 PM 7.15 44.87 0.124 7.42 2.27 12.1
11/4/2021 5:15:00 PM 7.16 44.888 0.124 7.41 2.48 12.09
11/4/2021 5:30:00 PM 7.17 44.906 0.124 7.41 2.25 12.06
11/4/2021 5:45:00 PM 7.17 44.906 0.124 7.41 2.31 12.04
11/4/2021 6:00:00 PM 7.16 44.888 0.124 7.41 2.22 12.02
11/4/2021 6:15:00 PM 7.14 44.852 0.124 7.4 2.3 11.98
11/4/2021 6:30:00 PM 7.12 44.816 0.124 7.4 2.46 11.96
11/4/2021 6:45:00 PM 7.1 44.78 0.124 7.39 2.24 11.94
11/4/2021 7:00:00 PM 7.08 44.744 0.124 7.38 2.23 11.94
11/4/2021 7:15:00 PM 7.06 44.708 0.124 7.38 2.51 11.92
11/4/2021 7:30:00 PM 7.03 44.654 0.124 7.39 2.52 11.92
11/4/2021 7:45:00 PM 7 44.6 0.124 7.38 2.46 11.92
11/4/2021 8:00:00 PM 6.97 44.546 0.125 7.38 2.51 11.92
11/4/2021 8:15:00 PM 6.93 44.474 0.125 7.38 2.6 11.92
11/4/2021 8:30:00 PM 6.9 44.42 0.125 7.37 2.54 11.93
11/4/2021 8:45:00 PM 6.86 44.348 0.125 7.37 2.58 11.94
11/4/2021 9:00:00 PM 6.82 44.276 0.125 7.37 2.85 11.94
11/4/2021 9:15:00 PM 6.79 44.222 0.125 7.37 2.79 11.94
11/4/2021 9:30:00 PM 6.75 44.15 0.125 7.37 2.77 11.95
11/4/2021 9:45:00 PM 6.72 44.096 0.125 7.37 2.84 11.96
11/4/2021 10:00:00 PM 6.68 44.024 0.126 7.37 2.73 11.97
11/4/2021 10:15:00 PM 6.64 43.952 0.126 7.36 2.59 11.98
11/4/2021 10:30:00 PM 6.61 43.898 0.126 7.37 2.67 11.99
11/4/2021 10:45:00 PM 6.57 43.826 0.126 7.25 2.72 12.01
11/4/2021 11:00:00 PM 6.53 43.754 0.126 7.38 2.66 12.02
11/4/2021 11:15:00 PM 6.5 43.7 0.126 7.37 2.8 12.03
11/4/2021 11:30:00 PM 6.46 43.628 0.126 7.37 2.73 12.04
11/4/2021 11:45:00 PM 6.42 43.556 0.126 7.37 2.69 12.05
11/5/2021 12:00:00 AM 6.38 43.484 0.126 7.36 2.65 12.06
11/5/2021 12:15:00 AM 6.35 43.43 0.127 7.37 2.67 12.07
11/5/2021 12:30:00 AM 6.31 43.358 0.127 7.37 2.5 12.09
11/5/2021 12:45:00 AM 6.27 43.286 0.127 7.37 2.83 12.1
11/5/2021 1:00:00 AM 6.23 43.214 0.127 7.37 3.01 12.1
11/5/2021 1:15:00 AM 6.19 43.142 0.127 7.36 2.95 12.12
11/5/2021 1:30:00 AM 6.15 43.07 0.127 7.37 2.71 12.13
11/5/2021 1:45:00 AM 6.11 42.998 0.127 7.37 2.78 12.14
11/5/2021 2:00:00 AM 6.07 42.926 0.127 7.36 2.68 12.14
11/5/2021 2:15:00 AM 6.03 42.854 0.127 7.37 2.74 12.16
11/5/2021 2:30:00 AM 5.99 42.782 0.127 7.37 2.71 12.18
11/5/2021 2:45:00 AM 5.95 42.71 0.128 7.37 2.9 12.19
11/5/2021 3:00:00 AM 5.91 42.638 0.128 7.36 2.88 12.21
11/5/2021 3:15:00 AM 5.88 42.584 0.128 7.37 2.66 12.22
11/5/2021 3:30:00 AM 5.84 42.512 0.128 7.36 2.75 12.23
11/5/2021 3:45:00 AM 5.81 42.458 0.128 7.37 2.88 12.25
11/5/2021 4:00:00 AM 5.79 42.422 0.128 7.36 2.96 12.26
11/5/2021 4:15:00 AM 5.76 42.368 0.128 7.37 2.78 12.26
11/5/2021 4:30:00 AM 5.73 42.314 0.128 7.37 2.76 12.28
11/5/2021 4:45:00 AM 5.71 42.278 0.128 7.37 2.71 12.29
11/5/2021 5:00:00 AM 5.68 42.224 0.128 7.37 2.8 12.3
11/5/2021 5:15:00 AM 5.65 42.17 0.128 7.37 2.9 12.31
11/5/2021 5:30:00 AM 5.61 42.098 0.128 7.37 2.61 12.32
11/5/2021 5:45:00 AM 5.58 42.044 0.129 7.37 2.69 12.33
11/5/2021 6:00:00 AM 5.54 41.972 0.129 7.36 2.7 12.34
11/5/2021 6:15:00 AM 5.5 41.9 0.129 7.37 2.63 12.35
11/5/2021 6:30:00 AM 5.46 41.828 0.129 7.37 2.91 12.36
11/5/2021 6:45:00 AM 5.42 41.756 0.129 7.37 2.81 12.37
11/5/2021 7:00:00 AM 5.38 41.684 0.129 7.36 2.58 12.39
11/5/2021 7:15:00 AM 5.34 41.612 0.129 7.37 2.7 12.4
11/5/2021 7:30:00 AM 5.31 41.558 0.129 7.37 2.79 12.42
11/5/2021 7:45:00 AM 5.27 41.486 0.129 7.37 2.53 12.45
11/5/2021 8:00:00 AM 5.23 41.414 0.129 7.38 2.74 12.45
11/5/2021 8:15:00 AM 5.2 41.36 0.129 7.37 2.78 12.49
11/5/2021 8:30:00 AM 5.17 41.306 0.129 7.38 2.86 12.51
11/5/2021 8:45:00 AM 5.14 41.252 0.129 7.38 2.65 12.53
11/5/2021 9:00:00 AM 5.12 41.216 0.129 7.39 2.56 12.57
11/5/2021 9:15:00 AM 5.11 41.198 0.13 7.39 2.49 12.61
11/5/2021 9:30:00 AM 5.11 41.198 0.13 7.38 2.31 12.63
11/5/2021 9:45:00 AM 5.1 41.18 0.13 7.39 2.42 12.66
11/5/2021 10:00:00 AM 5.12 41.216 0.13 7.4 2.46 12.69
11/5/2021 10:15:00 AM 5.14 41.252 0.13 7.4 2.38 12.72
11/5/2021 10:30:00 AM 5.19 41.342 0.13 7.4 2.21 12.72
11/5/2021 10:45:00 AM 5.25 41.45 0.13 7.4 2.35 12.73
11/5/2021 11:00:00 AM 5.34 41.612 0.13 7.4 2.25 12.75
11/5/2021 11:15:00 AM 5.44 41.792 0.13 7.41 2.31 12.74
11/5/2021 11:30:00 AM 5.56 42.008 0.13 7.42 2.33 12.74
11/5/2021 11:45:00 AM 5.66 42.188 0.13 7.42 2.26 12.73
11/5/2021 12:00:00 PM 5.83 42.494 0.13 7.43 2.18 12.72
11/5/2021 12:15:00 PM 5.99 42.782 0.13 7.44 2.14 12.69
11/5/2021 12:30:00 PM 6.12 43.016 0.13 7.45 2.2 12.66
11/5/2021 12:45:00 PM 6.24 43.232 0.13 7.45 2.16 12.63
11/5/2021 1:00:00 PM 6.42 43.556 0.13 7.45 2.05 12.61
11/5/2021 1:15:00 PM 6.6 43.88 0.13 7.46 2.12 12.57
11/5/2021 1:30:00 PM 6.75 44.15 0.13 7.47 2.01 12.54
11/5/2021 1:45:00 PM 6.84 44.312 0.13 7.47 2.08 12.51
11/5/2021 2:00:00 PM 6.86 44.348 0.13 7.47 2.09 12.47
11/5/2021 2:15:00 PM 6.93 44.474 0.13 7.48 2.01 12.44
11/5/2021 2:30:00 PM 6.94 44.492 0.131 7.48 2.11 12.42
11/5/2021 2:45:00 PM 6.93 44.474 0.131 7.47 2.11 12.41
11/5/2021 3:00:00 PM 6.91 44.438 0.131 7.47 2.05 12.41
11/5/2021 3:15:00 PM 6.88 44.384 0.131 7.47 1.97 12.39
11/5/2021 3:30:00 PM 6.88 44.384 0.131 7.47 2.08 12.39
11/5/2021 3:45:00 PM 6.87 44.366 0.131 7.47 2 12.37
11/5/2021 4:00:00 PM 6.88 44.384 0.131 7.47 2.04 12.36
11/5/2021 4:15:00 PM 6.89 44.402 0.131 7.47 2.03 12.35
11/5/2021 4:30:00 PM 6.9 44.42 0.132 7.47 2.05 12.33
11/5/2021 4:45:00 PM 6.91 44.438 0.132 7.47 2.09 12.31
11/5/2021 5:00:00 PM 6.92 44.456 0.132 7.47 2.1 12.28
11/5/2021 5:15:00 PM 6.93 44.474 0.132 7.46 2.11 12.25
11/5/2021 5:30:00 PM 6.91 44.438 0.132 7.46 2.14 12.21
11/5/2021 5:45:00 PM 6.89 44.402 0.132 7.45 2.16 12.18
11/5/2021 6:00:00 PM 6.85 44.33 0.132 7.44 2.19 12.15
11/5/2021 6:15:00 PM 6.81 44.258 0.132 7.43 2.25 12.12
11/5/2021 6:30:00 PM 6.77 44.186 0.132 7.43 2.17 12.1
11/5/2021 6:45:00 PM 6.73 44.114 0.132 7.42 2.35 12.08
11/5/2021 7:00:00 PM 6.69 44.042 0.132 7.42 2.51 12.07
11/5/2021 7:15:00 PM 6.65 43.97 0.132 7.41 2.42 12.07
11/5/2021 7:30:00 PM 6.62 43.916 0.132 7.41 2.43 12.07
11/5/2021 7:45:00 PM 6.58 43.844 0.132 7.41 2.4 12.07
11/5/2021 8:00:00 PM 6.55 43.79 0.132 7.4 2.48 12.07
11/5/2021 8:15:00 PM 6.51 43.718 0.132 7.4 2.43 12.08
11/5/2021 8:30:00 PM 6.47 43.646 0.132 7.4 2.41 12.09
11/5/2021 8:45:00 PM 6.44 43.592 0.132 7.4 2.52 12.1
11/5/2021 9:00:00 PM 6.4 43.52 0.132 7.4 2.32 12.1
11/5/2021 9:15:00 PM 6.37 43.466 0.132 7.4 2.58 12.11
11/5/2021 9:30:00 PM 6.34 43.412 0.132 7.4 2.5 12.12
11/5/2021 9:45:00 PM 6.31 43.358 0.133 7.39 2.4 12.13
11/5/2021 10:00:00 PM 6.29 43.322 0.133 7.4 2.44 12.13
11/5/2021 10:15:00 PM 6.27 43.286 0.133 7.4 2.53 12.12
11/5/2021 10:30:00 PM 6.24 43.232 0.133 7.4 2.64 12.14
11/5/2021 10:45:00 PM 6.21 43.178 0.133 7.4 2.53 12.14
11/5/2021 11:00:00 PM 6.19 43.142 0.133 7.39 2.41 12.14
11/5/2021 11:15:00 PM 6.16 43.088 0.133 7.4 2.35 12.15
11/5/2021 11:30:00 PM 6.13 43.034 0.134 7.4 2.29 12.15
11/5/2021 11:45:00 PM 6.1 42.98 0.134 7.4 2.42 12.16
11/6/2021 12:00:00 AM 6.07 42.926 0.134 7.39 2.47 12.17
11/6/2021 12:15:00 AM 6.03 42.854 0.134 7.39 2.51 12.18
11/6/2021 12:30:00 AM 6 42.8 0.134 7.39 2.66 12.19
11/6/2021 12:45:00 AM 5.97 42.746 0.134 7.39 2.66 12.21
11/6/2021 1:00:00 AM 5.94 42.692 0.134 7.39 2.6 12.22
11/6/2021 1:15:00 AM 5.9 42.62 0.134 7.4 2.61 12.23
11/6/2021 1:30:00 AM 5.87 42.566 0.134 7.4 2.69 12.24
11/6/2021 1:45:00 AM 5.83 42.494 0.134 7.4 2.59 12.25
11/6/2021 2:00:00 AM 5.8 42.44 0.134 7.39 2.8 12.26
11/6/2021 2:15:00 AM 5.76 42.368 0.134 7.39 2.67 12.28
11/6/2021 2:30:00 AM 5.72 42.296 0.135 7.39 2.58 12.29
11/6/2021 2:45:00 AM 5.68 42.224 0.135 7.4 2.55 12.3
11/6/2021 3:00:00 AM 5.65 42.17 0.135 7.4 2.46 12.31
11/6/2021 3:15:00 AM 5.61 42.098 0.135 7.39 2.46 12.32
11/6/2021 3:30:00 AM 5.57 42.026 0.135 7.4 2.55 12.34
11/6/2021 3:45:00 AM 5.53 41.954 0.135 7.39 2.55 12.35
11/6/2021 4:00:00 AM 5.49 41.882 0.135 7.39 2.48 12.35
11/6/2021 4:15:00 AM 5.46 41.828 0.135 7.39 2.43 12.36
11/6/2021 4:30:00 AM 5.42 41.756 0.135 7.4 2.35 12.37
11/6/2021 4:45:00 AM 5.38 41.684 0.135 7.39 2.28 12.39
11/6/2021 5:00:00 AM 5.34 41.612 0.135 7.39 2.26 12.41
11/6/2021 5:15:00 AM 5.3 41.54 0.136 7.4 2.25 12.42
11/6/2021 5:30:00 AM 5.26 41.468 0.136 7.4 2.38 12.44
11/6/2021 5:45:00 AM 5.22 41.396 0.136 7.4 2.2 12.46
11/6/2021 6:00:00 AM 5.18 41.324 0.136 7.4 2.15 12.46
11/6/2021 6:15:00 AM 5.14 41.252 0.136 7.39 2.21 12.48
11/6/2021 6:30:00 AM 5.1 41.18 0.136 7.38 2.3 12.51
11/6/2021 6:45:00 AM 5.05 41.09 0.136 7.38 2.22 12.52
11/6/2021 7:00:00 AM 5.01 41.018 0.136 7.38 2.43 12.53
11/6/2021 7:15:00 AM 4.97 40.946 0.136 7.38 2.4 12.55
11/6/2021 7:30:00 AM 4.93 40.874 0.136 7.37 2.62 12.57
11/6/2021 7:45:00 AM 4.89 40.802 0.136 7.37 2.55 12.57
11/6/2021 8:00:00 AM 4.85 40.73 0.136 7.38 2.54 12.59
11/6/2021 8:15:00 AM 4.82 40.676 0.136 7.38 2.46 12.6
11/6/2021 8:30:00 AM 4.78 40.604 0.136 7.37 2.28 12.63
11/6/2021 8:45:00 AM 4.76 40.568 0.136 7.38 2.36 12.67
11/6/2021 9:00:00 AM 4.74 40.532 0.136 7.38 2.31 12.71
11/6/2021 9:15:00 AM 4.73 40.514 0.136 7.39 2.22 12.74
11/6/2021 9:30:00 AM 4.73 40.514 0.136 7.4 2.14 12.77
11/6/2021 9:45:00 AM 4.73 40.514 0.136 7.4 2.03 12.8
11/6/2021 10:00:00 AM 4.74 40.532 0.136 7.41 1.99 12.83
11/6/2021 10:15:00 AM 4.77 40.586 0.136 7.41 2.06 12.86
11/6/2021 10:30:00 AM 4.81 40.658 0.136 7.42 1.92 12.87
11/6/2021 10:45:00 AM 4.88 40.784 0.136 7.43 1.93 12.9
11/6/2021 11:00:00 AM 4.96 40.928 0.136 7.44 1.92 12.91
11/6/2021 11:15:00 AM 5.07 41.126 0.136 7.45 1.87 12.92
11/6/2021 11:30:00 AM 5.18 41.324 0.136 7.46 1.86 12.91
11/6/2021 11:45:00 AM 5.32 41.576 0.136 7.46 1.82 12.89
11/6/2021 12:00:00 PM 5.47 41.846 0.136 7.47 1.76 12.87
11/6/2021 12:15:00 PM 5.64 42.152 0.136 7.48 1.9 12.86
11/6/2021 12:30:00 PM 5.82 42.476 0.136 7.48 1.86 12.83
11/6/2021 12:45:00 PM 6.01 42.818 0.136 7.49 1.79 12.78
11/6/2021 1:00:00 PM 6.2 43.16 0.136 7.5 1.81 12.75
11/6/2021 1:15:00 PM 6.39 43.502 0.136 7.5 1.88 12.71
11/6/2021 1:30:00 PM 6.56 43.808 0.136 7.51 1.89 12.67
11/6/2021 1:45:00 PM 6.7 44.06 0.136 7.51 1.76 12.62
11/6/2021 2:00:00 PM 6.81 44.258 0.136 7.51 1.92 12.59
11/6/2021 2:15:00 PM 6.9 44.42 0.137 7.52 1.9 12.56
11/6/2021 2:30:00 PM 6.96 44.528 0.137 7.51 1.89 12.53
11/6/2021 2:45:00 PM 6.99 44.582 0.137 7.52 1.91 12.5
11/6/2021 3:00:00 PM 6.99 44.582 0.137 7.52 1.74 12.47
11/6/2021 3:15:00 PM 6.96 44.528 0.137 7.52 1.81 12.44
11/6/2021 3:30:00 PM 6.93 44.474 0.137 7.52 1.75 12.42
11/6/2021 3:45:00 PM 6.89 44.402 0.138 7.52 1.89 12.39
11/6/2021 4:00:00 PM 6.84 44.312 0.138 7.52 1.92 12.36
11/6/2021 4:15:00 PM 6.79 44.222 0.138 7.51 1.8 12.34
11/6/2021 4:30:00 PM 6.74 44.132 0.138 7.51 1.9 12.31
11/6/2021 4:45:00 PM 6.68 44.024 0.138 7.5 2.03 12.29
11/6/2021 5:00:00 PM 6.63 43.934 0.138 7.5 1.86 12.28
11/6/2021 5:15:00 PM 6.57 43.826 0.139 7.48 1.88 12.26
11/6/2021 5:30:00 PM 6.51 43.718 0.139 7.48 1.91 12.25
11/6/2021 5:45:00 PM 6.45 43.61 0.139 7.47 1.9 12.24
11/6/2021 6:00:00 PM 6.4 43.52 0.139 7.47 1.96 12.23
11/6/2021 6:15:00 PM 6.34 43.412 0.139 7.46 2.02 12.21
11/6/2021 6:30:00 PM 6.29 43.322 0.14 7.46 1.99 12.2
11/6/2021 6:45:00 PM 6.23 43.214 0.14 7.45 1.96 12.19
11/6/2021 7:00:00 PM 6.18 43.124 0.14 7.45 1.95 12.19
11/6/2021 7:15:00 PM 6.13 43.034 0.14 7.45 2.2 12.18
11/6/2021 7:30:00 PM 6.08 42.944 0.14 7.44 2.01 12.18
11/6/2021 7:45:00 PM 6.03 42.854 0.14 7.44 2.14 12.19
11/6/2021 8:00:00 PM 5.99 42.782 0.14 7.44 2.05 12.19
11/6/2021 8:15:00 PM 5.94 42.692 0.14 7.42 2.18 12.2
11/6/2021 8:30:00 PM 5.9 42.62 0.14 7.42 2.12 12.22
11/6/2021 8:45:00 PM 5.86 42.548 0.14 7.42 2.17 12.22
11/6/2021 9:00:00 PM 5.82 42.476 0.14 7.41 2.14 12.23
11/6/2021 9:15:00 PM 5.79 42.422 0.14 7.42 2.17 12.24
11/6/2021 9:30:00 PM 5.76 42.368 0.14 7.42 2.06 12.25
11/6/2021 9:45:00 PM 5.73 42.314 0.14 7.42 2.12 12.26
11/6/2021 10:00:00 PM 5.69 42.242 0.14 7.42 2.06 12.26
11/6/2021 10:15:00 PM 5.67 42.206 0.14 7.41 2.23 12.26
11/6/2021 10:30:00 PM 5.65 42.17 0.14 7.41 2.21 12.27
11/6/2021 10:45:00 PM 5.63 42.134 0.14 7.42 2.2 12.27
11/6/2021 11:00:00 PM 5.61 42.098 0.14 7.42 2.22 12.27
11/6/2021 11:15:00 PM 5.59 42.062 0.14 7.42 2.11 12.28
11/6/2021 11:30:00 PM 5.58 42.044 0.14 7.41 2.27 12.29
11/6/2021 11:45:00 PM 5.56 42.008 0.14 7.42 2.21 12.29
11/7/2021 12:00:00 AM 5.54 41.972 0.14 7.42 2.55 12.29
11/7/2021 12:15:00 AM 5.52 41.936 0.141 7.42 2.24 12.28
11/7/2021 12:30:00 AM 5.51 41.918 0.141 7.42 2.33 12.28
11/7/2021 12:45:00 AM 5.49 41.882 0.141 7.42 2.31 12.29
11/7/2021 1:00:00 AM 5.46 41.828 0.141 7.42 2.33 12.29
11/7/2021 1:15:00 AM 5.44 41.792 0.141 7.43 2.35 12.29
11/7/2021 1:30:00 AM 5.42 41.756 0.141 7.42 2.47 12.3
11/7/2021 1:45:00 AM 5.4 41.72 0.141 7.42 2.25 12.3
11/7/2021 2:00:00 AM 5.37 41.666 0.141 7.43 2.14 12.32
11/7/2021 2:15:00 AM 5.35 41.63 0.141 7.42 2.21 12.33
11/7/2021 2:30:00 AM 5.32 41.576 0.141 7.42 2.09 12.33
11/7/2021 2:45:00 AM 5.29 41.522 0.141 7.42 2.15 12.35
11/7/2021 3:00:00 AM 5.26 41.468 0.142 7.42 2.24 12.36
11/7/2021 3:15:00 AM 5.23 41.414 0.142 7.42 2.27 12.37
11/7/2021 3:30:00 AM 5.2 41.36 0.142 7.42 2.1 12.38
11/7/2021 3:45:00 AM 5.16 41.288 0.142 7.42 2.24 12.39
11/7/2021 4:00:00 AM 5.13 41.234 0.142 7.42 2.23 12.4
11/7/2021 4:15:00 AM 5.1 41.18 0.142 7.42 2.25 12.4
11/7/2021 4:30:00 AM 5.06 41.108 0.142 7.41 2.28 12.42
11/7/2021 4:45:00 AM 5.03 41.054 0.142 7.41 2.24 12.43
11/7/2021 5:00:00 AM 5 41 0.142 7.41 2.46 12.44
11/7/2021 5:15:00 AM 4.97 40.946 0.142 7.41 2.19 12.45
11/7/2021 5:30:00 AM 4.94 40.892 0.142 7.41 2.45 12.46
11/7/2021 5:45:00 AM 4.9 40.82 0.142 7.42 2.35 12.47
11/7/2021 6:00:00 AM 4.87 40.766 0.142 7.4 2.3 12.48
11/7/2021 6:15:00 AM 4.83 40.694 0.142 7.41 3.17 12.49
11/7/2021 6:30:00 AM 4.8 40.64 0.143 7.41 2.26 12.49
11/7/2021 6:45:00 AM 4.77 40.586 0.143 7.4 2.1 12.51
11/7/2021 7:00:00 AM 4.73 40.514 0.143 7.41 2.4 12.52
11/7/2021 7:15:00 AM 4.7 40.46 0.143 7.41 2.45 12.53
11/7/2021 7:30:00 AM 4.67 40.406 0.143 7.42 2.12 12.55
11/7/2021 7:45:00 AM 4.64 40.352 0.143 7.42 2.23 12.57
11/7/2021 8:00:00 AM 4.61 40.298 0.143 7.42 2.13 12.58
11/7/2021 8:15:00 AM 4.58 40.244 0.143 7.42 2 12.61
11/7/2021 8:30:00 AM 4.55 40.19 0.143 7.43 2 12.63
11/7/2021 8:45:00 AM 4.53 40.154 0.143 7.43 1.84 12.66
11/7/2021 9:00:00 AM 4.52 40.136 0.143 7.43 1.72 12.71
11/7/2021 9:15:00 AM 4.52 40.136 0.143 7.44 1.8 12.75
11/7/2021 9:30:00 AM 4.52 40.136 0.143 7.44 1.88 12.77
11/7/2021 9:45:00 AM 4.53 40.154 0.143 7.44 1.9 12.8
11/7/2021 10:00:00 AM 4.55 40.19 0.143 7.45 1.73 12.84
11/7/2021 10:15:00 AM 4.58 40.244 0.143 7.45 1.77 12.86
11/7/2021 10:30:00 AM 4.63 40.334 0.143 7.46 1.66 12.88
11/7/2021 10:45:00 AM 4.69 40.442 0.143 7.47 1.79 12.9
11/7/2021 11:00:00 AM 4.78 40.604 0.143 7.48 1.68 12.91
11/7/2021 11:15:00 AM 4.88 40.784 0.143 7.49 1.67 12.92
11/7/2021 11:30:00 AM 5.01 41.018 0.143 7.5 1.73 12.93
11/7/2021 11:45:00 AM 5.15 41.27 0.143 7.5 1.77 12.92
11/7/2021 12:00:00 PM 5.31 41.558 0.143 7.5 1.79 12.9
11/7/2021 12:15:00 PM 5.49 41.882 0.143 7.52 1.72 12.88
11/7/2021 12:30:00 PM 5.69 42.242 0.143 7.52 1.68 12.86
11/7/2021 12:45:00 PM 5.9 42.62 0.143 7.53 1.68 12.81
11/7/2021 1:00:00 PM 6.12 43.016 0.143 7.53 1.66 12.76
11/7/2021 1:15:00 PM 6.34 43.412 0.143 7.54 1.62 12.72
11/7/2021 1:30:00 PM 6.54 43.772 0.143 7.54 1.66 12.68
11/7/2021 1:45:00 PM 6.71 44.078 0.143 7.54 1.68 12.63
11/7/2021 2:00:00 PM 6.85 44.33 0.143 7.55 1.58 12.59
11/7/2021 2:15:00 PM 6.97 44.546 0.143 7.54 2 12.56
11/7/2021 2:30:00 PM 7.06 44.708 0.144 7.55 1.61 12.51
11/7/2021 2:45:00 PM 7.12 44.816 0.144 7.55 1.79 12.47
11/7/2021 3:00:00 PM 7.14 44.852 0.144 7.55 1.75 12.43
11/7/2021 3:15:00 PM 7.14 44.852 0.144 7.55 1.75 12.4
11/7/2021 3:30:00 PM 7.13 44.834 0.144 7.55 1.67 12.37
11/7/2021 3:45:00 PM 7.1 44.78 0.144 7.54 1.77 12.33
11/7/2021 4:00:00 PM 7.06 44.708 0.144 7.54 2.05 12.3
11/7/2021 4:15:00 PM 7.02 44.636 0.144 7.54 1.91 12.27
11/7/2021 4:30:00 PM 6.98 44.564 0.144 7.53 1.75 12.23
11/7/2021 4:45:00 PM 6.94 44.492 0.144 7.53 1.73 12.21
11/7/2021 5:00:00 PM 6.89 44.402 0.145 7.52 1.8 12.18
11/7/2021 5:15:00 PM 6.83 44.294 0.145 7.51 1.78 12.16
11/7/2021 5:30:00 PM 6.78 44.204 0.145 7.51 1.7 12.13
11/7/2021 5:45:00 PM 6.73 44.114 0.145 7.5 1.72 12.11
11/7/2021 6:00:00 PM 6.67 44.006 0.145 7.49 1.76 12.09
11/7/2021 6:15:00 PM 6.61 43.898 0.145 7.49 1.78 12.08
11/7/2021 6:30:00 PM 6.56 43.808 0.145 7.48 1.77 12.07
11/7/2021 6:45:00 PM 6.51 43.718 0.145 7.47 1.93 12.06
11/7/2021 7:00:00 PM 6.47 43.646 0.146 7.47 2.31 12.05
11/7/2021 7:15:00 PM 6.42 43.556 0.146 7.46 1.99 12.05
11/7/2021 7:30:00 PM 6.37 43.466 0.146 7.46 1.94 12.05
11/7/2021 7:45:00 PM 6.33 43.394 0.146 7.45 2.08 12.05
11/7/2021 8:00:00 PM 6.29 43.322 0.146 7.45 1.99 12.05
11/7/2021 8:15:00 PM 6.25 43.25 0.146 7.45 2.07 12.06
11/7/2021 8:30:00 PM 6.2 43.16 0.146 7.44 2.29 12.06
11/7/2021 8:45:00 PM 6.16 43.088 0.147 7.44 2.22 12.07
11/7/2021 9:00:00 PM 6.11 42.998 0.147 7.44 2.39 12.07
11/7/2021 9:15:00 PM 6.07 42.926 0.147 7.43 2.43 12.07
11/7/2021 9:30:00 PM 6.03 42.854 0.147 7.43 2.39 12.08
11/7/2021 9:45:00 PM 6 42.8 0.148 7.43 2.28 12.09
11/7/2021 10:00:00 PM 5.97 42.746 0.148 7.43 2.25 12.1
11/7/2021 10:15:00 PM 5.95 42.71 0.148 7.43 2.35 12.1
11/7/2021 10:30:00 PM 5.93 42.674 0.148 7.43 2.35 12.11
11/7/2021 10:45:00 PM 5.91 42.638 0.148 7.43 2.22 12.11
11/7/2021 11:00:00 PM 5.89 42.602 0.148 7.43 2.15 12.13
11/7/2021 11:15:00 PM 5.88 42.584 0.148 7.43 2.2 12.13
11/7/2021 11:30:00 PM 5.87 42.566 0.148 7.43 2.2 12.13
11/7/2021 11:45:00 PM 5.86 42.548 0.148 7.43 2.2 12.14
11/8/2021 12:00:00 AM 5.85 42.53 0.148 7.43 2.21 12.14
11/8/2021 12:15:00 AM 5.85 42.53 0.148 7.43 2.13 12.14
11/8/2021 12:30:00 AM 5.84 42.512 0.148 7.43 2.22 12.13
11/8/2021 12:45:00 AM 5.83 42.494 0.148 7.43 2.15 12.14
11/8/2021 1:00:00 AM 5.82 42.476 0.148 7.43 2.11 12.13
11/8/2021 1:15:00 AM 5.81 42.458 0.148 7.44 2.18 12.15
11/8/2021 1:30:00 AM 5.8 42.44 0.148 7.43 2.15 12.15
11/8/2021 1:45:00 AM 5.79 42.422 0.148 7.43 2.16 12.15
11/8/2021 2:00:00 AM 5.78 42.404 0.148 7.43 2.01 12.15
11/8/2021 2:15:00 AM 5.77 42.386 0.149 7.44 2.17 12.16
11/8/2021 2:30:00 AM 5.75 42.35 0.149 7.43 2.1 12.16
11/8/2021 2:45:00 AM 5.74 42.332 0.149 7.43 2.06 12.16
11/8/2021 3:00:00 AM 5.72 42.296 0.149 7.43 2.15 12.17
11/8/2021 3:15:00 AM 5.7 42.26 0.149 7.43 2.13 12.18
11/8/2021 3:30:00 AM 5.68 42.224 0.149 7.44 2.21 12.19
11/8/2021 3:45:00 AM 5.66 42.188 0.149 7.43 2.1 12.19
11/8/2021 4:00:00 AM 5.64 42.152 0.149 7.43 2.08 12.19
11/8/2021 4:15:00 AM 5.62 42.116 0.149 7.43 2.12 12.2
11/8/2021 4:30:00 AM 5.6 42.08 0.149 7.43 2.46 12.2
11/8/2021 4:45:00 AM 5.57 42.026 0.149 7.43 2.36 12.21
11/8/2021 5:00:00 AM 5.55 41.99 0.149 7.43 2 12.22
11/8/2021 5:15:00 AM 5.52 41.936 0.149 7.43 4.82 12.23
11/8/2021 5:30:00 AM 5.5 41.9 0.149 7.43 2.64 12.24
11/8/2021 5:45:00 AM 5.48 41.864 0.149 7.43 2.21 12.24
11/8/2021 6:00:00 AM 5.45 41.81 0.149 7.43 2.12 12.25
11/8/2021 6:15:00 AM 5.43 41.774 0.149 7.43 2.1 12.25
11/8/2021 6:30:00 AM 5.41 41.738 0.149 7.43 2.08 12.26
11/8/2021 6:45:00 AM 5.38 41.684 0.149 7.43 2.11 12.27
11/8/2021 7:00:00 AM 5.36 41.648 0.149 7.43 1.91 12.28
11/8/2021 7:15:00 AM 5.33 41.594 0.149 7.43 1.95 12.29
11/8/2021 7:30:00 AM 5.31 41.558 0.149 7.43 1.9 12.3
11/8/2021 7:45:00 AM 5.28 41.504 0.149 7.43 1.85 12.31
11/8/2021 8:00:00 AM 5.26 41.468 0.15 7.43 1.9 12.32
11/8/2021 8:15:00 AM 5.24 41.432 0.15 7.43 1.84 12.36
11/8/2021 8:30:00 AM 5.22 41.396 0.15 7.43 2.04 12.38
11/8/2021 8:45:00 AM 5.2 41.36 0.15 7.43 2.09 12.42
11/8/2021 9:00:00 AM 5.2 41.36 0.15 7.43 1.99 12.46
11/8/2021 9:15:00 AM 5.2 41.36 0.15 7.44 1.95 12.52
11/8/2021 9:30:00 AM 5.21 41.378 0.15 7.45 1.81 12.54
11/8/2021 9:45:00 AM 5.23 41.414 0.15 7.45 1.8 12.59
11/8/2021 10:00:00 AM 5.25 41.45 0.15 7.46 1.79 12.63
11/8/2021 10:15:00 AM 5.28 41.504 0.15 7.47 1.72 12.66
11/8/2021 10:30:00 AM 5.33 41.594 0.15 7.47 1.85 12.68
11/8/2021 10:45:00 AM 5.41 41.738 0.15 7.48 1.72 12.69
11/8/2021 11:00:00 AM 5.49 41.882 0.15 7.49 1.63 12.73
11/8/2021 11:15:00 AM 5.59 42.062 0.149 7.5 2.11 12.74
11/8/2021 11:30:00 AM 5.72 42.296 0.149 7.51 1.7 12.75
11/8/2021 11:45:00 AM 5.86 42.548 0.149 7.52 1.7 12.75
11/8/2021 12:00:00 PM 6.03 42.854 0.149 7.53 1.78 12.72
11/8/2021 12:15:00 PM 6.21 43.178 0.149 7.54 1.63 12.71
11/8/2021 12:30:00 PM 6.42 43.556 0.149 7.54 1.68 12.7
11/8/2021 12:45:00 PM 6.65 43.97 0.149 7.55 1.62 12.65
11/8/2021 1:00:00 PM 6.9 44.42 0.149 7.55 1.59 12.61
11/8/2021 1:15:00 PM 7.14 44.852 0.149 7.56 1.54 12.57
11/8/2021 1:30:00 PM 7.37 45.266 0.149 7.57 1.66 12.51
11/8/2021 1:45:00 PM 7.56 45.608 0.149 7.57 1.75 12.47
11/8/2021 2:00:00 PM 7.74 45.932 0.149 7.58 1.64 12.43
11/8/2021 2:15:00 PM 7.87 46.166 0.149 7.58 1.65 12.38
11/8/2021 2:30:00 PM 7.98 46.364 0.149 7.58 3.2 12.31
11/8/2021 2:45:00 PM 8.05 46.49 0.149 7.59 1.61 12.27
11/8/2021 3:00:00 PM 8.08 46.544 0.15 7.59 1.65 12.23
11/8/2021 3:15:00 PM 8.1 46.58 0.15 7.59 1.72 12.19
11/8/2021 3:30:00 PM 8.08 46.544 0.15 7.59 1.63 12.16
11/8/2021 3:45:00 PM 8.06 46.508 0.15 7.58 1.7 12.12
11/8/2021 4:00:00 PM 8.03 46.454 0.15 7.57 1.81 12.06
11/8/2021 4:15:00 PM 7.99 46.382 0.151 7.57 1.59 12.02
11/8/2021 4:30:00 PM 7.94 46.292 0.151 7.56 1.74 12
11/8/2021 4:45:00 PM 7.89 46.202 0.151 7.55 1.76 11.96
11/8/2021 5:00:00 PM 7.84 46.112 0.151 7.55 1.71 11.94
11/8/2021 5:15:00 PM 7.78 46.004 0.152 7.54 1.67 11.92
11/8/2021 5:30:00 PM 7.73 45.914 0.152 7.53 1.74 11.89
11/8/2021 5:45:00 PM 7.68 45.824 0.152 7.52 1.62 11.86
11/8/2021 6:00:00 PM 7.63 45.734 0.152 7.51 1.72 11.82
11/8/2021 6:15:00 PM 7.58 45.644 0.153 7.5 1.72 11.8
11/8/2021 6:30:00 PM 7.55 45.59 0.153 7.49 1.74 11.77
11/8/2021 6:45:00 PM 7.5 45.5 0.153 7.48 1.84 11.76
11/8/2021 7:00:00 PM 7.46 45.428 0.154 7.48 1.75 11.75
11/8/2021 7:15:00 PM 7.42 45.356 0.154 7.47 1.86 11.72
11/8/2021 7:30:00 PM 7.37 45.266 0.154 7.47 1.82 11.73
11/8/2021 7:45:00 PM 7.33 45.194 0.154 7.46 1.9 11.72
11/8/2021 8:00:00 PM 7.29 45.122 0.154 7.46 1.93 11.72
11/8/2021 8:15:00 PM 7.25 45.05 0.155 7.45 1.96 11.73
11/8/2021 8:30:00 PM 7.22 44.996 0.155 7.45 1.91 11.72
11/8/2021 8:45:00 PM 7.17 44.906 0.155 7.44 1.9 11.73
11/8/2021 9:00:00 PM 7.13 44.834 0.155 7.45 1.96 11.75
11/8/2021 9:15:00 PM 7.09 44.762 0.155 7.44 1.95 11.75
11/8/2021 9:30:00 PM 7.06 44.708 0.155 7.44 1.94 11.76
11/8/2021 9:45:00 PM 7.02 44.636 0.155 7.43 1.92 11.76
11/8/2021 10:00:00 PM 7 44.6 0.155 7.44 2.03 11.78
11/8/2021 10:15:00 PM 6.96 44.528 0.155 7.44 2.03 11.78
11/8/2021 10:30:00 PM 6.94 44.492 0.155 7.43 2.09 11.78
11/8/2021 10:45:00 PM 6.91 44.438 0.155 7.44 1.96 11.79
11/8/2021 11:00:00 PM 6.89 44.402 0.155 7.43 2.06 11.8
11/8/2021 11:15:00 PM 6.87 44.366 0.155 7.43 2.05 11.8
11/8/2021 11:30:00 PM 6.85 44.33 0.155 7.44 1.99 11.81
11/8/2021 11:45:00 PM 6.84 44.312 0.155 7.43 1.91 11.81
11/9/2021 12:00:00 AM 6.82 44.276 0.155 7.43 1.9 11.8
11/9/2021 12:15:00 AM 6.81 44.258 0.155 7.43 1.93 11.8
11/9/2021 12:30:00 AM 6.8 44.24 0.155 7.43 1.91 11.8
11/9/2021 12:45:00 AM 6.79 44.222 0.155 7.43 1.98 11.81
11/9/2021 1:00:00 AM 6.78 44.204 0.155 7.43 2 11.8
11/9/2021 1:15:00 AM 6.77 44.186 0.155 7.43 2 11.8
11/9/2021 1:30:00 AM 6.76 44.168 0.155 7.42 1.91 11.8
11/9/2021 1:45:00 AM 6.74 44.132 0.155 7.43 1.96 11.81
11/9/2021 2:00:00 AM 6.73 44.114 0.155 7.43 2 11.8
11/9/2021 2:15:00 AM 6.72 44.096 0.155 7.43 2.03 11.81
11/9/2021 2:30:00 AM 6.71 44.078 0.155 7.43 1.95 11.81
11/9/2021 2:45:00 AM 6.69 44.042 0.155 7.43 1.96 11.82
11/9/2021 3:00:00 AM 6.67 44.006 0.155 7.43 2.14 11.82
11/9/2021 3:15:00 AM 6.65 43.97 0.155 7.43 1.95 11.82
11/9/2021 3:30:00 AM 6.64 43.952 0.155 7.43 2.26 11.83
11/9/2021 3:45:00 AM 6.62 43.916 0.156 7.43 2.07 11.83
11/9/2021 4:00:00 AM 6.6 43.88 0.156 7.43 1.97 11.85
11/9/2021 4:15:00 AM 6.58 43.844 0.156 7.43 1.97 11.85
11/9/2021 4:30:00 AM 6.56 43.808 0.156 7.43 2.13 11.86
11/9/2021 4:45:00 AM 6.53 43.754 0.156 7.43 2.02 11.88
11/9/2021 5:00:00 AM 6.51 43.718 0.156 7.43 1.99 11.87
11/9/2021 5:15:00 AM 6.48 43.664 0.156 7.43 2.07 11.89
11/9/2021 5:30:00 AM 6.46 43.628 0.156 7.43 1.94 11.89
11/9/2021 5:45:00 AM 6.43 43.574 0.156 7.43 2.03 11.91
11/9/2021 6:00:00 AM 6.41 43.538 0.156 7.43 2.08 11.92
11/9/2021 6:15:00 AM 6.38 43.484 0.156 7.43 1.97 11.92
11/9/2021 6:30:00 AM 6.36 43.448 0.156 7.43 1.94 11.93
11/9/2021 6:45:00 AM 6.33 43.394 0.156 7.43 1.84 11.94
11/9/2021 7:00:00 AM 6.31 43.358 0.156 7.43 1.92 11.95
11/9/2021 7:15:00 AM 6.28 43.304 0.156 7.43 2.01 11.97
11/9/2021 7:30:00 AM 6.26 43.268 0.156 7.43 2.04 11.97
11/9/2021 7:45:00 AM 6.23 43.214 0.157 7.43 1.86 11.97
11/9/2021 8:00:00 AM 6.21 43.178 0.157 7.43 1.91 11.99
11/9/2021 8:15:00 AM 6.19 43.142 0.157 7.43 1.9 12.01
11/9/2021 8:30:00 AM 6.18 43.124 0.157 7.44 1.87 12.05
11/9/2021 8:45:00 AM 6.17 43.106 0.157 7.44 1.95 12.09
11/9/2021 9:00:00 AM 6.17 43.106 0.157 7.45 1.85 12.13
11/9/2021 9:15:00 AM 6.17 43.106 0.157 7.46 1.78 12.19
11/9/2021 9:30:00 AM 6.19 43.142 0.157 7.46 1.8 12.24
11/9/2021 9:45:00 AM 6.21 43.178 0.157 7.48 2.36 12.3
11/9/2021 10:00:00 AM 6.25 43.25 0.157 7.48 1.86 12.35
11/9/2021 10:15:00 AM 6.29 43.322 0.157 7.5 1.81 12.39
11/9/2021 10:30:00 AM 6.35 43.43 0.157 7.51 1.79 12.44
11/9/2021 10:45:00 AM 6.43 43.574 0.157 7.52 1.68 12.49
11/9/2021 11:00:00 AM 6.53 43.754 0.156 7.54 1.62 12.52
11/9/2021 11:15:00 AM 6.63 43.934 0.157 7.55 1.67 12.55
11/9/2021 11:30:00 AM 6.76 44.168 0.156 7.56 1.5 12.56
11/9/2021 11:45:00 AM 6.96 44.528 0.156 7.57 1.55 12.59
11/9/2021 12:00:00 PM 7.14 44.852 0.156 7.59 1.71 12.57
11/9/2021 12:15:00 PM 7.3 45.14 0.156 7.6 1.66 12.56
11/9/2021 12:30:00 PM 7.5 45.5 0.156 7.62 1.57 12.54
11/9/2021 12:45:00 PM 7.67 45.806 0.156 7.63 1.71 12.51
11/9/2021 1:00:00 PM 7.87 46.166 0.156 7.64 1.65 12.49
11/9/2021 1:15:00 PM 8.1 46.58 0.156 7.65 1.66 12.43
11/9/2021 1:30:00 PM 8.28 46.904 0.156 7.66 1.67 12.39
11/9/2021 1:45:00 PM 8.45 47.21 0.156 7.66 1.6 12.35
11/9/2021 2:00:00 PM 8.52 47.336 0.156 7.67 1.74 12.31
11/9/2021 2:15:00 PM 8.58 47.444 0.156 7.67 1.66 12.23
11/9/2021 2:30:00 PM 8.74 47.732 0.156 7.67 1.71 12.21
11/9/2021 2:45:00 PM 8.83 47.894 0.156 7.68 1.65 12.19
11/9/2021 3:00:00 PM 8.86 47.948 0.156 7.67 1.73 12.14
11/9/2021 3:15:00 PM 8.88 47.984 0.157 7.67 1.76 12.11
11/9/2021 3:30:00 PM 8.88 47.984 0.157 7.67 1.67 12.07
11/9/2021 3:45:00 PM 8.88 47.984 0.157 7.67 1.56 12.03
11/9/2021 4:00:00 PM 8.87 47.966 0.157 7.65 1.61 11.99
11/9/2021 4:15:00 PM 8.86 47.948 0.157 7.65 1.71 11.95
11/9/2021 4:30:00 PM 8.84 47.912 0.157 7.64 1.62 11.87
11/9/2021 4:45:00 PM 8.81 47.858 0.157 7.63 1.75 11.83
11/9/2021 5:00:00 PM 8.75 47.75 0.158 7.61 1.75 11.77
11/9/2021 5:15:00 PM 8.7 47.66 0.158 7.59 1.66 11.71
11/9/2021 5:30:00 PM 8.66 47.588 0.158 7.58 1.63 11.66
11/9/2021 5:45:00 PM 8.63 47.534 0.158 7.56 1.73 11.6
11/9/2021 6:00:00 PM 8.6 47.48 0.159 7.55 1.69 11.55
11/9/2021 6:15:00 PM 8.57 47.426 0.159 7.53 1.74 11.51
11/9/2021 6:30:00 PM 8.54 47.372 0.159 7.52 1.77 11.48
11/9/2021 6:45:00 PM 8.52 47.336 0.159 7.51 1.71 11.45
11/9/2021 7:00:00 PM 8.51 47.318 0.159 7.5 1.71 11.42
11/9/2021 7:15:00 PM 8.5 47.3 0.16 7.49 1.76 11.4
11/9/2021 7:30:00 PM 8.48 47.264 0.16 7.49 1.77 11.37
11/9/2021 7:45:00 PM 8.48 47.264 0.16 7.48 1.71 11.37
11/9/2021 8:00:00 PM 8.47 47.246 0.16 7.48 2.04 11.35
11/9/2021 8:15:00 PM 8.47 47.246 0.16 7.47 1.84 11.34
11/9/2021 8:30:00 PM 8.47 47.246 0.16 7.47 1.76 11.33
11/9/2021 8:45:00 PM 8.46 47.228 0.161 7.46 1.88 11.33
11/9/2021 9:00:00 PM 8.46 47.228 0.161 7.46 1.79 11.33
11/9/2021 9:15:00 PM 8.45 47.21 0.161 7.45 1.93 11.33
11/9/2021 9:30:00 PM 8.45 47.21 0.161 7.45 1.79 11.33
11/9/2021 9:45:00 PM 8.44 47.192 0.161 7.45 1.81 11.31
11/9/2021 10:00:00 PM 8.44 47.192 0.161 7.45 1.85 11.32
11/9/2021 10:15:00 PM 8.45 47.21 0.161 7.44 1.75 11.31
11/9/2021 10:30:00 PM 8.45 47.21 0.161 7.44 1.87 11.31
11/9/2021 10:45:00 PM 8.46 47.228 0.161 7.44 1.77 11.3
11/9/2021 11:00:00 PM 8.46 47.228 0.161 7.44 1.78 11.3
11/9/2021 11:15:00 PM 8.48 47.264 0.161 7.44 1.98 11.29
11/9/2021 11:30:00 PM 8.49 47.282 0.161 7.44 2.05 11.27
11/9/2021 11:45:00 PM 8.5 47.3 0.161 7.44 2.16 11.28
11/10/2021 12:00:00 AM 8.51 47.318 0.161 7.44 2.02 11.26
11/10/2021 12:15:00 AM 8.52 47.336 0.161 7.43 2.02 11.26
11/10/2021 12:30:00 AM 8.53 47.354 0.161 7.43 2.08 11.25
11/10/2021 12:45:00 AM 8.54 47.372 0.161 7.43 2.01 11.24
11/10/2021 1:00:00 AM 8.56 47.408 0.161 7.43 2.1 11.23
11/10/2021 1:15:00 AM 8.57 47.426 0.161 7.43 1.97 11.22
11/10/2021 1:30:00 AM 8.59 47.462 0.161 7.43 2 11.22
11/10/2021 1:45:00 AM 8.6 47.48 0.161 7.43 1.98 11.2
11/10/2021 2:00:00 AM 8.62 47.516 0.161 7.43 2.06 11.2
11/10/2021 2:15:00 AM 8.63 47.534 0.161 7.43 1.9 11.19
11/10/2021 2:30:00 AM 8.64 47.552 0.161 7.42 2.05 11.18
11/10/2021 2:45:00 AM 8.66 47.588 0.161 7.43 2 11.18
11/10/2021 3:00:00 AM 8.67 47.606 0.161 7.43 1.96 11.18
11/10/2021 3:15:00 AM 8.68 47.624 0.161 7.43 1.95 11.17
11/10/2021 3:30:00 AM 8.69 47.642 0.161 7.43 2.12 11.16
11/10/2021 3:45:00 AM 8.7 47.66 0.161 7.43 2.01 11.17
11/10/2021 4:00:00 AM 8.72 47.696 0.162 7.43 1.92 11.16
11/10/2021 4:15:00 AM 8.73 47.714 0.162 7.43 1.92 11.15
11/10/2021 4:30:00 AM 8.75 47.75 0.162 7.44 2.02 11.15
11/10/2021 4:45:00 AM 8.76 47.768 0.162 7.44 1.81 11.16
11/10/2021 5:00:00 AM 8.78 47.804 0.162 7.45 1.9 11.15
11/10/2021 5:15:00 AM 8.79 47.822 0.162 7.45 1.9 11.15
11/10/2021 5:30:00 AM 8.8 47.84 0.162 7.45 1.91 11.15
11/10/2021 5:45:00 AM 8.81 47.858 0.162 7.45 1.96 11.14
11/10/2021 6:00:00 AM 8.82 47.876 0.162 7.46 1.86 11.14
11/10/2021 6:15:00 AM 8.82 47.876 0.162 7.46 1.86 11.14
11/10/2021 6:30:00 AM 8.83 47.894 0.162 7.46 1.95 11.15
11/10/2021 6:45:00 AM 8.83 47.894 0.162 7.46 2.08 11.14
11/10/2021 7:00:00 AM 8.83 47.894 0.162 7.46 2.21 11.15
11/10/2021 7:15:00 AM 8.84 47.912 0.162 7.46 2.09 11.15
11/10/2021 7:30:00 AM 8.83 47.894 0.163 7.47 2.02 11.15
11/10/2021 7:45:00 AM 8.83 47.894 0.163 7.47 2.01 11.15
11/10/2021 8:00:00 AM 8.83 47.894 0.163 7.46 1.96 11.15
11/10/2021 8:15:00 AM 8.83 47.894 0.163 7.46 1.88 11.16
11/10/2021 8:30:00 AM 8.82 47.876 0.163 7.46 1.83 11.16
11/10/2021 8:45:00 AM 8.82 47.876 0.163 7.46 2.05 11.18
11/10/2021 9:00:00 AM 8.81 47.858 0.163 7.46 1.9 11.2
11/10/2021 9:15:00 AM 8.81 47.858 0.163 7.47 1.85 11.23
11/10/2021 9:30:00 AM 8.81 47.858 0.163 7.48 1.76 11.3
11/10/2021 9:45:00 AM 8.82 47.876 0.163 7.49 1.64 11.38
11/10/2021 10:00:00 AM 8.8 47.84 0.163 7.51 1.82 11.45
11/10/2021 10:15:00 AM 8.79 47.822 0.163 7.52 1.81 11.5
11/10/2021 10:30:00 AM 8.8 47.84 0.163 7.53 1.81 11.58
11/10/2021 10:45:00 AM 8.83 47.894 0.162 7.55 2.48 11.65
11/10/2021 11:00:00 AM 8.85 47.93 0.162 7.56 1.51 11.71
11/10/2021 11:15:00 AM 8.87 47.966 0.162 7.57 1.57 11.78
11/10/2021 11:30:00 AM 8.94 48.092 0.162 7.58 1.63 11.85
11/10/2021 11:45:00 AM 9 48.2 0.162 7.6 1.69 11.89
11/10/2021 12:00:00 PM 9.07 48.326 0.162 7.62 1.7 11.95
11/10/2021 12:15:00 PM 9.16 48.488 0.162 7.63 1.65 11.95
11/10/2021 12:30:00 PM 9.25 48.65 0.162 7.64 1.63 11.97
11/10/2021 12:45:00 PM 9.34 48.812 0.162 7.66 1.7 11.98
11/10/2021 1:00:00 PM 9.45 49.01 0.162 7.67 1.56 12
11/10/2021 1:15:00 PM 9.57 49.226 0.162 7.68 1.65 11.99
11/10/2021 1:30:00 PM 9.69 49.442 0.162 7.69 1.75 11.99
11/10/2021 1:45:00 PM 9.8 49.64 0.162 7.7 1.79 11.98
11/10/2021 2:00:00 PM 9.9 49.82 0.162 7.71 1.53 11.96
11/10/2021 2:15:00 PM 9.98 49.964 0.162 7.71 1.52 11.93
11/10/2021 2:30:00 PM 10.03 50.054 0.162 7.72 1.53 11.91
11/10/2021 2:45:00 PM 10.06 50.108 0.162 7.72 1.56 11.88
11/10/2021 3:00:00 PM 10.04 50.072 0.162 7.72 1.51 11.83
11/10/2021 3:15:00 PM 9.99 49.982 0.162 7.72 1.6 11.8
11/10/2021 3:30:00 PM 9.93 49.874 0.162 7.71 1.51 11.77
11/10/2021 3:45:00 PM 9.85 49.73 0.162 7.71 1.71 11.75
11/10/2021 4:00:00 PM 9.76 49.568 0.162 7.7 1.61 11.7
11/10/2021 4:15:00 PM 9.67 49.406 0.162 7.68 1.6 11.66
11/10/2021 4:30:00 PM 9.58 49.244 0.162 7.67 1.57 11.62
11/10/2021 4:45:00 PM 9.49 49.082 0.163 7.65 1.6 11.58
11/10/2021 5:00:00 PM 9.4 48.92 0.163 7.63 1.55 11.53
11/10/2021 5:15:00 PM 9.31 48.758 0.163 7.62 1.6 11.5
11/10/2021 5:30:00 PM 9.23 48.614 0.163 7.61 1.59 11.47
11/10/2021 5:45:00 PM 9.14 48.452 0.163 7.59 1.66 11.44
11/10/2021 6:00:00 PM 9.04 48.272 0.163 7.58 1.61 11.4
11/10/2021 6:15:00 PM 8.95 48.11 0.163 7.56 1.6 11.37
11/10/2021 6:30:00 PM 8.86 47.948 0.163 7.55 1.64 11.35
11/10/2021 6:45:00 PM 8.77 47.786 0.163 7.54 1.66 11.33
11/10/2021 7:00:00 PM 8.68 47.624 0.163 7.53 1.72 11.31
11/10/2021 7:15:00 PM 8.59 47.462 0.164 7.52 1.71 11.31
11/10/2021 7:30:00 PM 8.5 47.3 0.164 7.51 1.64 11.32
11/10/2021 7:45:00 PM 8.42 47.156 0.164 7.51 1.7 11.33
11/10/2021 8:00:00 PM 8.35 47.03 0.164 7.5 1.65 11.32
11/10/2021 8:15:00 PM 8.28 46.904 0.164 7.5 1.66 11.34
11/10/2021 8:30:00 PM 8.21 46.778 0.164 7.5 1.71 11.35
11/10/2021 8:45:00 PM 8.14 46.652 0.164 7.49 1.87 11.35
11/10/2021 9:00:00 PM 8.08 46.544 0.164 7.49 2.1 11.36
11/10/2021 9:15:00 PM 8.01 46.418 0.164 7.49 1.92 11.36
11/10/2021 9:30:00 PM 7.95 46.31 0.164 7.48 1.78 11.38
11/10/2021 9:45:00 PM 7.89 46.202 0.164 7.48 1.7 11.4
11/10/2021 10:00:00 PM 7.82 46.076 0.165 7.48 1.76 11.43
11/10/2021 10:15:00 PM 7.76 45.968 0.165 7.48 1.92 11.44
11/10/2021 10:30:00 PM 7.69 45.842 0.165 7.48 1.73 11.47
11/10/2021 10:45:00 PM 7.63 45.734 0.165 7.47 1.75 11.49
11/10/2021 11:00:00 PM 7.56 45.608 0.165 7.48 2.02 11.5
11/10/2021 11:15:00 PM 7.51 45.518 0.165 7.47 1.77 11.52
11/10/2021 11:30:00 PM 7.44 45.392 0.165 7.47 1.77 11.54
11/10/2021 11:45:00 PM 7.38 45.284 0.165 7.47 1.74 11.53
11/11/2021 12:00:00 AM 7.33 45.194 0.165 7.47 1.77 11.57
11/11/2021 12:15:00 AM 7.27 45.086 0.165 7.47 1.77 11.59
11/11/2021 12:30:00 AM 7.22 44.996 0.165 7.47 1.78 11.6
11/11/2021 12:45:00 AM 7.16 44.888 0.165 7.46 1.67 11.62
11/11/2021 1:00:00 AM 7.11 44.798 0.165 7.46 1.72 11.64
11/11/2021 1:15:00 AM 7.07 44.726 0.165 7.46 1.78 11.65
11/11/2021 1:30:00 AM 7.02 44.636 0.165 7.46 1.9 11.67
11/11/2021 1:45:00 AM 6.98 44.564 0.165 7.46 2.02 11.67
11/11/2021 2:00:00 AM 6.94 44.492 0.165 7.46 2.12 11.69
11/11/2021 2:15:00 AM 6.89 44.402 0.165 7.46 2.06 11.71
11/11/2021 2:30:00 AM 6.85 44.33 0.165 7.46 1.93 11.7
11/11/2021 2:45:00 AM 6.81 44.258 0.165 7.46 1.98 11.72
11/11/2021 3:00:00 AM 6.77 44.186 0.165 7.46 1.86 11.74
11/11/2021 3:15:00 AM 6.73 44.114 0.165 7.46 1.78 11.73
11/11/2021 3:30:00 AM 6.7 44.06 0.165 7.46 1.88 11.74
11/11/2021 3:45:00 AM 6.66 43.988 0.165 7.46 1.76 11.76
11/11/2021 4:00:00 AM 6.62 43.916 0.165 7.46 1.85 11.76
11/11/2021 4:15:00 AM 6.59 43.862 0.165 7.46 1.82 11.78
11/11/2021 4:30:00 AM 6.56 43.808 0.165 7.46 1.85 11.8
11/11/2021 4:45:00 AM 6.52 43.736 0.165 7.46 1.73 11.8
11/11/2021 5:00:00 AM 6.49 43.682 0.165 7.46 1.84 11.82
11/11/2021 5:15:00 AM 6.45 43.61 0.165 7.46 1.72 11.81
11/11/2021 5:30:00 AM 6.41 43.538 0.165 7.46 1.66 11.84
11/11/2021 5:45:00 AM 6.38 43.484 0.166 7.46 1.68 11.86
11/11/2021 6:00:00 AM 6.35 43.43 0.166 7.46 1.76 11.86
11/11/2021 6:15:00 AM 6.31 43.358 0.166 7.46 1.79 11.88
11/11/2021 6:30:00 AM 6.28 43.304 0.166 7.46 1.79 11.9
11/11/2021 6:45:00 AM 6.24 43.232 0.166 7.46 1.84 11.91
11/11/2021 7:00:00 AM 6.21 43.178 0.166 7.46 1.86 11.91
11/11/2021 7:15:00 AM 6.19 43.142 0.166 7.46 1.91 11.92
11/11/2021 7:30:00 AM 6.17 43.106 0.166 7.46 2.02 11.93
11/11/2021 7:45:00 AM 6.16 43.088 0.166 7.46 1.78 11.94
11/11/2021 8:00:00 AM 6.14 43.052 0.166 7.46 1.87 11.96
11/11/2021 8:15:00 AM 6.14 43.052 0.166 7.47 1.92 11.97
11/11/2021 8:30:00 AM 6.14 43.052 0.166 7.47 1.87 12.01
11/11/2021 8:45:00 AM 6.15 43.07 0.166 7.48 1.73 12.07
11/11/2021 9:00:00 AM 6.17 43.106 0.166 7.48 1.7 12.11
11/11/2021 9:15:00 AM 6.19 43.142 0.166 7.49 1.71 12.19
11/11/2021 9:30:00 AM 6.22 43.196 0.166 7.5 1.7 12.25
11/11/2021 9:45:00 AM 6.26 43.268 0.166 7.51 1.8 12.31
11/11/2021 10:00:00 AM 6.29 43.322 0.166 7.53 1.63 12.41
11/11/2021 10:15:00 AM 6.33 43.394 0.166 7.55 1.6 12.5
11/11/2021 10:30:00 AM 6.4 43.52 0.166 7.56 1.64 12.56
11/11/2021 10:45:00 AM 6.45 43.61 0.166 7.58 1.62 12.64
11/11/2021 11:00:00 AM 6.5 43.7 0.166 7.6 1.54 12.68
11/11/2021 11:15:00 AM 6.58 43.844 0.166 7.61 1.61 12.73
11/11/2021 11:30:00 AM 6.69 44.042 0.166 7.63 1.62 12.77
11/11/2021 11:45:00 AM 6.79 44.222 0.165 7.65 1.52 12.8
11/11/2021 12:00:00 PM 6.86 44.348 0.165 7.66 1.53 12.82
11/11/2021 12:15:00 PM 6.98 44.564 0.165 7.68 1.56 12.84
11/11/2021 12:30:00 PM 7.11 44.798 0.165 7.7 1.45 12.86
11/11/2021 12:45:00 PM 7.21 44.978 0.165 7.71 1.47 12.86
11/11/2021 1:00:00 PM 7.31 45.158 0.165 7.73 1.41 12.85
11/11/2021 1:15:00 PM 7.45 45.41 0.165 7.75 1.45 12.87
11/11/2021 1:30:00 PM 7.57 45.626 0.165 7.76 1.51 12.87
11/11/2021 1:45:00 PM 7.68 45.824 0.165 7.77 1.56 12.83
11/11/2021 2:00:00 PM 7.8 46.04 0.165 7.78 1.5 12.83
11/11/2021 2:15:00 PM 7.92 46.256 0.165 7.8 1.47 12.81
11/11/2021 2:30:00 PM 7.96 46.328 0.166 7.8 1.53 12.78
11/11/2021 2:45:00 PM 8.01 46.418 0.166 7.8 1.54 12.74
11/11/2021 3:00:00 PM 8.07 46.526 0.166 7.81 1.57 12.71
11/11/2021 3:15:00 PM 8.11 46.598 0.166 7.81 1.61 12.69
11/11/2021 3:30:00 PM 8.15 46.67 0.166 7.81 1.56 12.65
11/11/2021 3:45:00 PM 8.18 46.724 0.166 7.81 1.5 12.59
11/11/2021 4:00:00 PM 8.21 46.778 0.166 7.8 1.55 12.54
11/11/2021 4:15:00 PM 8.22 46.796 0.166 7.79 1.44 12.46
11/11/2021 4:30:00 PM 8.23 46.814 0.166 7.77 1.53 12.39
11/11/2021 4:45:00 PM 8.25 46.85 0.166 7.75 1.52 12.32
11/11/2021 5:00:00 PM 8.24 46.832 0.166 7.74 1.52 12.22
11/11/2021 5:15:00 PM 8.23 46.814 0.166 7.71 1.54 12.12
11/11/2021 5:30:00 PM 8.21 46.778 0.167 7.69 1.54 12.01
11/11/2021 5:45:00 PM 8.18 46.724 0.167 7.66 1.61 11.91
11/11/2021 6:00:00 PM 8.16 46.688 0.167 7.64 1.47 11.82
11/11/2021 6:15:00 PM 8.14 46.652 0.167 7.62 1.78 11.74
11/11/2021 6:30:00 PM 8.12 46.616 0.167 7.61 1.46 11.68
11/11/2021 6:45:00 PM 8.1 46.58 0.167 7.59 1.57 11.62
11/11/2021 7:00:00 PM 8.07 46.526 0.167 7.58 1.64 11.57
11/11/2021 7:15:00 PM 8.05 46.49 0.168 7.56 1.67 11.54
11/11/2021 7:30:00 PM 8.03 46.454 0.168 7.55 1.79 11.5
11/11/2021 7:45:00 PM 8.01 46.418 0.168 7.54 1.66 11.48
11/11/2021 8:00:00 PM 7.99 46.382 0.168 7.53 1.85 11.45
11/11/2021 8:15:00 PM 7.96 46.328 0.168 7.53 2.06 11.44
11/11/2021 8:30:00 PM 7.95 46.31 0.168 7.52 1.72 11.43
11/11/2021 8:45:00 PM 7.93 46.274 0.168 7.52 1.73 11.43
11/11/2021 9:00:00 PM 7.93 46.274 0.169 7.51 1.93 11.41
11/11/2021 9:15:00 PM 7.93 46.274 0.169 7.5 1.74 11.4
11/11/2021 9:30:00 PM 7.93 46.274 0.169 7.5 1.75 11.39
11/11/2021 9:45:00 PM 7.94 46.292 0.169 7.5 1.87 11.38
11/11/2021 10:00:00 PM 7.94 46.292 0.169 7.49 1.8 11.37
11/11/2021 10:15:00 PM 7.96 46.328 0.169 7.49 1.76 11.37
11/11/2021 10:30:00 PM 7.98 46.364 0.168 7.49 1.88 11.35
11/11/2021 10:45:00 PM 8 46.4 0.168 7.49 1.82 11.36
11/11/2021 11:00:00 PM 8.02 46.436 0.169 7.49 1.87 11.34
11/11/2021 11:15:00 PM 8.05 46.49 0.169 7.48 1.88 11.33
11/11/2021 11:30:00 PM 8.08 46.544 0.169 7.48 1.82 11.32
11/11/2021 11:45:00 PM 8.11 46.598 0.169 7.49 1.84 11.31
11/12/2021 12:00:00 AM 8.14 46.652 0.169 7.49 1.63 11.31
11/12/2021 12:15:00 AM 8.17 46.706 0.169 7.48 1.74 11.28
11/12/2021 12:30:00 AM 8.2 46.76 0.169 7.48 1.87 11.28
11/12/2021 12:45:00 AM 8.24 46.832 0.17 7.48 1.74 11.27
11/12/2021 1:00:00 AM 8.27 46.886 0.17 7.48 1.79 11.25
11/12/2021 1:15:00 AM 8.31 46.958 0.17 7.48 1.7 11.24
11/12/2021 1:30:00 AM 8.36 47.048 0.17 7.48 1.68 11.22
11/12/2021 1:45:00 AM 8.4 47.12 0.17 7.48 1.72 11.2
11/12/2021 2:00:00 AM 8.44 47.192 0.17 7.48 1.69 11.18
11/12/2021 2:15:00 AM 8.49 47.282 0.17 7.48 1.82 11.16
11/12/2021 2:30:00 AM 8.52 47.336 0.17 7.47 1.96 11.14
11/12/2021 2:45:00 AM 8.57 47.426 0.17 7.48 1.86 11.13
11/12/2021 3:00:00 AM 8.61 47.498 0.17 7.48 1.79 11.11
11/12/2021 3:15:00 AM 8.65 47.57 0.17 7.47 1.76 11.1
11/12/2021 3:30:00 AM 8.69 47.642 0.17 7.48 1.69 11.09
11/12/2021 3:45:00 AM 8.73 47.714 0.17 7.48 1.74 11.08
11/12/2021 4:00:00 AM 8.78 47.804 0.17 7.48 1.78 11.07
11/12/2021 4:15:00 AM 8.82 47.876 0.17 7.48 1.75 11.05
11/12/2021 4:30:00 AM 8.86 47.948 0.17 7.48 1.79 11.05
11/12/2021 4:45:00 AM 8.91 48.038 0.17 7.48 1.99 11.03
11/12/2021 5:00:00 AM 8.95 48.11 0.17 7.48 1.92 11.02
11/12/2021 5:15:00 AM 9 48.2 0.169 7.49 2.46 11
11/12/2021 5:30:00 AM 9.05 48.29 0.169 7.49 2.14 11
11/12/2021 5:45:00 AM 9.11 48.398 0.168 7.49 2.23 10.99
11/12/2021 6:00:00 AM 9.17 48.506 0.167 7.49 2.67 10.97
11/12/2021 6:15:00 AM 9.24 48.632 0.166 7.49 3.26 10.96
11/12/2021 6:30:00 AM 9.35 48.83 0.163 7.49 6.13 10.94
11/12/2021 6:45:00 AM 9.43 48.974 0.16 7.48 10.22 10.94
11/12/2021 7:00:00 AM 9.53 49.154 0.157 7.47 14.74 10.9
11/12/2021 7:15:00 AM 9.64 49.352 0.141 7.41 84.12 10.9
11/12/2021 7:30:00 AM 9.83 49.694 0.124 7.36 134.3 10.9
11/12/2021 7:45:00 AM 10 50 0.112 7.32 126.72 10.88
11/12/2021 8:00:00 AM 10.1 50.18 0.1 7.21 459.02 10.84
11/12/2021 8:15:00 AM 10.14 50.252 0.093 7.18 300.69 10.78
11/12/2021 8:30:00 AM 10.13 50.234 0.086 7.15 196.25 10.81
11/12/2021 8:45:00 AM 10.14 50.252 0.077 7.12 311.82 10.86
11/12/2021 9:00:00 AM 10.13 50.234 0.073 7.09 375.28 10.87
11/12/2021 9:15:00 AM 10.08 50.144 0.073 7.09 283.85 10.86
11/12/2021 9:30:00 AM 10.05 50.09 0.074 7.08 235.72 10.85
11/12/2021 9:45:00 AM 10.01 50.018 0.085 7.05 193.24 10.84
11/12/2021 10:00:00 AM 9.99 49.982 0.09 6.93 147.24 10.84
11/12/2021 10:15:00 AM 9.98 49.964 0.075 6.86 180.99 10.86
11/12/2021 10:30:00 AM 10 50 0.062 6.78 243.44 10.88
11/12/2021 10:45:00 AM 10.01 50.018 0.063 6.78 253.84 10.88
11/12/2021 11:00:00 AM 10.02 50.036 0.069 6.78 217.14 10.87
11/12/2021 11:15:00 AM 10.02 50.036 0.071 6.75 207.49 10.86
11/12/2021 11:30:00 AM 10.02 50.036 0.07 6.77 187.7 10.86
11/12/2021 11:45:00 AM 10.01 50.018 0.069 6.76 174.87 10.85
11/12/2021 12:00:00 PM 10.01 50.018 0.068 6.77 169.78 10.84
11/12/2021 12:15:00 PM 10.01 50.018 0.067 6.8 147.14 10.83
11/12/2021 12:30:00 PM 10.03 50.054 0.066 6.84 132.17 10.83
11/12/2021 12:45:00 PM 10.04 50.072 0.066 6.9 119.65 10.83
11/12/2021 1:00:00 PM 10.06 50.108 0.066 6.94 119.62 10.82
11/12/2021 1:15:00 PM 10.07 50.126 0.065 6.96 115.41 10.82
11/12/2021 1:30:00 PM 10.08 50.144 0.065 6.98 105.12 10.81
11/12/2021 1:45:00 PM 10.1 50.18 0.064 6.99 105.44 10.81
11/12/2021 2:00:00 PM 10.12 50.216 0.064 6.99 99.26 10.8
11/12/2021 2:15:00 PM 10.13 50.234 0.064 7.01 94.27 10.8
11/12/2021 2:30:00 PM 10.15 50.27 0.063 7.01 87.96 10.79
11/12/2021 2:45:00 PM 10.16 50.288 0.063 7.01 83.23 10.78
11/12/2021 3:00:00 PM 10.16 50.288 0.063 7.01 74.42 10.78
11/12/2021 3:15:00 PM 10.16 50.288 0.063 7.01 71.4 10.78
11/12/2021 3:30:00 PM 10.17 50.306 0.062 7.01 67.97 10.78
11/12/2021 3:45:00 PM 10.18 50.324 0.063 7.01 64.06 10.78
11/12/2021 4:00:00 PM 10.16 50.288 0.063 7.02 62.84 10.77
11/12/2021 4:15:00 PM 10.14 50.252 0.063 7.01 60.58 10.78
11/12/2021 4:30:00 PM 10.11 50.198 0.063 7 55.97 10.78
11/12/2021 4:45:00 PM 10.07 50.126 0.064 7 53.17 10.79
11/12/2021 5:00:00 PM 10.03 50.054 0.064 7.01 49.86 10.79
11/12/2021 5:15:00 PM 9.98 49.964 0.064 7 45.65 10.79
11/12/2021 5:30:00 PM 9.93 49.874 0.065 7.01 45.16 10.8
11/12/2021 5:45:00 PM 9.88 49.784 0.065 7.02 42.69 10.81
11/12/2021 6:00:00 PM 9.83 49.694 0.066 7.03 41.26 10.82
11/12/2021 6:15:00 PM 9.77 49.586 0.066 7.03 38.85 10.84
11/12/2021 6:30:00 PM 9.71 49.478 0.067 7.04 35.96 10.85
11/12/2021 6:45:00 PM 9.65 49.37 0.067 7.02 34.87 10.86
11/12/2021 7:00:00 PM 9.59 49.262 0.068 7.03 32.95 10.87
11/12/2021 7:15:00 PM 9.53 49.154 0.069 7.03 32.15 10.88
11/12/2021 7:30:00 PM 9.47 49.046 0.07 7.02 31.66 10.9
11/12/2021 7:45:00 PM 9.4 48.92 0.07 7.03 30.82 10.92
11/12/2021 8:00:00 PM 9.33 48.794 0.071 7.03 40.23 10.94
11/12/2021 8:15:00 PM 9.26 48.668 0.072 7.02 29.12 10.96
11/12/2021 8:30:00 PM 9.19 48.542 0.072 7.04 26.78 10.98
11/12/2021 8:45:00 PM 9.12 48.416 0.073 7.02 25.81 11
11/12/2021 9:00:00 PM 9.05 48.29 0.074 7.03 24.73 11.04
11/12/2021 9:15:00 PM 8.97 48.146 0.074 7.04 24.98 11.06
11/12/2021 9:30:00 PM 8.9 48.02 0.075 7 22.19 11.09
11/12/2021 9:45:00 PM 8.82 47.876 0.076 7.03 21.05 11.11
11/12/2021 10:00:00 PM 8.75 47.75 0.076 7.04 20.61 11.14
11/12/2021 10:15:00 PM 8.67 47.606 0.077 7.05 21.01 11.15
11/12/2021 10:30:00 PM 8.6 47.48 0.077 7.06 19.52 11.18
11/12/2021 10:45:00 PM 8.53 47.354 0.078 7.06 18.34 11.21
11/12/2021 11:00:00 PM 8.46 47.228 0.078 7.03 17 11.24
11/12/2021 11:15:00 PM 8.39 47.102 0.079 7.03 624.85 11.27
11/12/2021 11:30:00 PM 8.32 46.976 0.079 7.02 27.12 11.29
11/12/2021 11:45:00 PM 8.25 46.85 0.08 7.1 20.21 11.32
11/13/2021 12:00:00 AM 8.19 46.742 0.08 7.1 17.38 11.34
11/13/2021 12:15:00 AM 8.12 46.616 0.081 7.1 16.91 11.35
11/13/2021 12:30:00 AM 8.06 46.508 0.081 7.12 17.94 11.37
11/13/2021 12:45:00 AM 7.99 46.382 0.081 6.97 17.39 11.38
11/13/2021 1:00:00 AM 7.93 46.274 0.082 7.05 18.94 11.42
11/13/2021 1:15:00 AM 7.87 46.166 0.082 7.12 16.48 11.43
11/13/2021 1:30:00 AM 7.81 46.058 0.083 7.06 14.94 11.45
11/13/2021 1:45:00 AM 7.76 45.968 0.083 7.13 11.39 11.47
11/13/2021 2:00:00 AM 7.71 45.878 0.083 7.14 13.59 11.5
11/13/2021 2:15:00 AM 7.67 45.806 0.084 7.14 11.34 11.51
11/13/2021 2:30:00 AM 7.62 45.716 0.076 7.1 63.47 11.53
11/13/2021 2:45:00 AM 7.57 45.626 0.084 7.12 10.97 11.53
11/13/2021 3:00:00 AM 7.53 45.554 0.085 7.12 15.05 11.55
11/13/2021 3:15:00 AM 7.49 45.482 0.085 7.15 10.38 11.56
11/13/2021 3:30:00 AM 7.45 45.41 0.085 7.14 10 11.57
11/13/2021 3:45:00 AM 7.41 45.338 0.085 7.14 9.6 11.58
11/13/2021 4:00:00 AM 7.38 45.284 0.085 7.14 9.77 11.58
11/13/2021 4:15:00 AM 7.35 45.23 0.085 7.15 9.33 11.59
11/13/2021 4:30:00 AM 7.32 45.176 0.085 7.16 9.05 11.6
11/13/2021 4:45:00 AM 7.3 45.14 0.085 7.16 9.73 11.6
11/13/2021 5:00:00 AM 7.28 45.104 0.086 7.15 8.85 11.61
11/13/2021 5:15:00 AM 7.26 45.068 0.086 7.16 9.49 11.61
11/13/2021 5:30:00 AM 7.25 45.05 0.086 7.16 8.45 11.63
11/13/2021 5:45:00 AM 7.24 45.032 0.086 7.16 8.21 11.63
11/13/2021 6:00:00 AM 7.23 45.014 0.086 7.16 8.57 11.64
11/13/2021 6:15:00 AM 7.22 44.996 0.086 7.16 8.47 11.64
11/13/2021 6:30:00 AM 7.22 44.996 0.086 7.16 8.54 11.65
11/13/2021 6:45:00 AM 7.21 44.978 0.086 7.16 8.46 11.64
11/13/2021 7:00:00 AM 7.21 44.978 0.086 7.16 8.31 11.65
11/13/2021 7:15:00 AM 7.21 44.978 0.086 7.17 7.83 11.65
11/13/2021 7:30:00 AM 7.21 44.978 0.086 7.17 8.21 11.65
11/13/2021 7:45:00 AM 7.21 44.978 0.086 7.16 7.91 11.65
11/13/2021 8:00:00 AM 7.21 44.978 0.086 7.16 7.44 11.65
11/13/2021 8:15:00 AM 7.22 44.996 0.086 7.16 7.68 11.64
11/13/2021 8:30:00 AM 7.22 44.996 0.086 7.16 7.36 11.65
11/13/2021 8:45:00 AM 7.23 45.014 0.086 7.17 7.22 11.66
11/13/2021 9:00:00 AM 7.25 45.05 0.086 7.17 7.04 11.66
11/13/2021 9:15:00 AM 7.27 45.086 0.086 7.17 6.8 11.68
11/13/2021 9:30:00 AM 7.3 45.14 0.086 7.18 7.01 11.71
11/13/2021 9:45:00 AM 7.33 45.194 0.086 7.17 6.75 11.71
11/13/2021 10:00:00 AM 7.36 45.248 0.086 7.18 6.55 11.7
11/13/2021 10:15:00 AM 7.39 45.302 0.086 7.17 6.12 11.69
11/13/2021 10:30:00 AM 7.41 45.338 0.086 7.18 6.24 11.68
11/13/2021 10:45:00 AM 7.43 45.374 0.086 7.17 6.28 11.68
11/13/2021 11:00:00 AM 7.45 45.41 0.086 7.17 5.93 11.67
11/13/2021 11:15:00 AM 7.47 45.446 0.086 7.17 5.96 11.67
11/13/2021 11:30:00 AM 7.49 45.482 0.086 7.18 5.5 11.68
11/13/2021 11:45:00 AM 7.51 45.518 0.086 7.18 5.61 11.67
11/13/2021 12:00:00 PM 7.54 45.572 0.086 7.19 6.05 11.68
11/13/2021 12:15:00 PM 7.57 45.626 0.086 7.2 5.67 11.7
11/13/2021 12:30:00 PM 7.61 45.698 0.086 7.21 5.43 11.69
11/13/2021 12:45:00 PM 7.63 45.734 0.086 7.21 5.61 11.69
11/13/2021 1:00:00 PM 7.65 45.77 0.086 7.21 5.45 11.68
11/13/2021 1:15:00 PM 7.67 45.806 0.086 7.21 5.39 11.68
11/13/2021 1:30:00 PM 7.69 45.842 0.086 7.21 5.39 11.67
11/13/2021 1:45:00 PM 7.7 45.86 0.086 7.22 5.34 11.66
11/13/2021 2:00:00 PM 7.7 45.86 0.086 7.22 5.6 11.65
11/13/2021 2:15:00 PM 7.69 45.842 0.086 7.22 5.22 11.65
11/13/2021 2:30:00 PM 7.69 45.842 0.086 7.22 5.22 11.66
11/13/2021 2:45:00 PM 7.69 45.842 0.086 7.23 5.42 11.66
11/13/2021 3:00:00 PM 7.7 45.86 0.086 7.22 5.36 11.67
11/13/2021 3:15:00 PM 7.7 45.86 0.086 7.2 5.39 11.67
11/13/2021 3:30:00 PM 7.71 45.878 0.086 7.2 5.29 11.69
11/13/2021 3:45:00 PM 7.71 45.878 0.086 7.2 5.11 11.7
11/13/2021 4:00:00 PM 7.71 45.878 0.086 7.2 5.3 11.69
11/13/2021 4:15:00 PM 7.72 45.896 0.086 7.21 5.3 11.69
11/13/2021 4:30:00 PM 7.72 45.896 0.086 7.21 5.17 11.7
11/13/2021 4:45:00 PM 7.71 45.878 0.086 7.21 5.12 11.69
11/13/2021 5:00:00 PM 7.7 45.86 0.086 7.21 5.32 11.66
11/13/2021 5:15:00 PM 7.68 45.824 0.086 7.21 5.05 11.66
11/13/2021 5:30:00 PM 7.66 45.788 0.086 7.2 5.39 11.62
11/13/2021 5:45:00 PM 7.64 45.752 0.086 7.2 5.31 11.62
11/13/2021 6:00:00 PM 7.62 45.716 0.086 7.18 5.26 11.61
11/13/2021 6:15:00 PM 7.59 45.662 0.086 7.18 5.56 11.59
11/13/2021 6:30:00 PM 7.56 45.608 0.086 7.19 5.84 11.6
11/13/2021 6:45:00 PM 7.52 45.536 0.086 7.18 5.96 11.6
11/13/2021 7:00:00 PM 7.48 45.464 0.086 7.18 6.11 11.59
11/13/2021 7:15:00 PM 7.44 45.392 0.087 7.18 6.64 11.61
11/13/2021 7:30:00 PM 7.4 45.32 0.087 7.18 6.99 11.61
11/13/2021 7:45:00 PM 7.37 45.266 0.087 7.17 6.97 11.62
11/13/2021 8:00:00 PM 7.33 45.194 0.087 7.17 6.99 11.63
11/13/2021 8:15:00 PM 7.3 45.14 0.087 7.17 7.1 11.63
11/13/2021 8:30:00 PM 7.25 45.05 0.087 7.17 7.1 11.65
11/13/2021 8:45:00 PM 7.21 44.978 0.087 7.16 7.48 11.67
11/13/2021 9:00:00 PM 7.16 44.888 0.087 7.17 7.73 11.68
11/13/2021 9:15:00 PM 7.11 44.798 0.087 7.17 7.83 11.69
11/13/2021 9:30:00 PM 7.06 44.708 0.087 7.18 7.8 11.71
11/13/2021 9:45:00 PM 7.02 44.636 0.087 7.18 7.52 11.73
11/13/2021 10:00:00 PM 6.98 44.564 0.087 7.17 7.57 11.74
11/13/2021 10:15:00 PM 6.95 44.51 0.087 7.17 7.31 11.76
11/13/2021 10:30:00 PM 6.93 44.474 0.087 7.17 7.2 11.76
11/13/2021 10:45:00 PM 6.91 44.438 0.087 7.17 7 11.77
11/13/2021 11:00:00 PM 6.89 44.402 0.087 7.17 6.85 11.78
11/13/2021 11:15:00 PM 6.87 44.366 0.087 7.17 6.96 11.79
11/13/2021 11:30:00 PM 6.85 44.33 0.087 7.17 6.7 11.79
11/13/2021 11:45:00 PM 6.83 44.294 0.087 7.17 6.57 11.8
11/14/2021 12:00:00 AM 6.82 44.276 0.087 7.17 7.01 11.81
11/14/2021 12:15:00 AM 6.8 44.24 0.087 7.19 7.09 11.81
11/14/2021 12:30:00 AM 6.79 44.222 0.087 7.19 7.84 11.81
11/14/2021 12:45:00 AM 6.78 44.204 0.087 7.19 8.08 11.82
11/14/2021 1:00:00 AM 6.77 44.186 0.088 7.19 8.45 11.82
11/14/2021 1:15:00 AM 6.76 44.168 0.088 7.19 8.81 11.82
11/14/2021 1:30:00 AM 6.75 44.15 0.088 7.19 8.86 11.83
11/14/2021 1:45:00 AM 6.74 44.132 0.088 7.2 9.01 11.83
11/14/2021 2:00:00 AM 6.73 44.114 0.088 7.19 9.45 11.84
11/14/2021 2:15:00 AM 6.73 44.114 0.088 7.18 8.95 11.84
11/14/2021 2:30:00 AM 6.72 44.096 0.088 7.19 9.18 11.84
11/14/2021 2:45:00 AM 6.72 44.096 0.088 7.19 9.28 11.84
11/14/2021 3:00:00 AM 6.72 44.096 0.089 7.19 8.9 11.85
11/14/2021 3:15:00 AM 6.72 44.096 0.089 7.2 8.51 11.85
11/14/2021 3:30:00 AM 6.71 44.078 0.089 7.2 8.71 11.85
11/14/2021 3:45:00 AM 6.71 44.078 0.089 7.2 8.6 11.85
11/14/2021 4:00:00 AM 6.71 44.078 0.089 7.2 7.67 11.85
11/14/2021 4:15:00 AM 6.7 44.06 0.089 7.2 7.83 11.86
11/14/2021 4:30:00 AM 6.7 44.06 0.089 7.2 7.12 11.85
11/14/2021 4:45:00 AM 6.69 44.042 0.09 7.19 7.68 11.86
11/14/2021 5:00:00 AM 6.69 44.042 0.09 7.2 6.66 11.87
11/14/2021 5:15:00 AM 6.69 44.042 0.09 7.2 6.83 11.86
11/14/2021 5:30:00 AM 6.69 44.042 0.09 7.2 6.6 11.86
11/14/2021 5:45:00 AM 6.69 44.042 0.09 7.2 6.24 11.87
11/14/2021 6:00:00 AM 6.69 44.042 0.09 7.2 6.13 11.87
11/14/2021 6:15:00 AM 6.69 44.042 0.09 7.2 6.08 11.87
11/14/2021 6:30:00 AM 6.68 44.024 0.09 7.2 5.85 11.87
11/14/2021 6:45:00 AM 6.68 44.024 0.091 7.2 5.64 11.88
11/14/2021 7:00:00 AM 6.67 44.006 0.091 7.21 5.76 11.88
11/14/2021 7:15:00 AM 6.64 43.952 0.091 7.21 5.84 11.89
11/14/2021 7:30:00 AM 6.64 43.952 0.091 7.21 6.01 11.89
11/14/2021 7:45:00 AM 6.65 43.97 0.091 7.21 5.73 11.89
11/14/2021 8:00:00 AM 6.65 43.97 0.091 7.21 5.79 11.9
11/14/2021 8:15:00 AM 6.66 43.988 0.091 7.21 5.77 11.9
11/14/2021 8:30:00 AM 6.65 43.97 0.091 7.21 5.31 11.9
11/14/2021 8:45:00 AM 6.65 43.97 0.092 7.22 5.5 11.91
11/14/2021 9:00:00 AM 6.66 43.988 0.092 7.22 5.07 11.91
11/14/2021 9:15:00 AM 6.66 43.988 0.092 7.22 4.77 11.92
11/14/2021 9:30:00 AM 6.66 43.988 0.092 7.22 5.21 11.93
11/14/2021 9:45:00 AM 6.66 43.988 0.092 7.23 4.92 11.95
11/14/2021 10:00:00 AM 6.67 44.006 0.092 7.23 4.64 11.97
11/14/2021 10:15:00 AM 6.68 44.024 0.092 7.23 4.78 11.99
11/14/2021 10:30:00 AM 6.7 44.06 0.092 7.23 4.44 12.02
11/14/2021 10:45:00 AM 6.72 44.096 0.092 7.24 4.5 12.05
11/14/2021 11:00:00 AM 6.74 44.132 0.092 7.25 4.24 12.06
11/14/2021 11:15:00 AM 6.75 44.15 0.092 7.25 4.36 12.07
11/14/2021 11:30:00 AM 6.78 44.204 0.093 7.25 4.53 12.09
11/14/2021 11:45:00 AM 6.8 44.24 0.093 7.26 4.21 12.12
11/14/2021 12:00:00 PM 6.84 44.312 0.093 7.27 4.03 12.14
11/14/2021 12:15:00 PM 6.88 44.384 0.093 7.28 4.33 12.16
11/14/2021 12:30:00 PM 6.93 44.474 0.093 7.29 4.3 12.16
11/14/2021 12:45:00 PM 6.98 44.564 0.093 7.3 4.27 12.17
11/14/2021 1:00:00 PM 7.03 44.654 0.093 7.3 4.2 12.16
11/14/2021 1:15:00 PM 7.09 44.762 0.093 7.31 4.37 12.16
11/14/2021 1:30:00 PM 7.14 44.852 0.093 7.32 4.37 12.16
11/14/2021 1:45:00 PM 7.18 44.924 0.093 7.32 4.14 12.14
11/14/2021 2:00:00 PM 7.22 44.996 0.093 7.32 4.4 12.12
11/14/2021 2:15:00 PM 7.25 45.05 0.093 7.32 4.32 12.1
11/14/2021 2:30:00 PM 7.27 45.086 0.094 7.32 4.32 12.09
11/14/2021 2:45:00 PM 7.27 45.086 0.094 7.33 4.95 12.06
11/14/2021 3:00:00 PM 7.29 45.122 0.094 7.33 4.83 12.04
11/14/2021 3:15:00 PM 7.3 45.14 0.094 7.33 4.18 12.02
11/14/2021 3:30:00 PM 7.3 45.14 0.094 7.33 13.48 12.01
11/14/2021 3:45:00 PM 7.31 45.158 0.094 7.32 4.67 12
11/14/2021 4:00:00 PM 7.31 45.158 0.094 7.32 5.49 11.98
11/14/2021 4:15:00 PM 7.3 45.14 0.094 7.32 6.8 11.94
11/14/2021 4:30:00 PM 7.3 45.14 0.094 7.31 4.74 11.9
11/14/2021 4:45:00 PM 7.28 45.104 0.094 7.3 4.37 11.86
11/14/2021 5:00:00 PM 7.26 45.068 0.093 7.29 4.63 11.83
11/14/2021 5:15:00 PM 7.24 45.032 0.095 7.28 5.44 11.8
11/14/2021 5:30:00 PM 7.22 44.996 0.083 7.28 4.5 11.78
11/14/2021 5:45:00 PM 7.21 44.978 0.095 7.27 4.31 11.76
11/14/2021 6:00:00 PM 7.2 44.96 0.095 7.27 5.38 11.74
11/14/2021 6:15:00 PM 7.19 44.942 0.096 7.26 9.03 11.75
11/14/2021 6:30:00 PM 7.18 44.924 0.096 7.26 9.25 11.74
11/14/2021 6:45:00 PM 7.16 44.888 0.096 7.26 5.46 11.73
11/14/2021 7:00:00 PM 7.15 44.87 0.096 7.26 14.03 11.73
11/14/2021 7:15:00 PM 7.13 44.834 0.095 7.25 9.22 11.72
11/14/2021 7:30:00 PM 7.11 44.798 0.095 7.26 5.72 11.72
11/14/2021 7:45:00 PM 7.08 44.744 0.095 7.25 6.19 11.73
11/14/2021 8:00:00 PM 7.03 44.654 0.095 7.25 6.38 11.74
11/14/2021 8:15:00 PM 6.98 44.564 0.095 7.25 6.17 11.74
11/14/2021 8:30:00 PM 6.93 44.474 0.095 7.25 6.35 11.75
11/14/2021 8:45:00 PM 6.88 44.384 0.095 7.25 6.13 11.76
11/14/2021 9:00:00 PM 6.82 44.276 0.095 7.25 5.89 11.76
11/14/2021 9:15:00 PM 6.76 44.168 0.095 7.25 6.19 11.78
11/14/2021 9:30:00 PM 6.7 44.06 0.095 7.25 6.26 11.78
11/14/2021 9:45:00 PM 6.65 43.97 0.095 7.25 6.17 11.79
11/14/2021 10:00:00 PM 6.62 43.916 0.095 7.24 6.03 11.81
11/14/2021 10:15:00 PM 6.59 43.862 0.095 7.24 6.85 11.83
11/14/2021 10:30:00 PM 6.56 43.808 0.095 7.24 6.46 11.84
11/14/2021 10:45:00 PM 6.53 43.754 0.095 7.24 6.26 11.85
11/14/2021 11:00:00 PM 6.5 43.7 0.095 7.24 6.66 11.86
11/14/2021 11:15:00 PM 6.47 43.646 0.095 7.24 6.22 11.87
11/14/2021 11:30:00 PM 6.43 43.574 0.095 7.25 6.33 11.89
11/14/2021 11:45:00 PM 6.4 43.52 0.096 7.25 6.61 11.9
11/15/2021 12:00:00 AM 6.37 43.466 0.096 7.25 5.81 11.91
11/15/2021 12:15:00 AM 6.35 43.43 0.096 7.25 5.68 11.91
11/15/2021 12:30:00 AM 6.34 43.412 0.096 7.25 5.73 11.93
11/15/2021 12:45:00 AM 6.32 43.376 0.096 7.25 5.58 11.94
11/15/2021 1:00:00 AM 6.31 43.358 0.096 7.25 7.06 11.94
11/15/2021 1:15:00 AM 6.3 43.34 0.096 7.25 5.16 11.95
11/15/2021 1:30:00 AM 6.29 43.322 0.096 7.25 5 11.94
11/15/2021 1:45:00 AM 6.28 43.304 0.096 7.25 7.54 11.95
11/15/2021 2:00:00 AM 6.27 43.286 0.096 7.25 8.03 11.96
11/15/2021 2:15:00 AM 6.25 43.25 0.096 7.25 5.07 11.96
11/15/2021 2:30:00 AM 6.24 43.232 0.096 7.24 8.6 11.97
11/15/2021 2:45:00 AM 6.22 43.196 0.096 7.24 5.86 11.98
11/15/2021 3:00:00 AM 6.21 43.178 0.096 7.24 10 11.97
11/15/2021 3:15:00 AM 6.19 43.142 0.096 7.24 11.38 11.98
11/15/2021 3:30:00 AM 6.18 43.124 0.096 7.24 10.87 11.98
11/15/2021 3:45:00 AM 6.17 43.106 0.096 7.24 5.87 11.99
11/15/2021 4:00:00 AM 6.16 43.088 0.096 7.24 5.99 11.98
11/15/2021 4:15:00 AM 6.15 43.07 0.097 7.24 6.35 11.99
11/15/2021 4:30:00 AM 6.13 43.034 0.097 7.24 6.45 11.99
11/15/2021 4:45:00 AM 6.12 43.016 0.097 7.24 7.13 11.99
11/15/2021 5:00:00 AM 6.11 42.998 0.097 7.24 6.39 11.99
11/15/2021 5:15:00 AM 6.1 42.98 0.097 7.24 6.86 12
11/15/2021 5:30:00 AM 6.08 42.944 0.097 7.24 7.11 12
11/15/2021 5:45:00 AM 6.07 42.926 0.097 7.24 7.59 12
11/15/2021 6:00:00 AM 6.06 42.908 0.097 7.24 7.28 12.01
11/15/2021 6:15:00 AM 6.05 42.89 0.097 7.24 7.07 12.01
11/15/2021 6:30:00 AM 6.05 42.89 0.097 7.24 6.92 12.01
11/15/2021 6:45:00 AM 6.04 42.872 0.097 7.24 6.99 12.02
11/15/2021 7:00:00 AM 6.03 42.854 0.097 7.24 7.15 12.02
11/15/2021 7:15:00 AM 6.02 42.836 0.097 7.24 7.32 12.02
11/15/2021 7:30:00 AM 6.01 42.818 0.097 7.24 7.39 12.02
11/15/2021 7:45:00 AM 6.01 42.818 0.097 7.24 7.26 12.03
11/15/2021 8:00:00 AM 6 42.8 0.097 7.25 7.7 12.03
11/15/2021 8:15:00 AM 6 42.8 0.097 7.25 7.4 12.04
11/15/2021 8:30:00 AM 6 42.8 0.097 7.25 7.12 12.06
11/15/2021 8:45:00 AM 6 42.8 0.097 7.25 7.07 12.08